<?xml version="1.0" encoding="UTF-8" standalone="no" ?>
<gpx xmlns="http://www.topografix.com/GPX/1/1" xmlns:xsi="http://www.w3.org/2001/XMLSchema-instance" xsi:schemaLocation="http://www.topografix.com/GPX/1/1 http://www.topografix.com/GPX/1/1/gpx.xsd" version="1.1" creator="VisuGPX - https://www.visugpx.com">
  <metadata>
    <name>Activité de Randonnée TwoNav</name>
    <desc><![CDATA[2021-12-05_124936.trk]]></desc>
  </metadata>
  <trk>
    <name><![CDATA[Activité de Randonnée TwoNav_1]]></name>
    <trkseg>
      <trkpt lat="48.06473" lon="7.02299">
        <ele>1138.5</ele>
        <time>2021-12-05T11:49:36Z</time>
      </trkpt>
      <trkpt lat="48.06481" lon="7.02301">
        <ele>1139.2</ele>
        <time>2021-12-05T11:49:37Z</time>
      </trkpt>
      <trkpt lat="48.06487" lon="7.02302">
        <ele>1139.9</ele>
        <time>2021-12-05T11:49:48Z</time>
      </trkpt>
      <trkpt lat="48.06494" lon="7.02303">
        <ele>1140.7</ele>
        <time>2021-12-05T11:49:57Z</time>
      </trkpt>
      <trkpt lat="48.06501" lon="7.02304">
        <ele>1141.4</ele>
        <time>2021-12-05T11:50:04Z</time>
      </trkpt>
      <trkpt lat="48.06507" lon="7.02305">
        <ele>1142.2</ele>
        <time>2021-12-05T11:50:14Z</time>
      </trkpt>
      <trkpt lat="48.06514" lon="7.02306">
        <ele>1143</ele>
        <time>2021-12-05T11:50:24Z</time>
      </trkpt>
      <trkpt lat="48.06521" lon="7.02307">
        <ele>1143.8</ele>
        <time>2021-12-05T11:50:24Z</time>
      </trkpt>
      <trkpt lat="48.06528" lon="7.02311">
        <ele>1144.8</ele>
        <time>2021-12-05T11:50:42Z</time>
      </trkpt>
      <trkpt lat="48.06529" lon="7.02311">
        <ele>1145</ele>
        <time>2021-12-05T11:50:43Z</time>
      </trkpt>
      <trkpt lat="48.06537" lon="7.02316">
        <ele>1146.2</ele>
        <time>2021-12-05T11:50:57Z</time>
      </trkpt>
      <trkpt lat="48.06537" lon="7.02317">
        <ele>1146.2</ele>
        <time>2021-12-05T11:50:58Z</time>
      </trkpt>
      <trkpt lat="48.06537" lon="7.02317">
        <ele>1146.2</ele>
        <time>2021-12-05T11:50:59Z</time>
      </trkpt>
      <trkpt lat="48.06546" lon="7.02323">
        <ele>1147.5</ele>
        <time>2021-12-05T11:51:10Z</time>
      </trkpt>
      <trkpt lat="48.06555" lon="7.02326">
        <ele>1148.6</ele>
        <time>2021-12-05T11:51:23Z</time>
      </trkpt>
      <trkpt lat="48.06564" lon="7.0233">
        <ele>1149.7</ele>
        <time>2021-12-05T11:51:35Z</time>
      </trkpt>
      <trkpt lat="48.06568" lon="7.02342">
        <ele>1150.7</ele>
        <time>2021-12-05T11:51:53Z</time>
      </trkpt>
      <trkpt lat="48.06568" lon="7.02342">
        <ele>1150.7</ele>
        <time>2021-12-05T11:51:54Z</time>
      </trkpt>
      <trkpt lat="48.06568" lon="7.02343">
        <ele>1150.8</ele>
        <time>2021-12-05T11:51:55Z</time>
      </trkpt>
      <trkpt lat="48.06576" lon="7.02352">
        <ele>1151.9</ele>
        <time>2021-12-05T11:52:17Z</time>
      </trkpt>
      <trkpt lat="48.06585" lon="7.0236">
        <ele>1153.2</ele>
        <time>2021-12-05T11:52:25Z</time>
      </trkpt>
      <trkpt lat="48.06593" lon="7.02368">
        <ele>1154.4</ele>
        <time>2021-12-05T11:52:35Z</time>
      </trkpt>
      <trkpt lat="48.06601" lon="7.02375">
        <ele>1155.5</ele>
        <time>2021-12-05T11:52:49Z</time>
      </trkpt>
      <trkpt lat="48.06602" lon="7.02376">
        <ele>1155.7</ele>
        <time>2021-12-05T11:52:59Z</time>
      </trkpt>
      <trkpt lat="48.06602" lon="7.02377">
        <ele>1155.7</ele>
        <time>2021-12-05T11:53:00Z</time>
      </trkpt>
      <trkpt lat="48.06609" lon="7.02386">
        <ele>1156.8</ele>
        <time>2021-12-05T11:53:12Z</time>
      </trkpt>
      <trkpt lat="48.06615" lon="7.02393">
        <ele>1157.8</ele>
        <time>2021-12-05T11:53:26Z</time>
      </trkpt>
      <trkpt lat="48.06615" lon="7.02394">
        <ele>1157.8</ele>
        <time>2021-12-05T11:53:27Z</time>
      </trkpt>
      <trkpt lat="48.06623" lon="7.02403">
        <ele>1159</ele>
        <time>2021-12-05T11:53:45Z</time>
      </trkpt>
      <trkpt lat="48.06624" lon="7.02416">
        <ele>1160.2</ele>
        <time>2021-12-05T11:54:09Z</time>
      </trkpt>
      <trkpt lat="48.06629" lon="7.02416">
        <ele>1160.8</ele>
        <time>2021-12-05T11:54:15Z</time>
      </trkpt>
      <trkpt lat="48.06629" lon="7.02417">
        <ele>1160.9</ele>
        <time>2021-12-05T11:54:16Z</time>
      </trkpt>
      <trkpt lat="48.06631" lon="7.0242">
        <ele>1161.3</ele>
        <time>2021-12-05T11:54:25Z</time>
      </trkpt>
      <trkpt lat="48.06631" lon="7.0242">
        <ele>1161.4</ele>
        <time>2021-12-05T11:54:27Z</time>
      </trkpt>
      <trkpt lat="48.06631" lon="7.0242">
        <ele>1161.4</ele>
        <time>2021-12-05T11:54:28Z</time>
      </trkpt>
      <trkpt lat="48.06631" lon="7.0242">
        <ele>1161.4</ele>
        <time>2021-12-05T11:54:36Z</time>
      </trkpt>
      <trkpt lat="48.06631" lon="7.0242">
        <ele>1161.4</ele>
        <time>2021-12-05T11:54:37Z</time>
      </trkpt>
      <trkpt lat="48.06631" lon="7.0242">
        <ele>1161.4</ele>
        <time>2021-12-05T11:54:38Z</time>
      </trkpt>
      <trkpt lat="48.06631" lon="7.0242">
        <ele>1161.4</ele>
        <time>2021-12-05T11:54:39Z</time>
      </trkpt>
      <trkpt lat="48.06632" lon="7.02419">
        <ele>1161.5</ele>
        <time>2021-12-05T11:54:40Z</time>
      </trkpt>
      <trkpt lat="48.06632" lon="7.02417">
        <ele>1161.8</ele>
        <time>2021-12-05T11:54:45Z</time>
      </trkpt>
      <trkpt lat="48.06632" lon="7.02417">
        <ele>1161.8</ele>
        <time>2021-12-05T11:54:47Z</time>
      </trkpt>
      <trkpt lat="48.06641" lon="7.02421">
        <ele>1163</ele>
        <time>2021-12-05T11:55:40Z</time>
      </trkpt>
      <trkpt lat="48.0665" lon="7.02422">
        <ele>1164.1</ele>
        <time>2021-12-05T11:55:51Z</time>
      </trkpt>
      <trkpt lat="48.06657" lon="7.02432">
        <ele>1165.1</ele>
        <time>2021-12-05T11:56:04Z</time>
      </trkpt>
      <trkpt lat="48.06663" lon="7.02432">
        <ele>1165.8</ele>
        <time>2021-12-05T11:56:14Z</time>
      </trkpt>
      <trkpt lat="48.06664" lon="7.02433">
        <ele>1165.8</ele>
        <time>2021-12-05T11:56:15Z</time>
      </trkpt>
      <trkpt lat="48.06671" lon="7.02435">
        <ele>1166.7</ele>
        <time>2021-12-05T11:56:26Z</time>
      </trkpt>
      <trkpt lat="48.06671" lon="7.02436">
        <ele>1166.7</ele>
        <time>2021-12-05T11:56:27Z</time>
      </trkpt>
      <trkpt lat="48.0668" lon="7.02441">
        <ele>1167.7</ele>
        <time>2021-12-05T11:56:42Z</time>
      </trkpt>
      <trkpt lat="48.06687" lon="7.02449">
        <ele>1168.7</ele>
        <time>2021-12-05T11:56:55Z</time>
      </trkpt>
      <trkpt lat="48.06695" lon="7.02448">
        <ele>1169.7</ele>
        <time>2021-12-05T11:57:09Z</time>
      </trkpt>
      <trkpt lat="48.06696" lon="7.02448">
        <ele>1169.8</ele>
        <time>2021-12-05T11:57:10Z</time>
      </trkpt>
      <trkpt lat="48.06705" lon="7.02451">
        <ele>1170.9</ele>
        <time>2021-12-05T11:57:23Z</time>
      </trkpt>
      <trkpt lat="48.06714" lon="7.02454">
        <ele>1172</ele>
        <time>2021-12-05T11:57:33Z</time>
      </trkpt>
      <trkpt lat="48.06724" lon="7.02454">
        <ele>1173.1</ele>
        <time>2021-12-05T11:57:49Z</time>
      </trkpt>
      <trkpt lat="48.06731" lon="7.02452">
        <ele>1173.3</ele>
        <time>2021-12-05T11:58:02Z</time>
      </trkpt>
      <trkpt lat="48.06732" lon="7.02452">
        <ele>1173.4</ele>
        <time>2021-12-05T11:58:03Z</time>
      </trkpt>
      <trkpt lat="48.0674" lon="7.02459">
        <ele>1173.7</ele>
        <time>2021-12-05T11:58:18Z</time>
      </trkpt>
      <trkpt lat="48.06746" lon="7.02469">
        <ele>1174</ele>
        <time>2021-12-05T11:58:31Z</time>
      </trkpt>
      <trkpt lat="48.06753" lon="7.02478">
        <ele>1174.4</ele>
        <time>2021-12-05T11:58:46Z</time>
      </trkpt>
      <trkpt lat="48.06762" lon="7.02479">
        <ele>1174.7</ele>
        <time>2021-12-05T11:58:57Z</time>
      </trkpt>
      <trkpt lat="48.06771" lon="7.02475">
        <ele>1175</ele>
        <time>2021-12-05T11:59:12Z</time>
      </trkpt>
      <trkpt lat="48.06771" lon="7.02475">
        <ele>1175</ele>
        <time>2021-12-05T11:59:13Z</time>
      </trkpt>
      <trkpt lat="48.0677" lon="7.02475">
        <ele>1175.1</ele>
        <time>2021-12-05T11:59:14Z</time>
      </trkpt>
      <trkpt lat="48.0677" lon="7.02475">
        <ele>1175.1</ele>
        <time>2021-12-05T11:59:15Z</time>
      </trkpt>
      <trkpt lat="48.0677" lon="7.02475">
        <ele>1175</ele>
        <time>2021-12-05T11:59:16Z</time>
      </trkpt>
      <trkpt lat="48.06779" lon="7.02473">
        <ele>1175.4</ele>
        <time>2021-12-05T11:59:30Z</time>
      </trkpt>
      <trkpt lat="48.06782" lon="7.02472">
        <ele>1175.6</ele>
        <time>2021-12-05T11:59:35Z</time>
      </trkpt>
      <trkpt lat="48.06781" lon="7.02472">
        <ele>1175.5</ele>
        <time>2021-12-05T11:59:36Z</time>
      </trkpt>
      <trkpt lat="48.06781" lon="7.02472">
        <ele>1175.5</ele>
        <time>2021-12-05T11:59:38Z</time>
      </trkpt>
      <trkpt lat="48.06781" lon="7.02472">
        <ele>1175.6</ele>
        <time>2021-12-05T11:59:39Z</time>
      </trkpt>
      <trkpt lat="48.06791" lon="7.02474">
        <ele>1176.3</ele>
        <time>2021-12-05T11:59:49Z</time>
      </trkpt>
      <trkpt lat="48.068" lon="7.02475">
        <ele>1176.8</ele>
        <time>2021-12-05T12:00:00Z</time>
      </trkpt>
      <trkpt lat="48.068" lon="7.02476">
        <ele>1176.8</ele>
        <time>2021-12-05T12:00:02Z</time>
      </trkpt>
      <trkpt lat="48.06801" lon="7.02476">
        <ele>1176.8</ele>
        <time>2021-12-05T12:00:05Z</time>
      </trkpt>
      <trkpt lat="48.06801" lon="7.02476">
        <ele>1176.9</ele>
        <time>2021-12-05T12:00:08Z</time>
      </trkpt>
      <trkpt lat="48.06801" lon="7.02476">
        <ele>1176.9</ele>
        <time>2021-12-05T12:00:10Z</time>
      </trkpt>
      <trkpt lat="48.06811" lon="7.02477">
        <ele>1177.7</ele>
        <time>2021-12-05T12:00:21Z</time>
      </trkpt>
      <trkpt lat="48.0682" lon="7.02477">
        <ele>1178.8</ele>
        <time>2021-12-05T12:00:31Z</time>
      </trkpt>
      <trkpt lat="48.06828" lon="7.02477">
        <ele>1179.4</ele>
        <time>2021-12-05T12:00:44Z</time>
      </trkpt>
      <trkpt lat="48.06828" lon="7.02477">
        <ele>1179.4</ele>
        <time>2021-12-05T12:00:46Z</time>
      </trkpt>
      <trkpt lat="48.06838" lon="7.02479">
        <ele>1180</ele>
        <time>2021-12-05T12:00:56Z</time>
      </trkpt>
      <trkpt lat="48.06847" lon="7.02481">
        <ele>1180.4</ele>
        <time>2021-12-05T12:01:08Z</time>
      </trkpt>
      <trkpt lat="48.06857" lon="7.02481">
        <ele>1180.8</ele>
        <time>2021-12-05T12:01:18Z</time>
      </trkpt>
      <trkpt lat="48.06867" lon="7.02481">
        <ele>1181.2</ele>
        <time>2021-12-05T12:01:30Z</time>
      </trkpt>
      <trkpt lat="48.06877" lon="7.02483">
        <ele>1182.5</ele>
        <time>2021-12-05T12:01:43Z</time>
      </trkpt>
      <trkpt lat="48.06885" lon="7.02489">
        <ele>1183.8</ele>
        <time>2021-12-05T12:01:56Z</time>
      </trkpt>
      <trkpt lat="48.06888" lon="7.02491">
        <ele>1184.9</ele>
        <time>2021-12-05T12:02:04Z</time>
      </trkpt>
      <trkpt lat="48.06889" lon="7.02491">
        <ele>1184.9</ele>
        <time>2021-12-05T12:02:05Z</time>
      </trkpt>
      <trkpt lat="48.06897" lon="7.02498">
        <ele>1186.3</ele>
        <time>2021-12-05T12:02:20Z</time>
      </trkpt>
      <trkpt lat="48.06905" lon="7.02503">
        <ele>1187.5</ele>
        <time>2021-12-05T12:02:31Z</time>
      </trkpt>
      <trkpt lat="48.06906" lon="7.02503">
        <ele>1188.4</ele>
        <time>2021-12-05T12:02:33Z</time>
      </trkpt>
      <trkpt lat="48.06906" lon="7.02503">
        <ele>1188.5</ele>
        <time>2021-12-05T12:02:34Z</time>
      </trkpt>
      <trkpt lat="48.06916" lon="7.02505">
        <ele>1188.9</ele>
        <time>2021-12-05T12:02:47Z</time>
      </trkpt>
      <trkpt lat="48.06926" lon="7.02507">
        <ele>1189.7</ele>
        <time>2021-12-05T12:02:58Z</time>
      </trkpt>
      <trkpt lat="48.06934" lon="7.02513">
        <ele>1192</ele>
        <time>2021-12-05T12:03:12Z</time>
      </trkpt>
      <trkpt lat="48.0694" lon="7.02518">
        <ele>1193.4</ele>
        <time>2021-12-05T12:03:30Z</time>
      </trkpt>
      <trkpt lat="48.0694" lon="7.02518">
        <ele>1193.4</ele>
        <time>2021-12-05T12:03:34Z</time>
      </trkpt>
      <trkpt lat="48.06949" lon="7.02511">
        <ele>1192.9</ele>
        <time>2021-12-05T12:03:43Z</time>
      </trkpt>
      <trkpt lat="48.06957" lon="7.02505">
        <ele>1193.1</ele>
        <time>2021-12-05T12:03:56Z</time>
      </trkpt>
      <trkpt lat="48.06966" lon="7.02505">
        <ele>1193.9</ele>
        <time>2021-12-05T12:04:13Z</time>
      </trkpt>
      <trkpt lat="48.06972" lon="7.02517">
        <ele>1196.4</ele>
        <time>2021-12-05T12:04:26Z</time>
      </trkpt>
      <trkpt lat="48.06977" lon="7.02516">
        <ele>1196.9</ele>
        <time>2021-12-05T12:04:39Z</time>
      </trkpt>
      <trkpt lat="48.06977" lon="7.02516">
        <ele>1197</ele>
        <time>2021-12-05T12:04:41Z</time>
      </trkpt>
      <trkpt lat="48.06977" lon="7.02516">
        <ele>1197</ele>
        <time>2021-12-05T12:04:42Z</time>
      </trkpt>
      <trkpt lat="48.06978" lon="7.02516">
        <ele>1197.1</ele>
        <time>2021-12-05T12:04:43Z</time>
      </trkpt>
      <trkpt lat="48.06987" lon="7.0252">
        <ele>1198</ele>
        <time>2021-12-05T12:05:03Z</time>
      </trkpt>
      <trkpt lat="48.06987" lon="7.0252">
        <ele>1198</ele>
        <time>2021-12-05T12:05:04Z</time>
      </trkpt>
      <trkpt lat="48.06987" lon="7.0252">
        <ele>1198.7</ele>
        <time>2021-12-05T12:05:05Z</time>
      </trkpt>
      <trkpt lat="48.06996" lon="7.02523">
        <ele>1199.9</ele>
        <time>2021-12-05T12:05:19Z</time>
      </trkpt>
      <trkpt lat="48.07005" lon="7.02526">
        <ele>1202.3</ele>
        <time>2021-12-05T12:05:28Z</time>
      </trkpt>
      <trkpt lat="48.07015" lon="7.02529">
        <ele>1204</ele>
        <time>2021-12-05T12:05:38Z</time>
      </trkpt>
      <trkpt lat="48.07023" lon="7.02535">
        <ele>1205.6</ele>
        <time>2021-12-05T12:05:50Z</time>
      </trkpt>
      <trkpt lat="48.07031" lon="7.02535">
        <ele>1206.3</ele>
        <time>2021-12-05T12:06:06Z</time>
      </trkpt>
      <trkpt lat="48.07031" lon="7.02535">
        <ele>1206.4</ele>
        <time>2021-12-05T12:06:08Z</time>
      </trkpt>
      <trkpt lat="48.0703" lon="7.02535">
        <ele>1206.4</ele>
        <time>2021-12-05T12:06:16Z</time>
      </trkpt>
      <trkpt lat="48.0703" lon="7.02535">
        <ele>1206.5</ele>
        <time>2021-12-05T12:06:18Z</time>
      </trkpt>
      <trkpt lat="48.0703" lon="7.02535">
        <ele>1206.5</ele>
        <time>2021-12-05T12:06:19Z</time>
      </trkpt>
      <trkpt lat="48.0703" lon="7.02535">
        <ele>1206.5</ele>
        <time>2021-12-05T12:06:20Z</time>
      </trkpt>
      <trkpt lat="48.0703" lon="7.02535">
        <ele>1206.6</ele>
        <time>2021-12-05T12:06:21Z</time>
      </trkpt>
      <trkpt lat="48.0703" lon="7.02536">
        <ele>1206.6</ele>
        <time>2021-12-05T12:06:23Z</time>
      </trkpt>
      <trkpt lat="48.0703" lon="7.02539">
        <ele>1207.1</ele>
        <time>2021-12-05T12:06:36Z</time>
      </trkpt>
      <trkpt lat="48.07029" lon="7.02539">
        <ele>1207.1</ele>
        <time>2021-12-05T12:06:38Z</time>
      </trkpt>
      <trkpt lat="48.07028" lon="7.02537">
        <ele>1206.7</ele>
        <time>2021-12-05T12:07:01Z</time>
      </trkpt>
      <trkpt lat="48.07029" lon="7.02537">
        <ele>1206.8</ele>
        <time>2021-12-05T12:07:02Z</time>
      </trkpt>
      <trkpt lat="48.07029" lon="7.02534">
        <ele>1206.8</ele>
        <time>2021-12-05T12:07:14Z</time>
      </trkpt>
      <trkpt lat="48.07029" lon="7.02533">
        <ele>1206.8</ele>
        <time>2021-12-05T12:07:18Z</time>
      </trkpt>
      <trkpt lat="48.07029" lon="7.02533">
        <ele>1206.4</ele>
        <time>2021-12-05T12:07:20Z</time>
      </trkpt>
      <trkpt lat="48.07029" lon="7.02534">
        <ele>1206.9</ele>
        <time>2021-12-05T12:07:27Z</time>
      </trkpt>
      <trkpt lat="48.07029" lon="7.02534">
        <ele>1207</ele>
        <time>2021-12-05T12:07:28Z</time>
      </trkpt>
      <trkpt lat="48.07029" lon="7.02534">
        <ele>1207</ele>
        <time>2021-12-05T12:07:29Z</time>
      </trkpt>
      <trkpt lat="48.07029" lon="7.02534">
        <ele>1207</ele>
        <time>2021-12-05T12:07:31Z</time>
      </trkpt>
      <trkpt lat="48.07029" lon="7.02534">
        <ele>1207.1</ele>
        <time>2021-12-05T12:07:35Z</time>
      </trkpt>
      <trkpt lat="48.07029" lon="7.02534">
        <ele>1207.1</ele>
        <time>2021-12-05T12:07:36Z</time>
      </trkpt>
      <trkpt lat="48.07029" lon="7.02534">
        <ele>1207.1</ele>
        <time>2021-12-05T12:07:37Z</time>
      </trkpt>
      <trkpt lat="48.07029" lon="7.02534">
        <ele>1207.2</ele>
        <time>2021-12-05T12:07:38Z</time>
      </trkpt>
      <trkpt lat="48.07028" lon="7.02534">
        <ele>1207.2</ele>
        <time>2021-12-05T12:07:46Z</time>
      </trkpt>
      <trkpt lat="48.07028" lon="7.02534">
        <ele>1207.3</ele>
        <time>2021-12-05T12:07:48Z</time>
      </trkpt>
      <trkpt lat="48.07028" lon="7.02533">
        <ele>1206.9</ele>
        <time>2021-12-05T12:07:52Z</time>
      </trkpt>
      <trkpt lat="48.07028" lon="7.02533">
        <ele>1207</ele>
        <time>2021-12-05T12:07:53Z</time>
      </trkpt>
      <trkpt lat="48.07028" lon="7.02533">
        <ele>1206.5</ele>
        <time>2021-12-05T12:07:56Z</time>
      </trkpt>
      <trkpt lat="48.07028" lon="7.02533">
        <ele>1206.6</ele>
        <time>2021-12-05T12:07:57Z</time>
      </trkpt>
      <trkpt lat="48.07028" lon="7.02532">
        <ele>1206.6</ele>
        <time>2021-12-05T12:08:02Z</time>
      </trkpt>
      <trkpt lat="48.07028" lon="7.02532">
        <ele>1206.7</ele>
        <time>2021-12-05T12:08:05Z</time>
      </trkpt>
      <trkpt lat="48.07027" lon="7.02532">
        <ele>1206.7</ele>
        <time>2021-12-05T12:08:07Z</time>
      </trkpt>
      <trkpt lat="48.07027" lon="7.02531">
        <ele>1206.7</ele>
        <time>2021-12-05T12:08:09Z</time>
      </trkpt>
      <trkpt lat="48.07027" lon="7.02531">
        <ele>1206.8</ele>
        <time>2021-12-05T12:08:15Z</time>
      </trkpt>
      <trkpt lat="48.07027" lon="7.02531">
        <ele>1206.8</ele>
        <time>2021-12-05T12:08:16Z</time>
      </trkpt>
      <trkpt lat="48.07027" lon="7.02531">
        <ele>1206.9</ele>
        <time>2021-12-05T12:08:21Z</time>
      </trkpt>
      <trkpt lat="48.07027" lon="7.0253">
        <ele>1206.9</ele>
        <time>2021-12-05T12:08:24Z</time>
      </trkpt>
      <trkpt lat="48.07028" lon="7.0253">
        <ele>1206.9</ele>
        <time>2021-12-05T12:08:26Z</time>
      </trkpt>
      <trkpt lat="48.07027" lon="7.02532">
        <ele>1207</ele>
        <time>2021-12-05T12:08:36Z</time>
      </trkpt>
      <trkpt lat="48.07027" lon="7.02532">
        <ele>1207</ele>
        <time>2021-12-05T12:08:37Z</time>
      </trkpt>
      <trkpt lat="48.07036" lon="7.02536">
        <ele>1208.5</ele>
        <time>2021-12-05T12:08:54Z</time>
      </trkpt>
      <trkpt lat="48.07044" lon="7.02539">
        <ele>1209.7</ele>
        <time>2021-12-05T12:09:09Z</time>
      </trkpt>
      <trkpt lat="48.07044" lon="7.02539">
        <ele>1209.7</ele>
        <time>2021-12-05T12:09:10Z</time>
      </trkpt>
      <trkpt lat="48.07044" lon="7.02539">
        <ele>1209.8</ele>
        <time>2021-12-05T12:09:11Z</time>
      </trkpt>
      <trkpt lat="48.07044" lon="7.02539">
        <ele>1209.8</ele>
        <time>2021-12-05T12:09:12Z</time>
      </trkpt>
      <trkpt lat="48.07053" lon="7.02543">
        <ele>1210.9</ele>
        <time>2021-12-05T12:09:26Z</time>
      </trkpt>
      <trkpt lat="48.07063" lon="7.02546">
        <ele>1211.9</ele>
        <time>2021-12-05T12:09:35Z</time>
      </trkpt>
      <trkpt lat="48.07068" lon="7.02544">
        <ele>1211.6</ele>
        <time>2021-12-05T12:09:45Z</time>
      </trkpt>
      <trkpt lat="48.07068" lon="7.02544">
        <ele>1211.6</ele>
        <time>2021-12-05T12:09:47Z</time>
      </trkpt>
      <trkpt lat="48.07068" lon="7.02543">
        <ele>1211.8</ele>
        <time>2021-12-05T12:09:50Z</time>
      </trkpt>
      <trkpt lat="48.07069" lon="7.02544">
        <ele>1211.8</ele>
        <time>2021-12-05T12:09:55Z</time>
      </trkpt>
      <trkpt lat="48.07078" lon="7.02547">
        <ele>1212.8</ele>
        <time>2021-12-05T12:10:08Z</time>
      </trkpt>
      <trkpt lat="48.07087" lon="7.02551">
        <ele>1213.9</ele>
        <time>2021-12-05T12:10:19Z</time>
      </trkpt>
      <trkpt lat="48.07096" lon="7.02554">
        <ele>1214.4</ele>
        <time>2021-12-05T12:10:31Z</time>
      </trkpt>
      <trkpt lat="48.07105" lon="7.02559">
        <ele>1215.7</ele>
        <time>2021-12-05T12:10:45Z</time>
      </trkpt>
      <trkpt lat="48.07113" lon="7.02566">
        <ele>1216.4</ele>
        <time>2021-12-05T12:10:58Z</time>
      </trkpt>
      <trkpt lat="48.07123" lon="7.02568">
        <ele>1216.9</ele>
        <time>2021-12-05T12:11:07Z</time>
      </trkpt>
      <trkpt lat="48.07132" lon="7.02576">
        <ele>1217.3</ele>
        <time>2021-12-05T12:11:19Z</time>
      </trkpt>
      <trkpt lat="48.0714" lon="7.02583">
        <ele>1217.9</ele>
        <time>2021-12-05T12:11:29Z</time>
      </trkpt>
      <trkpt lat="48.07148" lon="7.02591">
        <ele>1218.5</ele>
        <time>2021-12-05T12:11:45Z</time>
      </trkpt>
      <trkpt lat="48.07156" lon="7.026">
        <ele>1219</ele>
        <time>2021-12-05T12:11:57Z</time>
      </trkpt>
      <trkpt lat="48.07164" lon="7.02607">
        <ele>1219.4</ele>
        <time>2021-12-05T12:12:09Z</time>
      </trkpt>
      <trkpt lat="48.07168" lon="7.02615">
        <ele>1220.1</ele>
        <time>2021-12-05T12:12:21Z</time>
      </trkpt>
      <trkpt lat="48.07168" lon="7.02615">
        <ele>1220.1</ele>
        <time>2021-12-05T12:12:22Z</time>
      </trkpt>
      <trkpt lat="48.07168" lon="7.02614">
        <ele>1219.8</ele>
        <time>2021-12-05T12:12:25Z</time>
      </trkpt>
      <trkpt lat="48.07168" lon="7.02615">
        <ele>1220.2</ele>
        <time>2021-12-05T12:12:29Z</time>
      </trkpt>
      <trkpt lat="48.07175" lon="7.02627">
        <ele>1220.4</ele>
        <time>2021-12-05T12:12:42Z</time>
      </trkpt>
      <trkpt lat="48.07182" lon="7.02639">
        <ele>1221.2</ele>
        <time>2021-12-05T12:12:50Z</time>
      </trkpt>
      <trkpt lat="48.0719" lon="7.02645">
        <ele>1221.2</ele>
        <time>2021-12-05T12:12:58Z</time>
      </trkpt>
      <trkpt lat="48.07196" lon="7.02655">
        <ele>1221.4</ele>
        <time>2021-12-05T12:13:08Z</time>
      </trkpt>
      <trkpt lat="48.07204" lon="7.02662">
        <ele>1221.3</ele>
        <time>2021-12-05T12:13:17Z</time>
      </trkpt>
      <trkpt lat="48.07212" lon="7.02669">
        <ele>1221</ele>
        <time>2021-12-05T12:13:28Z</time>
      </trkpt>
      <trkpt lat="48.07221" lon="7.02676">
        <ele>1221.2</ele>
        <time>2021-12-05T12:13:39Z</time>
      </trkpt>
      <trkpt lat="48.07229" lon="7.02685">
        <ele>1221.9</ele>
        <time>2021-12-05T12:13:47Z</time>
      </trkpt>
      <trkpt lat="48.07236" lon="7.02694">
        <ele>1222.9</ele>
        <time>2021-12-05T12:13:56Z</time>
      </trkpt>
      <trkpt lat="48.07244" lon="7.02701">
        <ele>1223.7</ele>
        <time>2021-12-05T12:14:05Z</time>
      </trkpt>
      <trkpt lat="48.07252" lon="7.02709">
        <ele>1223.6</ele>
        <time>2021-12-05T12:14:17Z</time>
      </trkpt>
      <trkpt lat="48.0726" lon="7.02717">
        <ele>1223.9</ele>
        <time>2021-12-05T12:14:27Z</time>
      </trkpt>
      <trkpt lat="48.07267" lon="7.02724">
        <ele>1223.6</ele>
        <time>2021-12-05T12:14:35Z</time>
      </trkpt>
      <trkpt lat="48.07274" lon="7.02736">
        <ele>1223.7</ele>
        <time>2021-12-05T12:14:46Z</time>
      </trkpt>
      <trkpt lat="48.07279" lon="7.02747">
        <ele>1223.5</ele>
        <time>2021-12-05T12:15:00Z</time>
      </trkpt>
      <trkpt lat="48.0728" lon="7.02751">
        <ele>1223.5</ele>
        <time>2021-12-05T12:15:04Z</time>
      </trkpt>
      <trkpt lat="48.07281" lon="7.02752">
        <ele>1223.8</ele>
        <time>2021-12-05T12:15:06Z</time>
      </trkpt>
      <trkpt lat="48.07286" lon="7.02764">
        <ele>1223.7</ele>
        <time>2021-12-05T12:15:16Z</time>
      </trkpt>
      <trkpt lat="48.07287" lon="7.02777">
        <ele>1224.7</ele>
        <time>2021-12-05T12:15:27Z</time>
      </trkpt>
      <trkpt lat="48.07291" lon="7.02792">
        <ele>1225.4</ele>
        <time>2021-12-05T12:15:41Z</time>
      </trkpt>
      <trkpt lat="48.07296" lon="7.02804">
        <ele>1224.5</ele>
        <time>2021-12-05T12:15:50Z</time>
      </trkpt>
      <trkpt lat="48.073" lon="7.02815">
        <ele>1223.7</ele>
        <time>2021-12-05T12:16:02Z</time>
      </trkpt>
      <trkpt lat="48.073" lon="7.02815">
        <ele>1223.7</ele>
        <time>2021-12-05T12:16:06Z</time>
      </trkpt>
      <trkpt lat="48.07304" lon="7.02829">
        <ele>1222.2</ele>
        <time>2021-12-05T12:16:16Z</time>
      </trkpt>
      <trkpt lat="48.07306" lon="7.02833">
        <ele>1222.1</ele>
        <time>2021-12-05T12:16:21Z</time>
      </trkpt>
      <trkpt lat="48.07306" lon="7.02834">
        <ele>1222</ele>
        <time>2021-12-05T12:16:22Z</time>
      </trkpt>
      <trkpt lat="48.07306" lon="7.02842">
        <ele>1222</ele>
        <time>2021-12-05T12:16:33Z</time>
      </trkpt>
      <trkpt lat="48.07306" lon="7.02842">
        <ele>1221.4</ele>
        <time>2021-12-05T12:16:35Z</time>
      </trkpt>
      <trkpt lat="48.07306" lon="7.02854">
        <ele>1221.2</ele>
        <time>2021-12-05T12:16:47Z</time>
      </trkpt>
      <trkpt lat="48.07307" lon="7.02855">
        <ele>1221.2</ele>
        <time>2021-12-05T12:16:49Z</time>
      </trkpt>
      <trkpt lat="48.07309" lon="7.02868">
        <ele>1220.8</ele>
        <time>2021-12-05T12:16:58Z</time>
      </trkpt>
      <trkpt lat="48.0731" lon="7.02882">
        <ele>1221.2</ele>
        <time>2021-12-05T12:17:09Z</time>
      </trkpt>
      <trkpt lat="48.07311" lon="7.02897">
        <ele>1221.6</ele>
        <time>2021-12-05T12:17:20Z</time>
      </trkpt>
      <trkpt lat="48.07314" lon="7.0291">
        <ele>1221.3</ele>
        <time>2021-12-05T12:17:31Z</time>
      </trkpt>
      <trkpt lat="48.07313" lon="7.02925">
        <ele>1221.2</ele>
        <time>2021-12-05T12:17:41Z</time>
      </trkpt>
      <trkpt lat="48.07314" lon="7.02939">
        <ele>1221.3</ele>
        <time>2021-12-05T12:17:49Z</time>
      </trkpt>
      <trkpt lat="48.07317" lon="7.02953">
        <ele>1221.1</ele>
        <time>2021-12-05T12:17:56Z</time>
      </trkpt>
      <trkpt lat="48.07319" lon="7.02966">
        <ele>1220.8</ele>
        <time>2021-12-05T12:18:08Z</time>
      </trkpt>
      <trkpt lat="48.0732" lon="7.02979">
        <ele>1220.7</ele>
        <time>2021-12-05T12:18:16Z</time>
      </trkpt>
      <trkpt lat="48.07318" lon="7.02994">
        <ele>1220.3</ele>
        <time>2021-12-05T12:18:27Z</time>
      </trkpt>
      <trkpt lat="48.07318" lon="7.03007">
        <ele>1219.8</ele>
        <time>2021-12-05T12:18:38Z</time>
      </trkpt>
      <trkpt lat="48.0732" lon="7.03021">
        <ele>1219.3</ele>
        <time>2021-12-05T12:18:49Z</time>
      </trkpt>
      <trkpt lat="48.07322" lon="7.03034">
        <ele>1218.6</ele>
        <time>2021-12-05T12:18:57Z</time>
      </trkpt>
      <trkpt lat="48.07326" lon="7.03047">
        <ele>1218.1</ele>
        <time>2021-12-05T12:19:05Z</time>
      </trkpt>
      <trkpt lat="48.07326" lon="7.03061">
        <ele>1217.1</ele>
        <time>2021-12-05T12:19:17Z</time>
      </trkpt>
      <trkpt lat="48.07328" lon="7.03074">
        <ele>1216.4</ele>
        <time>2021-12-05T12:19:31Z</time>
      </trkpt>
      <trkpt lat="48.07337" lon="7.03081">
        <ele>1216.9</ele>
        <time>2021-12-05T12:19:42Z</time>
      </trkpt>
      <trkpt lat="48.07343" lon="7.03091">
        <ele>1217.2</ele>
        <time>2021-12-05T12:19:50Z</time>
      </trkpt>
      <trkpt lat="48.07343" lon="7.03089">
        <ele>1217.2</ele>
        <time>2021-12-05T12:19:55Z</time>
      </trkpt>
      <trkpt lat="48.07343" lon="7.03089">
        <ele>1217.3</ele>
        <time>2021-12-05T12:19:57Z</time>
      </trkpt>
      <trkpt lat="48.07346" lon="7.03092">
        <ele>1217.4</ele>
        <time>2021-12-05T12:20:04Z</time>
      </trkpt>
      <trkpt lat="48.07346" lon="7.03092">
        <ele>1217.4</ele>
        <time>2021-12-05T12:20:06Z</time>
      </trkpt>
      <trkpt lat="48.07346" lon="7.03094">
        <ele>1217.5</ele>
        <time>2021-12-05T12:20:08Z</time>
      </trkpt>
      <trkpt lat="48.07346" lon="7.03094">
        <ele>1217.8</ele>
        <time>2021-12-05T12:20:10Z</time>
      </trkpt>
      <trkpt lat="48.07348" lon="7.03096">
        <ele>1217.6</ele>
        <time>2021-12-05T12:20:15Z</time>
      </trkpt>
      <trkpt lat="48.07348" lon="7.03096">
        <ele>1217.7</ele>
        <time>2021-12-05T12:20:24Z</time>
      </trkpt>
      <trkpt lat="48.07348" lon="7.03097">
        <ele>1217.7</ele>
        <time>2021-12-05T12:20:26Z</time>
      </trkpt>
      <trkpt lat="48.07348" lon="7.03097">
        <ele>1217.8</ele>
        <time>2021-12-05T12:20:36Z</time>
      </trkpt>
      <trkpt lat="48.07348" lon="7.03098">
        <ele>1217.8</ele>
        <time>2021-12-05T12:20:39Z</time>
      </trkpt>
      <trkpt lat="48.07348" lon="7.03098">
        <ele>1217.8</ele>
        <time>2021-12-05T12:20:40Z</time>
      </trkpt>
      <trkpt lat="48.07348" lon="7.03098">
        <ele>1217.9</ele>
        <time>2021-12-05T12:20:41Z</time>
      </trkpt>
      <trkpt lat="48.07348" lon="7.03098">
        <ele>1217.9</ele>
        <time>2021-12-05T12:20:42Z</time>
      </trkpt>
      <trkpt lat="48.07348" lon="7.03098">
        <ele>1218</ele>
        <time>2021-12-05T12:20:43Z</time>
      </trkpt>
      <trkpt lat="48.07348" lon="7.03098">
        <ele>1218</ele>
        <time>2021-12-05T12:20:59Z</time>
      </trkpt>
      <trkpt lat="48.07348" lon="7.03098">
        <ele>1218</ele>
        <time>2021-12-05T12:21:00Z</time>
      </trkpt>
      <trkpt lat="48.07349" lon="7.03098">
        <ele>1218.1</ele>
        <time>2021-12-05T12:21:01Z</time>
      </trkpt>
      <trkpt lat="48.07349" lon="7.03098">
        <ele>1218.1</ele>
        <time>2021-12-05T12:21:02Z</time>
      </trkpt>
      <trkpt lat="48.07349" lon="7.03098">
        <ele>1218.2</ele>
        <time>2021-12-05T12:21:05Z</time>
      </trkpt>
      <trkpt lat="48.07349" lon="7.03098">
        <ele>1218.2</ele>
        <time>2021-12-05T12:21:07Z</time>
      </trkpt>
      <trkpt lat="48.07349" lon="7.03098">
        <ele>1218.2</ele>
        <time>2021-12-05T12:21:14Z</time>
      </trkpt>
      <trkpt lat="48.07349" lon="7.03098">
        <ele>1218.3</ele>
        <time>2021-12-05T12:21:16Z</time>
      </trkpt>
      <trkpt lat="48.07349" lon="7.03097">
        <ele>1218.6</ele>
        <time>2021-12-05T12:21:29Z</time>
      </trkpt>
      <trkpt lat="48.07353" lon="7.03096">
        <ele>1218.9</ele>
        <time>2021-12-05T12:21:37Z</time>
      </trkpt>
      <trkpt lat="48.07353" lon="7.03095">
        <ele>1219</ele>
        <time>2021-12-05T12:21:39Z</time>
      </trkpt>
      <trkpt lat="48.07353" lon="7.03095">
        <ele>1219</ele>
        <time>2021-12-05T12:21:42Z</time>
      </trkpt>
      <trkpt lat="48.07354" lon="7.03095">
        <ele>1219</ele>
        <time>2021-12-05T12:21:44Z</time>
      </trkpt>
      <trkpt lat="48.07357" lon="7.03095">
        <ele>1219.3</ele>
        <time>2021-12-05T12:21:50Z</time>
      </trkpt>
      <trkpt lat="48.07357" lon="7.03095">
        <ele>1219.4</ele>
        <time>2021-12-05T12:22:09Z</time>
      </trkpt>
      <trkpt lat="48.07358" lon="7.03095">
        <ele>1219.4</ele>
        <time>2021-12-05T12:22:11Z</time>
      </trkpt>
      <trkpt lat="48.07358" lon="7.03096">
        <ele>1219.5</ele>
        <time>2021-12-05T12:22:19Z</time>
      </trkpt>
      <trkpt lat="48.07358" lon="7.03096">
        <ele>1219.5</ele>
        <time>2021-12-05T12:22:20Z</time>
      </trkpt>
      <trkpt lat="48.07358" lon="7.03095">
        <ele>1219.8</ele>
        <time>2021-12-05T12:22:21Z</time>
      </trkpt>
      <trkpt lat="48.07358" lon="7.03094">
        <ele>1219.9</ele>
        <time>2021-12-05T12:22:25Z</time>
      </trkpt>
      <trkpt lat="48.07358" lon="7.03094">
        <ele>1220</ele>
        <time>2021-12-05T12:22:48Z</time>
      </trkpt>
      <trkpt lat="48.07358" lon="7.03094">
        <ele>1220</ele>
        <time>2021-12-05T12:22:49Z</time>
      </trkpt>
      <trkpt lat="48.07358" lon="7.03094">
        <ele>1220</ele>
        <time>2021-12-05T12:22:53Z</time>
      </trkpt>
      <trkpt lat="48.07358" lon="7.03094">
        <ele>1220.1</ele>
        <time>2021-12-05T12:22:55Z</time>
      </trkpt>
      <trkpt lat="48.07358" lon="7.03094">
        <ele>1220.1</ele>
        <time>2021-12-05T12:22:56Z</time>
      </trkpt>
      <trkpt lat="48.07358" lon="7.03094">
        <ele>1220.2</ele>
        <time>2021-12-05T12:22:58Z</time>
      </trkpt>
      <trkpt lat="48.07359" lon="7.03094">
        <ele>1220.2</ele>
        <time>2021-12-05T12:23:08Z</time>
      </trkpt>
      <trkpt lat="48.07368" lon="7.03092">
        <ele>1220.7</ele>
        <time>2021-12-05T12:23:20Z</time>
      </trkpt>
      <trkpt lat="48.07377" lon="7.03088">
        <ele>1220.9</ele>
        <time>2021-12-05T12:23:31Z</time>
      </trkpt>
      <trkpt lat="48.07386" lon="7.03084">
        <ele>1221.1</ele>
        <time>2021-12-05T12:23:43Z</time>
      </trkpt>
      <trkpt lat="48.07395" lon="7.0308">
        <ele>1221.2</ele>
        <time>2021-12-05T12:23:56Z</time>
      </trkpt>
      <trkpt lat="48.07404" lon="7.03076">
        <ele>1221.1</ele>
        <time>2021-12-05T12:24:09Z</time>
      </trkpt>
      <trkpt lat="48.07413" lon="7.0308">
        <ele>1220.8</ele>
        <time>2021-12-05T12:24:23Z</time>
      </trkpt>
      <trkpt lat="48.07422" lon="7.03074">
        <ele>1220.5</ele>
        <time>2021-12-05T12:24:38Z</time>
      </trkpt>
      <trkpt lat="48.07428" lon="7.03064">
        <ele>1219.9</ele>
        <time>2021-12-05T12:24:50Z</time>
      </trkpt>
      <trkpt lat="48.07437" lon="7.03059">
        <ele>1219.3</ele>
        <time>2021-12-05T12:25:04Z</time>
      </trkpt>
      <trkpt lat="48.07443" lon="7.03049">
        <ele>1218.5</ele>
        <time>2021-12-05T12:25:15Z</time>
      </trkpt>
      <trkpt lat="48.07452" lon="7.03046">
        <ele>1217.7</ele>
        <time>2021-12-05T12:25:26Z</time>
      </trkpt>
      <trkpt lat="48.07452" lon="7.03046">
        <ele>1217.7</ele>
        <time>2021-12-05T12:25:27Z</time>
      </trkpt>
      <trkpt lat="48.07461" lon="7.03048">
        <ele>1217.5</ele>
        <time>2021-12-05T12:25:45Z</time>
      </trkpt>
      <trkpt lat="48.07469" lon="7.03057">
        <ele>1217.5</ele>
        <time>2021-12-05T12:25:55Z</time>
      </trkpt>
      <trkpt lat="48.07477" lon="7.03064">
        <ele>1217.1</ele>
        <time>2021-12-05T12:26:05Z</time>
      </trkpt>
      <trkpt lat="48.07483" lon="7.03076">
        <ele>1217.3</ele>
        <time>2021-12-05T12:26:14Z</time>
      </trkpt>
      <trkpt lat="48.07489" lon="7.03087">
        <ele>1217.5</ele>
        <time>2021-12-05T12:26:25Z</time>
      </trkpt>
      <trkpt lat="48.07491" lon="7.03101">
        <ele>1218</ele>
        <time>2021-12-05T12:26:40Z</time>
      </trkpt>
      <trkpt lat="48.07492" lon="7.03116">
        <ele>1218.6</ele>
        <time>2021-12-05T12:26:51Z</time>
      </trkpt>
      <trkpt lat="48.07495" lon="7.03129">
        <ele>1219.2</ele>
        <time>2021-12-05T12:27:00Z</time>
      </trkpt>
      <trkpt lat="48.07501" lon="7.03142">
        <ele>1219.5</ele>
        <time>2021-12-05T12:27:07Z</time>
      </trkpt>
      <trkpt lat="48.07507" lon="7.03152">
        <ele>1220.4</ele>
        <time>2021-12-05T12:27:16Z</time>
      </trkpt>
      <trkpt lat="48.07507" lon="7.03153">
        <ele>1220.4</ele>
        <time>2021-12-05T12:27:19Z</time>
      </trkpt>
      <trkpt lat="48.07507" lon="7.03154">
        <ele>1220.5</ele>
        <time>2021-12-05T12:27:20Z</time>
      </trkpt>
      <trkpt lat="48.07514" lon="7.03164">
        <ele>1221.8</ele>
        <time>2021-12-05T12:27:38Z</time>
      </trkpt>
      <trkpt lat="48.07522" lon="7.03171">
        <ele>1222.3</ele>
        <time>2021-12-05T12:27:51Z</time>
      </trkpt>
      <trkpt lat="48.07531" lon="7.03178">
        <ele>1223.2</ele>
        <time>2021-12-05T12:28:03Z</time>
      </trkpt>
      <trkpt lat="48.07539" lon="7.03184">
        <ele>1223.6</ele>
        <time>2021-12-05T12:28:16Z</time>
      </trkpt>
      <trkpt lat="48.07548" lon="7.03186">
        <ele>1224.1</ele>
        <time>2021-12-05T12:28:29Z</time>
      </trkpt>
      <trkpt lat="48.07556" lon="7.03189">
        <ele>1224</ele>
        <time>2021-12-05T12:28:42Z</time>
      </trkpt>
      <trkpt lat="48.07556" lon="7.0319">
        <ele>1224.6</ele>
        <time>2021-12-05T12:28:43Z</time>
      </trkpt>
      <trkpt lat="48.07565" lon="7.03196">
        <ele>1224.9</ele>
        <time>2021-12-05T12:28:52Z</time>
      </trkpt>
      <trkpt lat="48.07574" lon="7.032">
        <ele>1225.3</ele>
        <time>2021-12-05T12:29:06Z</time>
      </trkpt>
      <trkpt lat="48.07582" lon="7.03205">
        <ele>1225.6</ele>
        <time>2021-12-05T12:29:16Z</time>
      </trkpt>
      <trkpt lat="48.07591" lon="7.03207">
        <ele>1225.4</ele>
        <time>2021-12-05T12:29:24Z</time>
      </trkpt>
      <trkpt lat="48.07601" lon="7.03208">
        <ele>1225.9</ele>
        <time>2021-12-05T12:29:37Z</time>
      </trkpt>
      <trkpt lat="48.07611" lon="7.03209">
        <ele>1225.6</ele>
        <time>2021-12-05T12:29:49Z</time>
      </trkpt>
      <trkpt lat="48.07621" lon="7.0321">
        <ele>1225.4</ele>
        <time>2021-12-05T12:30:00Z</time>
      </trkpt>
      <trkpt lat="48.0763" lon="7.03207">
        <ele>1225.1</ele>
        <time>2021-12-05T12:30:12Z</time>
      </trkpt>
      <trkpt lat="48.0764" lon="7.03208">
        <ele>1224.7</ele>
        <time>2021-12-05T12:30:23Z</time>
      </trkpt>
      <trkpt lat="48.07649" lon="7.0321">
        <ele>1224.3</ele>
        <time>2021-12-05T12:30:34Z</time>
      </trkpt>
      <trkpt lat="48.07657" lon="7.03216">
        <ele>1225.1</ele>
        <time>2021-12-05T12:30:47Z</time>
      </trkpt>
      <trkpt lat="48.07667" lon="7.03218">
        <ele>1224.5</ele>
        <time>2021-12-05T12:30:58Z</time>
      </trkpt>
      <trkpt lat="48.07676" lon="7.03221">
        <ele>1224.4</ele>
        <time>2021-12-05T12:31:08Z</time>
      </trkpt>
      <trkpt lat="48.07684" lon="7.03225">
        <ele>1224.2</ele>
        <time>2021-12-05T12:31:17Z</time>
      </trkpt>
      <trkpt lat="48.07694" lon="7.03229">
        <ele>1223.5</ele>
        <time>2021-12-05T12:31:29Z</time>
      </trkpt>
      <trkpt lat="48.077" lon="7.03234">
        <ele>1223.5</ele>
        <time>2021-12-05T12:31:41Z</time>
      </trkpt>
      <trkpt lat="48.077" lon="7.03234">
        <ele>1223.6</ele>
        <time>2021-12-05T12:31:42Z</time>
      </trkpt>
      <trkpt lat="48.07704" lon="7.03239">
        <ele>1224.1</ele>
        <time>2021-12-05T12:31:52Z</time>
      </trkpt>
      <trkpt lat="48.07705" lon="7.03239">
        <ele>1223.8</ele>
        <time>2021-12-05T12:31:54Z</time>
      </trkpt>
      <trkpt lat="48.07711" lon="7.03249">
        <ele>1225.1</ele>
        <time>2021-12-05T12:32:09Z</time>
      </trkpt>
      <trkpt lat="48.07717" lon="7.0326">
        <ele>1227.1</ele>
        <time>2021-12-05T12:32:22Z</time>
      </trkpt>
      <trkpt lat="48.07724" lon="7.0327">
        <ele>1228.1</ele>
        <time>2021-12-05T12:32:36Z</time>
      </trkpt>
      <trkpt lat="48.0773" lon="7.03281">
        <ele>1229.6</ele>
        <time>2021-12-05T12:32:51Z</time>
      </trkpt>
      <trkpt lat="48.07737" lon="7.03289">
        <ele>1229.8</ele>
        <time>2021-12-05T12:33:02Z</time>
      </trkpt>
      <trkpt lat="48.07746" lon="7.03294">
        <ele>1229.4</ele>
        <time>2021-12-05T12:33:12Z</time>
      </trkpt>
      <trkpt lat="48.07754" lon="7.03301">
        <ele>1229.3</ele>
        <time>2021-12-05T12:33:25Z</time>
      </trkpt>
      <trkpt lat="48.07761" lon="7.0331">
        <ele>1229.4</ele>
        <time>2021-12-05T12:33:35Z</time>
      </trkpt>
      <trkpt lat="48.07769" lon="7.03318">
        <ele>1230.3</ele>
        <time>2021-12-05T12:33:48Z</time>
      </trkpt>
      <trkpt lat="48.07777" lon="7.03326">
        <ele>1231.3</ele>
        <time>2021-12-05T12:34:00Z</time>
      </trkpt>
      <trkpt lat="48.0778" lon="7.03331">
        <ele>1232</ele>
        <time>2021-12-05T12:34:09Z</time>
      </trkpt>
      <trkpt lat="48.0778" lon="7.03331">
        <ele>1233</ele>
        <time>2021-12-05T12:34:10Z</time>
      </trkpt>
      <trkpt lat="48.07785" lon="7.03344">
        <ele>1234.5</ele>
        <time>2021-12-05T12:34:22Z</time>
      </trkpt>
      <trkpt lat="48.07791" lon="7.03355">
        <ele>1236.8</ele>
        <time>2021-12-05T12:34:32Z</time>
      </trkpt>
      <trkpt lat="48.07796" lon="7.03366">
        <ele>1239.2</ele>
        <time>2021-12-05T12:34:41Z</time>
      </trkpt>
      <trkpt lat="48.07802" lon="7.03378">
        <ele>1240.7</ele>
        <time>2021-12-05T12:34:50Z</time>
      </trkpt>
      <trkpt lat="48.07808" lon="7.03389">
        <ele>1240.7</ele>
        <time>2021-12-05T12:35:01Z</time>
      </trkpt>
      <trkpt lat="48.07812" lon="7.03401">
        <ele>1241.7</ele>
        <time>2021-12-05T12:35:13Z</time>
      </trkpt>
      <trkpt lat="48.07815" lon="7.03416">
        <ele>1242.7</ele>
        <time>2021-12-05T12:35:24Z</time>
      </trkpt>
      <trkpt lat="48.07823" lon="7.03425">
        <ele>1242.7</ele>
        <time>2021-12-05T12:35:36Z</time>
      </trkpt>
      <trkpt lat="48.07822" lon="7.03439">
        <ele>1244.4</ele>
        <time>2021-12-05T12:35:54Z</time>
      </trkpt>
      <trkpt lat="48.07819" lon="7.03453">
        <ele>1245.8</ele>
        <time>2021-12-05T12:36:07Z</time>
      </trkpt>
      <trkpt lat="48.0782" lon="7.03465">
        <ele>1246.7</ele>
        <time>2021-12-05T12:36:18Z</time>
      </trkpt>
      <trkpt lat="48.07821" lon="7.03465">
        <ele>1246.8</ele>
        <time>2021-12-05T12:36:19Z</time>
      </trkpt>
      <trkpt lat="48.0782" lon="7.03479">
        <ele>1247.9</ele>
        <time>2021-12-05T12:36:31Z</time>
      </trkpt>
      <trkpt lat="48.07818" lon="7.03492">
        <ele>1249</ele>
        <time>2021-12-05T12:36:42Z</time>
      </trkpt>
      <trkpt lat="48.07817" lon="7.03506">
        <ele>1249.8</ele>
        <time>2021-12-05T12:36:56Z</time>
      </trkpt>
      <trkpt lat="48.07817" lon="7.03513">
        <ele>1250.2</ele>
        <time>2021-12-05T12:37:03Z</time>
      </trkpt>
      <trkpt lat="48.07817" lon="7.03514">
        <ele>1250.3</ele>
        <time>2021-12-05T12:37:05Z</time>
      </trkpt>
      <trkpt lat="48.07814" lon="7.03527">
        <ele>1251.1</ele>
        <time>2021-12-05T12:37:17Z</time>
      </trkpt>
      <trkpt lat="48.0781" lon="7.0354">
        <ele>1252.3</ele>
        <time>2021-12-05T12:37:28Z</time>
      </trkpt>
      <trkpt lat="48.0781" lon="7.03551">
        <ele>1252.9</ele>
        <time>2021-12-05T12:37:37Z</time>
      </trkpt>
      <trkpt lat="48.0781" lon="7.03551">
        <ele>1252.9</ele>
        <time>2021-12-05T12:37:39Z</time>
      </trkpt>
      <trkpt lat="48.0781" lon="7.03557">
        <ele>1253.1</ele>
        <time>2021-12-05T12:37:48Z</time>
      </trkpt>
      <trkpt lat="48.0781" lon="7.03558">
        <ele>1253.2</ele>
        <time>2021-12-05T12:37:50Z</time>
      </trkpt>
      <trkpt lat="48.0781" lon="7.03558">
        <ele>1253.2</ele>
        <time>2021-12-05T12:37:51Z</time>
      </trkpt>
      <trkpt lat="48.07811" lon="7.03558">
        <ele>1253.3</ele>
        <time>2021-12-05T12:38:03Z</time>
      </trkpt>
      <trkpt lat="48.07811" lon="7.03558">
        <ele>1253.3</ele>
        <time>2021-12-05T12:38:04Z</time>
      </trkpt>
      <trkpt lat="48.07811" lon="7.03558">
        <ele>1253.3</ele>
        <time>2021-12-05T12:38:26Z</time>
      </trkpt>
      <trkpt lat="48.07811" lon="7.03558">
        <ele>1253.4</ele>
        <time>2021-12-05T12:38:27Z</time>
      </trkpt>
      <trkpt lat="48.07811" lon="7.03559">
        <ele>1253.6</ele>
        <time>2021-12-05T12:38:29Z</time>
      </trkpt>
      <trkpt lat="48.07811" lon="7.03559">
        <ele>1253.3</ele>
        <time>2021-12-05T12:38:31Z</time>
      </trkpt>
      <trkpt lat="48.07811" lon="7.0356">
        <ele>1253.4</ele>
        <time>2021-12-05T12:38:34Z</time>
      </trkpt>
      <trkpt lat="48.07811" lon="7.0356">
        <ele>1253.4</ele>
        <time>2021-12-05T12:38:35Z</time>
      </trkpt>
      <trkpt lat="48.07811" lon="7.0356">
        <ele>1253.4</ele>
        <time>2021-12-05T12:38:55Z</time>
      </trkpt>
      <trkpt lat="48.07811" lon="7.0356">
        <ele>1253.5</ele>
        <time>2021-12-05T12:38:57Z</time>
      </trkpt>
      <trkpt lat="48.07811" lon="7.0356">
        <ele>1253.5</ele>
        <time>2021-12-05T12:39:16Z</time>
      </trkpt>
      <trkpt lat="48.07811" lon="7.0356">
        <ele>1253.6</ele>
        <time>2021-12-05T12:39:17Z</time>
      </trkpt>
      <trkpt lat="48.07811" lon="7.03561">
        <ele>1253.6</ele>
        <time>2021-12-05T12:39:25Z</time>
      </trkpt>
      <trkpt lat="48.07811" lon="7.03561">
        <ele>1253.6</ele>
        <time>2021-12-05T12:39:27Z</time>
      </trkpt>
      <trkpt lat="48.07811" lon="7.03561">
        <ele>1253.7</ele>
        <time>2021-12-05T12:39:30Z</time>
      </trkpt>
      <trkpt lat="48.07811" lon="7.03561">
        <ele>1254</ele>
        <time>2021-12-05T12:39:32Z</time>
      </trkpt>
      <trkpt lat="48.07811" lon="7.03561">
        <ele>1253.8</ele>
        <time>2021-12-05T12:39:37Z</time>
      </trkpt>
      <trkpt lat="48.07811" lon="7.03561">
        <ele>1253.8</ele>
        <time>2021-12-05T12:39:38Z</time>
      </trkpt>
      <trkpt lat="48.07811" lon="7.03561">
        <ele>1253.8</ele>
        <time>2021-12-05T12:39:59Z</time>
      </trkpt>
      <trkpt lat="48.07811" lon="7.03561">
        <ele>1253.9</ele>
        <time>2021-12-05T12:40:00Z</time>
      </trkpt>
      <trkpt lat="48.07811" lon="7.03561">
        <ele>1253.9</ele>
        <time>2021-12-05T12:40:43Z</time>
      </trkpt>
      <trkpt lat="48.07811" lon="7.03562">
        <ele>1253.9</ele>
        <time>2021-12-05T12:40:44Z</time>
      </trkpt>
      <trkpt lat="48.07811" lon="7.03562">
        <ele>1254</ele>
        <time>2021-12-05T12:40:49Z</time>
      </trkpt>
      <trkpt lat="48.07812" lon="7.03562">
        <ele>1254</ele>
        <time>2021-12-05T12:40:51Z</time>
      </trkpt>
      <trkpt lat="48.07812" lon="7.03562">
        <ele>1254.1</ele>
        <time>2021-12-05T12:40:52Z</time>
      </trkpt>
      <trkpt lat="48.07812" lon="7.03562">
        <ele>1254.1</ele>
        <time>2021-12-05T12:40:53Z</time>
      </trkpt>
      <trkpt lat="48.07812" lon="7.03562">
        <ele>1254.1</ele>
        <time>2021-12-05T12:40:54Z</time>
      </trkpt>
      <trkpt lat="48.07812" lon="7.03562">
        <ele>1254.2</ele>
        <time>2021-12-05T12:40:55Z</time>
      </trkpt>
      <trkpt lat="48.07812" lon="7.03562">
        <ele>1254.2</ele>
        <time>2021-12-05T12:41:04Z</time>
      </trkpt>
      <trkpt lat="48.07812" lon="7.03562">
        <ele>1254.3</ele>
        <time>2021-12-05T12:41:05Z</time>
      </trkpt>
      <trkpt lat="48.07812" lon="7.03563">
        <ele>1254.3</ele>
        <time>2021-12-05T12:41:22Z</time>
      </trkpt>
      <trkpt lat="48.07812" lon="7.03563">
        <ele>1254.3</ele>
        <time>2021-12-05T12:41:24Z</time>
      </trkpt>
      <trkpt lat="48.07813" lon="7.03563">
        <ele>1254.4</ele>
        <time>2021-12-05T12:41:46Z</time>
      </trkpt>
      <trkpt lat="48.07813" lon="7.03563">
        <ele>1254.4</ele>
        <time>2021-12-05T12:41:47Z</time>
      </trkpt>
      <trkpt lat="48.07813" lon="7.03563">
        <ele>1254.5</ele>
        <time>2021-12-05T12:42:05Z</time>
      </trkpt>
      <trkpt lat="48.07813" lon="7.03563">
        <ele>1254.5</ele>
        <time>2021-12-05T12:42:06Z</time>
      </trkpt>
      <trkpt lat="48.07813" lon="7.03563">
        <ele>1254.5</ele>
        <time>2021-12-05T12:42:37Z</time>
      </trkpt>
      <trkpt lat="48.07813" lon="7.03563">
        <ele>1254.6</ele>
        <time>2021-12-05T12:42:38Z</time>
      </trkpt>
      <trkpt lat="48.07813" lon="7.03562">
        <ele>1254.6</ele>
        <time>2021-12-05T12:42:41Z</time>
      </trkpt>
      <trkpt lat="48.07813" lon="7.03562">
        <ele>1254.6</ele>
        <time>2021-12-05T12:42:42Z</time>
      </trkpt>
      <trkpt lat="48.07813" lon="7.03562">
        <ele>1254.7</ele>
        <time>2021-12-05T12:42:43Z</time>
      </trkpt>
      <trkpt lat="48.07813" lon="7.03562">
        <ele>1254.7</ele>
        <time>2021-12-05T12:42:44Z</time>
      </trkpt>
      <trkpt lat="48.07813" lon="7.03562">
        <ele>1254.8</ele>
        <time>2021-12-05T12:42:57Z</time>
      </trkpt>
      <trkpt lat="48.07813" lon="7.03562">
        <ele>1254.8</ele>
        <time>2021-12-05T12:42:58Z</time>
      </trkpt>
      <trkpt lat="48.07813" lon="7.03562">
        <ele>1254.8</ele>
        <time>2021-12-05T12:43:55Z</time>
      </trkpt>
      <trkpt lat="48.07813" lon="7.03562">
        <ele>1254.9</ele>
        <time>2021-12-05T12:43:56Z</time>
      </trkpt>
      <trkpt lat="48.07813" lon="7.03562">
        <ele>1254.9</ele>
        <time>2021-12-05T12:43:57Z</time>
      </trkpt>
      <trkpt lat="48.07813" lon="7.03562">
        <ele>1255</ele>
        <time>2021-12-05T12:43:58Z</time>
      </trkpt>
      <trkpt lat="48.07813" lon="7.03562">
        <ele>1255</ele>
        <time>2021-12-05T12:43:59Z</time>
      </trkpt>
      <trkpt lat="48.07813" lon="7.03562">
        <ele>1255</ele>
        <time>2021-12-05T12:44:01Z</time>
      </trkpt>
      <trkpt lat="48.07813" lon="7.03563">
        <ele>1255.3</ele>
        <time>2021-12-05T12:44:16Z</time>
      </trkpt>
      <trkpt lat="48.0782" lon="7.03572">
        <ele>1255.1</ele>
        <time>2021-12-05T12:44:34Z</time>
      </trkpt>
      <trkpt lat="48.07825" lon="7.03583">
        <ele>1255.4</ele>
        <time>2021-12-05T12:44:48Z</time>
      </trkpt>
      <trkpt lat="48.07829" lon="7.03597">
        <ele>1255.2</ele>
        <time>2021-12-05T12:45:03Z</time>
      </trkpt>
      <trkpt lat="48.07837" lon="7.03605">
        <ele>1254</ele>
        <time>2021-12-05T12:45:13Z</time>
      </trkpt>
      <trkpt lat="48.07845" lon="7.03613">
        <ele>1253.2</ele>
        <time>2021-12-05T12:45:23Z</time>
      </trkpt>
      <trkpt lat="48.07846" lon="7.03615">
        <ele>1252.9</ele>
        <time>2021-12-05T12:45:27Z</time>
      </trkpt>
      <trkpt lat="48.07846" lon="7.03615">
        <ele>1252.9</ele>
        <time>2021-12-05T12:45:33Z</time>
      </trkpt>
      <trkpt lat="48.07853" lon="7.03624">
        <ele>1252.4</ele>
        <time>2021-12-05T12:45:45Z</time>
      </trkpt>
      <trkpt lat="48.07861" lon="7.03631">
        <ele>1251.8</ele>
        <time>2021-12-05T12:45:57Z</time>
      </trkpt>
      <trkpt lat="48.07869" lon="7.03639">
        <ele>1251.1</ele>
        <time>2021-12-05T12:46:08Z</time>
      </trkpt>
      <trkpt lat="48.07876" lon="7.03649">
        <ele>1250.4</ele>
        <time>2021-12-05T12:46:18Z</time>
      </trkpt>
      <trkpt lat="48.07884" lon="7.03656">
        <ele>1249.8</ele>
        <time>2021-12-05T12:46:29Z</time>
      </trkpt>
      <trkpt lat="48.07893" lon="7.03661">
        <ele>1249.2</ele>
        <time>2021-12-05T12:46:41Z</time>
      </trkpt>
      <trkpt lat="48.07895" lon="7.03661">
        <ele>1249.1</ele>
        <time>2021-12-05T12:46:44Z</time>
      </trkpt>
      <trkpt lat="48.07896" lon="7.03661">
        <ele>1249.1</ele>
        <time>2021-12-05T12:46:46Z</time>
      </trkpt>
      <trkpt lat="48.07905" lon="7.03665">
        <ele>1249</ele>
        <time>2021-12-05T12:46:56Z</time>
      </trkpt>
      <trkpt lat="48.07914" lon="7.03668">
        <ele>1248.8</ele>
        <time>2021-12-05T12:47:07Z</time>
      </trkpt>
      <trkpt lat="48.07922" lon="7.0367">
        <ele>1248.6</ele>
        <time>2021-12-05T12:47:18Z</time>
      </trkpt>
      <trkpt lat="48.07923" lon="7.0367">
        <ele>1248.6</ele>
        <time>2021-12-05T12:47:35Z</time>
      </trkpt>
      <trkpt lat="48.07931" lon="7.03675">
        <ele>1248.4</ele>
        <time>2021-12-05T12:47:50Z</time>
      </trkpt>
      <trkpt lat="48.07931" lon="7.03675">
        <ele>1248.4</ele>
        <time>2021-12-05T12:47:53Z</time>
      </trkpt>
      <trkpt lat="48.07934" lon="7.03679">
        <ele>1248.1</ele>
        <time>2021-12-05T12:48:00Z</time>
      </trkpt>
      <trkpt lat="48.07934" lon="7.03679">
        <ele>1248.2</ele>
        <time>2021-12-05T12:48:02Z</time>
      </trkpt>
      <trkpt lat="48.07934" lon="7.03679">
        <ele>1248.2</ele>
        <time>2021-12-05T12:48:03Z</time>
      </trkpt>
      <trkpt lat="48.07935" lon="7.03679">
        <ele>1248.2</ele>
        <time>2021-12-05T12:48:28Z</time>
      </trkpt>
      <trkpt lat="48.07939" lon="7.03684">
        <ele>1248.1</ele>
        <time>2021-12-05T12:48:37Z</time>
      </trkpt>
      <trkpt lat="48.07939" lon="7.03684">
        <ele>1248.2</ele>
        <time>2021-12-05T12:48:38Z</time>
      </trkpt>
      <trkpt lat="48.07939" lon="7.03684">
        <ele>1248.2</ele>
        <time>2021-12-05T12:48:40Z</time>
      </trkpt>
      <trkpt lat="48.07939" lon="7.03684">
        <ele>1248.2</ele>
        <time>2021-12-05T12:48:41Z</time>
      </trkpt>
      <trkpt lat="48.07946" lon="7.03693">
        <ele>1247.7</ele>
        <time>2021-12-05T12:48:51Z</time>
      </trkpt>
      <trkpt lat="48.07953" lon="7.03702">
        <ele>1247.6</ele>
        <time>2021-12-05T12:49:02Z</time>
      </trkpt>
      <trkpt lat="48.07959" lon="7.03713">
        <ele>1247.4</ele>
        <time>2021-12-05T12:49:15Z</time>
      </trkpt>
      <trkpt lat="48.07965" lon="7.03724">
        <ele>1247.1</ele>
        <time>2021-12-05T12:49:26Z</time>
      </trkpt>
      <trkpt lat="48.07971" lon="7.03735">
        <ele>1246.3</ele>
        <time>2021-12-05T12:49:40Z</time>
      </trkpt>
      <trkpt lat="48.07977" lon="7.03747">
        <ele>1245.2</ele>
        <time>2021-12-05T12:49:51Z</time>
      </trkpt>
      <trkpt lat="48.07982" lon="7.03758">
        <ele>1244.5</ele>
        <time>2021-12-05T12:50:02Z</time>
      </trkpt>
      <trkpt lat="48.07985" lon="7.03772">
        <ele>1244.6</ele>
        <time>2021-12-05T12:50:17Z</time>
      </trkpt>
      <trkpt lat="48.07987" lon="7.03782">
        <ele>1244.5</ele>
        <time>2021-12-05T12:50:31Z</time>
      </trkpt>
      <trkpt lat="48.07987" lon="7.03782">
        <ele>1244.7</ele>
        <time>2021-12-05T12:50:32Z</time>
      </trkpt>
      <trkpt lat="48.07988" lon="7.03787">
        <ele>1244.8</ele>
        <time>2021-12-05T12:50:48Z</time>
      </trkpt>
      <trkpt lat="48.07988" lon="7.03787">
        <ele>1244.9</ele>
        <time>2021-12-05T12:50:49Z</time>
      </trkpt>
      <trkpt lat="48.07989" lon="7.03789">
        <ele>1244.9</ele>
        <time>2021-12-05T12:50:53Z</time>
      </trkpt>
      <trkpt lat="48.07988" lon="7.0379">
        <ele>1245.1</ele>
        <time>2021-12-05T12:50:56Z</time>
      </trkpt>
      <trkpt lat="48.07988" lon="7.03804">
        <ele>1245.2</ele>
        <time>2021-12-05T12:51:13Z</time>
      </trkpt>
      <trkpt lat="48.07987" lon="7.03818">
        <ele>1245.3</ele>
        <time>2021-12-05T12:51:25Z</time>
      </trkpt>
      <trkpt lat="48.07988" lon="7.03832">
        <ele>1245.3</ele>
        <time>2021-12-05T12:51:39Z</time>
      </trkpt>
      <trkpt lat="48.07989" lon="7.03846">
        <ele>1245.3</ele>
        <time>2021-12-05T12:51:51Z</time>
      </trkpt>
      <trkpt lat="48.07987" lon="7.03859">
        <ele>1245.3</ele>
        <time>2021-12-05T12:52:04Z</time>
      </trkpt>
      <trkpt lat="48.07991" lon="7.03873">
        <ele>1245.1</ele>
        <time>2021-12-05T12:52:15Z</time>
      </trkpt>
      <trkpt lat="48.07992" lon="7.03887">
        <ele>1245.2</ele>
        <time>2021-12-05T12:52:25Z</time>
      </trkpt>
      <trkpt lat="48.07994" lon="7.03902">
        <ele>1245.7</ele>
        <time>2021-12-05T12:52:36Z</time>
      </trkpt>
      <trkpt lat="48.07996" lon="7.03909">
        <ele>1246</ele>
        <time>2021-12-05T12:52:44Z</time>
      </trkpt>
      <trkpt lat="48.07996" lon="7.0391">
        <ele>1246.1</ele>
        <time>2021-12-05T12:52:45Z</time>
      </trkpt>
      <trkpt lat="48.07999" lon="7.03924">
        <ele>1246.7</ele>
        <time>2021-12-05T12:52:56Z</time>
      </trkpt>
      <trkpt lat="48.08002" lon="7.03937">
        <ele>1246.8</ele>
        <time>2021-12-05T12:53:06Z</time>
      </trkpt>
      <trkpt lat="48.08003" lon="7.03951">
        <ele>1247.3</ele>
        <time>2021-12-05T12:53:18Z</time>
      </trkpt>
      <trkpt lat="48.08008" lon="7.03963">
        <ele>1246.9</ele>
        <time>2021-12-05T12:53:31Z</time>
      </trkpt>
      <trkpt lat="48.08011" lon="7.03976">
        <ele>1247</ele>
        <time>2021-12-05T12:53:39Z</time>
      </trkpt>
      <trkpt lat="48.08014" lon="7.03991">
        <ele>1247.2</ele>
        <time>2021-12-05T12:53:50Z</time>
      </trkpt>
      <trkpt lat="48.08014" lon="7.04004">
        <ele>1247.8</ele>
        <time>2021-12-05T12:54:02Z</time>
      </trkpt>
      <trkpt lat="48.08016" lon="7.04017">
        <ele>1247.7</ele>
        <time>2021-12-05T12:54:11Z</time>
      </trkpt>
      <trkpt lat="48.08014" lon="7.04031">
        <ele>1247.7</ele>
        <time>2021-12-05T12:54:25Z</time>
      </trkpt>
      <trkpt lat="48.08014" lon="7.04045">
        <ele>1247.3</ele>
        <time>2021-12-05T12:54:36Z</time>
      </trkpt>
      <trkpt lat="48.08011" lon="7.04059">
        <ele>1247.7</ele>
        <time>2021-12-05T12:54:49Z</time>
      </trkpt>
      <trkpt lat="48.08009" lon="7.04073">
        <ele>1247.6</ele>
        <time>2021-12-05T12:55:00Z</time>
      </trkpt>
      <trkpt lat="48.08013" lon="7.04088">
        <ele>1247</ele>
        <time>2021-12-05T12:55:08Z</time>
      </trkpt>
      <trkpt lat="48.08011" lon="7.04101">
        <ele>1247.7</ele>
        <time>2021-12-05T12:55:17Z</time>
      </trkpt>
      <trkpt lat="48.08007" lon="7.04114">
        <ele>1248.8</ele>
        <time>2021-12-05T12:55:29Z</time>
      </trkpt>
      <trkpt lat="48.0801" lon="7.0412">
        <ele>1248.7</ele>
        <time>2021-12-05T12:55:44Z</time>
      </trkpt>
      <trkpt lat="48.08011" lon="7.0412">
        <ele>1248.7</ele>
        <time>2021-12-05T12:55:45Z</time>
      </trkpt>
      <trkpt lat="48.08011" lon="7.04121">
        <ele>1249.1</ele>
        <time>2021-12-05T12:55:49Z</time>
      </trkpt>
      <trkpt lat="48.08011" lon="7.04121">
        <ele>1249.1</ele>
        <time>2021-12-05T12:55:53Z</time>
      </trkpt>
      <trkpt lat="48.08011" lon="7.04121">
        <ele>1249.1</ele>
        <time>2021-12-05T12:55:55Z</time>
      </trkpt>
      <trkpt lat="48.08011" lon="7.04121">
        <ele>1249.2</ele>
        <time>2021-12-05T12:56:05Z</time>
      </trkpt>
      <trkpt lat="48.08011" lon="7.04121">
        <ele>1249.2</ele>
        <time>2021-12-05T12:56:06Z</time>
      </trkpt>
      <trkpt lat="48.0801" lon="7.04121">
        <ele>1249.3</ele>
        <time>2021-12-05T12:56:09Z</time>
      </trkpt>
      <trkpt lat="48.0801" lon="7.04122">
        <ele>1249.3</ele>
        <time>2021-12-05T12:56:10Z</time>
      </trkpt>
      <trkpt lat="48.0801" lon="7.04122">
        <ele>1249.3</ele>
        <time>2021-12-05T12:56:11Z</time>
      </trkpt>
      <trkpt lat="48.0801" lon="7.04122">
        <ele>1249.4</ele>
        <time>2021-12-05T12:56:13Z</time>
      </trkpt>
      <trkpt lat="48.0801" lon="7.04122">
        <ele>1249.4</ele>
        <time>2021-12-05T12:56:14Z</time>
      </trkpt>
      <trkpt lat="48.0801" lon="7.04123">
        <ele>1249.4</ele>
        <time>2021-12-05T12:56:17Z</time>
      </trkpt>
      <trkpt lat="48.0801" lon="7.04123">
        <ele>1249.5</ele>
        <time>2021-12-05T12:56:18Z</time>
      </trkpt>
      <trkpt lat="48.0801" lon="7.04123">
        <ele>1249.5</ele>
        <time>2021-12-05T12:56:22Z</time>
      </trkpt>
      <trkpt lat="48.0801" lon="7.04123">
        <ele>1249.6</ele>
        <time>2021-12-05T12:56:23Z</time>
      </trkpt>
      <trkpt lat="48.0801" lon="7.04123">
        <ele>1249.6</ele>
        <time>2021-12-05T12:56:26Z</time>
      </trkpt>
      <trkpt lat="48.0801" lon="7.04123">
        <ele>1249.6</ele>
        <time>2021-12-05T12:56:31Z</time>
      </trkpt>
      <trkpt lat="48.0801" lon="7.04123">
        <ele>1249.7</ele>
        <time>2021-12-05T12:56:32Z</time>
      </trkpt>
      <trkpt lat="48.0801" lon="7.04123">
        <ele>1249.7</ele>
        <time>2021-12-05T12:56:48Z</time>
      </trkpt>
      <trkpt lat="48.0801" lon="7.04123">
        <ele>1249.8</ele>
        <time>2021-12-05T12:56:49Z</time>
      </trkpt>
      <trkpt lat="48.08011" lon="7.04123">
        <ele>1249.8</ele>
        <time>2021-12-05T12:57:12Z</time>
      </trkpt>
      <trkpt lat="48.08011" lon="7.04123">
        <ele>1249.8</ele>
        <time>2021-12-05T12:57:13Z</time>
      </trkpt>
      <trkpt lat="48.0801" lon="7.04123">
        <ele>1249.9</ele>
        <time>2021-12-05T12:57:15Z</time>
      </trkpt>
      <trkpt lat="48.08014" lon="7.04135">
        <ele>1250.5</ele>
        <time>2021-12-05T12:57:43Z</time>
      </trkpt>
      <trkpt lat="48.08014" lon="7.04149">
        <ele>1251.4</ele>
        <time>2021-12-05T12:57:57Z</time>
      </trkpt>
      <trkpt lat="48.08011" lon="7.04162">
        <ele>1252.7</ele>
        <time>2021-12-05T12:58:09Z</time>
      </trkpt>
      <trkpt lat="48.08017" lon="7.04172">
        <ele>1251.7</ele>
        <time>2021-12-05T12:58:22Z</time>
      </trkpt>
      <trkpt lat="48.08023" lon="7.04185">
        <ele>1250.6</ele>
        <time>2021-12-05T12:58:36Z</time>
      </trkpt>
      <trkpt lat="48.0803" lon="7.04193">
        <ele>1249.4</ele>
        <time>2021-12-05T12:58:46Z</time>
      </trkpt>
      <trkpt lat="48.08028" lon="7.04206">
        <ele>1250.2</ele>
        <time>2021-12-05T12:59:01Z</time>
      </trkpt>
      <trkpt lat="48.08028" lon="7.04207">
        <ele>1250.2</ele>
        <time>2021-12-05T12:59:04Z</time>
      </trkpt>
      <trkpt lat="48.08028" lon="7.04207">
        <ele>1250.3</ele>
        <time>2021-12-05T12:59:07Z</time>
      </trkpt>
      <trkpt lat="48.08027" lon="7.04221">
        <ele>1250.7</ele>
        <time>2021-12-05T12:59:21Z</time>
      </trkpt>
      <trkpt lat="48.08026" lon="7.04229">
        <ele>1251.9</ele>
        <time>2021-12-05T12:59:33Z</time>
      </trkpt>
      <trkpt lat="48.08026" lon="7.04229">
        <ele>1252</ele>
        <time>2021-12-05T12:59:34Z</time>
      </trkpt>
      <trkpt lat="48.08026" lon="7.04229">
        <ele>1252</ele>
        <time>2021-12-05T12:59:35Z</time>
      </trkpt>
      <trkpt lat="48.08026" lon="7.0423">
        <ele>1252.1</ele>
        <time>2021-12-05T12:59:36Z</time>
      </trkpt>
      <trkpt lat="48.08026" lon="7.04244">
        <ele>1252.5</ele>
        <time>2021-12-05T12:59:47Z</time>
      </trkpt>
      <trkpt lat="48.08027" lon="7.04258">
        <ele>1253.6</ele>
        <time>2021-12-05T12:59:58Z</time>
      </trkpt>
      <trkpt lat="48.08026" lon="7.04272">
        <ele>1255</ele>
        <time>2021-12-05T13:00:09Z</time>
      </trkpt>
      <trkpt lat="48.08027" lon="7.04286">
        <ele>1255.9</ele>
        <time>2021-12-05T13:00:23Z</time>
      </trkpt>
      <trkpt lat="48.08029" lon="7.04299">
        <ele>1256.4</ele>
        <time>2021-12-05T13:00:35Z</time>
      </trkpt>
      <trkpt lat="48.0803" lon="7.04309">
        <ele>1257.3</ele>
        <time>2021-12-05T13:00:47Z</time>
      </trkpt>
      <trkpt lat="48.0803" lon="7.0431">
        <ele>1257.7</ele>
        <time>2021-12-05T13:00:49Z</time>
      </trkpt>
      <trkpt lat="48.08032" lon="7.04324">
        <ele>1258.6</ele>
        <time>2021-12-05T13:01:04Z</time>
      </trkpt>
      <trkpt lat="48.08034" lon="7.04339">
        <ele>1259.6</ele>
        <time>2021-12-05T13:01:16Z</time>
      </trkpt>
      <trkpt lat="48.08036" lon="7.04353">
        <ele>1260</ele>
        <time>2021-12-05T13:01:26Z</time>
      </trkpt>
      <trkpt lat="48.08039" lon="7.04366">
        <ele>1259.8</ele>
        <time>2021-12-05T13:01:37Z</time>
      </trkpt>
      <trkpt lat="48.08041" lon="7.04379">
        <ele>1259.3</ele>
        <time>2021-12-05T13:01:47Z</time>
      </trkpt>
      <trkpt lat="48.08043" lon="7.04393">
        <ele>1258.8</ele>
        <time>2021-12-05T13:01:58Z</time>
      </trkpt>
      <trkpt lat="48.08046" lon="7.04406">
        <ele>1258.6</ele>
        <time>2021-12-05T13:02:09Z</time>
      </trkpt>
      <trkpt lat="48.0805" lon="7.04419">
        <ele>1258.8</ele>
        <time>2021-12-05T13:02:19Z</time>
      </trkpt>
      <trkpt lat="48.08053" lon="7.04432">
        <ele>1258.9</ele>
        <time>2021-12-05T13:02:30Z</time>
      </trkpt>
      <trkpt lat="48.08057" lon="7.04445">
        <ele>1258.9</ele>
        <time>2021-12-05T13:02:42Z</time>
      </trkpt>
      <trkpt lat="48.0806" lon="7.04458">
        <ele>1258.8</ele>
        <time>2021-12-05T13:02:53Z</time>
      </trkpt>
      <trkpt lat="48.08062" lon="7.04471">
        <ele>1258.8</ele>
        <time>2021-12-05T13:03:03Z</time>
      </trkpt>
      <trkpt lat="48.08066" lon="7.04484">
        <ele>1259</ele>
        <time>2021-12-05T13:03:13Z</time>
      </trkpt>
      <trkpt lat="48.08069" lon="7.04497">
        <ele>1259.3</ele>
        <time>2021-12-05T13:03:24Z</time>
      </trkpt>
      <trkpt lat="48.0807" lon="7.04511">
        <ele>1259.7</ele>
        <time>2021-12-05T13:03:35Z</time>
      </trkpt>
      <trkpt lat="48.08073" lon="7.04524">
        <ele>1260.4</ele>
        <time>2021-12-05T13:03:45Z</time>
      </trkpt>
      <trkpt lat="48.08077" lon="7.04536">
        <ele>1261.3</ele>
        <time>2021-12-05T13:03:55Z</time>
      </trkpt>
      <trkpt lat="48.08079" lon="7.0455">
        <ele>1263</ele>
        <time>2021-12-05T13:04:06Z</time>
      </trkpt>
      <trkpt lat="48.08081" lon="7.04564">
        <ele>1263.8</ele>
        <time>2021-12-05T13:04:17Z</time>
      </trkpt>
      <trkpt lat="48.08082" lon="7.04578">
        <ele>1264.7</ele>
        <time>2021-12-05T13:04:28Z</time>
      </trkpt>
      <trkpt lat="48.08084" lon="7.04592">
        <ele>1264.8</ele>
        <time>2021-12-05T13:04:41Z</time>
      </trkpt>
      <trkpt lat="48.08087" lon="7.04605">
        <ele>1264.7</ele>
        <time>2021-12-05T13:04:52Z</time>
      </trkpt>
      <trkpt lat="48.08089" lon="7.04619">
        <ele>1265.4</ele>
        <time>2021-12-05T13:05:05Z</time>
      </trkpt>
      <trkpt lat="48.08092" lon="7.04627">
        <ele>1264.8</ele>
        <time>2021-12-05T13:05:14Z</time>
      </trkpt>
      <trkpt lat="48.08092" lon="7.04628">
        <ele>1264.9</ele>
        <time>2021-12-05T13:05:41Z</time>
      </trkpt>
      <trkpt lat="48.08096" lon="7.04641">
        <ele>1265</ele>
        <time>2021-12-05T13:05:51Z</time>
      </trkpt>
      <trkpt lat="48.08096" lon="7.04641">
        <ele>1265.1</ele>
        <time>2021-12-05T13:05:53Z</time>
      </trkpt>
      <trkpt lat="48.08096" lon="7.04641">
        <ele>1265.1</ele>
        <time>2021-12-05T13:06:27Z</time>
      </trkpt>
      <trkpt lat="48.08096" lon="7.04641">
        <ele>1265.2</ele>
        <time>2021-12-05T13:06:28Z</time>
      </trkpt>
      <trkpt lat="48.08096" lon="7.04641">
        <ele>1265.2</ele>
        <time>2021-12-05T13:06:40Z</time>
      </trkpt>
      <trkpt lat="48.0809" lon="7.04652">
        <ele>1266.4</ele>
        <time>2021-12-05T13:06:52Z</time>
      </trkpt>
      <trkpt lat="48.08082" lon="7.04656">
        <ele>1268.2</ele>
        <time>2021-12-05T13:07:08Z</time>
      </trkpt>
      <trkpt lat="48.08078" lon="7.0466">
        <ele>1268.9</ele>
        <time>2021-12-05T13:07:17Z</time>
      </trkpt>
      <trkpt lat="48.08078" lon="7.0466">
        <ele>1268.9</ele>
        <time>2021-12-05T13:07:21Z</time>
      </trkpt>
      <trkpt lat="48.08071" lon="7.0467">
        <ele>1270.6</ele>
        <time>2021-12-05T13:07:35Z</time>
      </trkpt>
      <trkpt lat="48.08066" lon="7.04682">
        <ele>1271.7</ele>
        <time>2021-12-05T13:07:46Z</time>
      </trkpt>
      <trkpt lat="48.08063" lon="7.04696">
        <ele>1272.2</ele>
        <time>2021-12-05T13:07:57Z</time>
      </trkpt>
      <trkpt lat="48.08065" lon="7.04705">
        <ele>1271.8</ele>
        <time>2021-12-05T13:08:07Z</time>
      </trkpt>
      <trkpt lat="48.08065" lon="7.04706">
        <ele>1271.9</ele>
        <time>2021-12-05T13:08:10Z</time>
      </trkpt>
      <trkpt lat="48.08067" lon="7.04719">
        <ele>1271.6</ele>
        <time>2021-12-05T13:08:21Z</time>
      </trkpt>
      <trkpt lat="48.08071" lon="7.04731">
        <ele>1271.4</ele>
        <time>2021-12-05T13:08:32Z</time>
      </trkpt>
      <trkpt lat="48.08075" lon="7.04744">
        <ele>1270.4</ele>
        <time>2021-12-05T13:08:41Z</time>
      </trkpt>
      <trkpt lat="48.08081" lon="7.04755">
        <ele>1269.4</ele>
        <time>2021-12-05T13:08:50Z</time>
      </trkpt>
      <trkpt lat="48.08087" lon="7.04765">
        <ele>1268.3</ele>
        <time>2021-12-05T13:08:59Z</time>
      </trkpt>
      <trkpt lat="48.08088" lon="7.04768">
        <ele>1268.3</ele>
        <time>2021-12-05T13:09:04Z</time>
      </trkpt>
      <trkpt lat="48.08088" lon="7.04769">
        <ele>1268.4</ele>
        <time>2021-12-05T13:09:11Z</time>
      </trkpt>
      <trkpt lat="48.08095" lon="7.04778">
        <ele>1267</ele>
        <time>2021-12-05T13:09:21Z</time>
      </trkpt>
      <trkpt lat="48.08104" lon="7.04784">
        <ele>1265.7</ele>
        <time>2021-12-05T13:09:30Z</time>
      </trkpt>
      <trkpt lat="48.08111" lon="7.04787">
        <ele>1264.7</ele>
        <time>2021-12-05T13:09:41Z</time>
      </trkpt>
      <trkpt lat="48.08111" lon="7.04788">
        <ele>1264.8</ele>
        <time>2021-12-05T13:09:55Z</time>
      </trkpt>
      <trkpt lat="48.08111" lon="7.04788">
        <ele>1264.8</ele>
        <time>2021-12-05T13:09:56Z</time>
      </trkpt>
      <trkpt lat="48.08111" lon="7.04788">
        <ele>1264.9</ele>
        <time>2021-12-05T13:10:25Z</time>
      </trkpt>
      <trkpt lat="48.08112" lon="7.04791">
        <ele>1264.3</ele>
        <time>2021-12-05T13:10:31Z</time>
      </trkpt>
      <trkpt lat="48.08112" lon="7.04792">
        <ele>1264.4</ele>
        <time>2021-12-05T13:10:33Z</time>
      </trkpt>
      <trkpt lat="48.08114" lon="7.04806">
        <ele>1264</ele>
        <time>2021-12-05T13:10:41Z</time>
      </trkpt>
      <trkpt lat="48.08116" lon="7.0482">
        <ele>1263.3</ele>
        <time>2021-12-05T13:10:52Z</time>
      </trkpt>
      <trkpt lat="48.08116" lon="7.0482">
        <ele>1263.3</ele>
        <time>2021-12-05T13:10:53Z</time>
      </trkpt>
      <trkpt lat="48.08116" lon="7.0482">
        <ele>1263.3</ele>
        <time>2021-12-05T13:10:56Z</time>
      </trkpt>
      <trkpt lat="48.0812" lon="7.04834">
        <ele>1262.8</ele>
        <time>2021-12-05T13:11:05Z</time>
      </trkpt>
      <trkpt lat="48.08125" lon="7.04845">
        <ele>1262.3</ele>
        <time>2021-12-05T13:11:15Z</time>
      </trkpt>
      <trkpt lat="48.08129" lon="7.04859">
        <ele>1262.1</ele>
        <time>2021-12-05T13:11:27Z</time>
      </trkpt>
      <trkpt lat="48.08131" lon="7.04867">
        <ele>1262.4</ele>
        <time>2021-12-05T13:11:35Z</time>
      </trkpt>
      <trkpt lat="48.08131" lon="7.04868">
        <ele>1262.6</ele>
        <time>2021-12-05T13:11:39Z</time>
      </trkpt>
      <trkpt lat="48.08131" lon="7.04868">
        <ele>1262.6</ele>
        <time>2021-12-05T13:11:41Z</time>
      </trkpt>
      <trkpt lat="48.08131" lon="7.04869">
        <ele>1262.7</ele>
        <time>2021-12-05T13:11:44Z</time>
      </trkpt>
      <trkpt lat="48.08131" lon="7.04884">
        <ele>1263.1</ele>
        <time>2021-12-05T13:11:53Z</time>
      </trkpt>
      <trkpt lat="48.08135" lon="7.04897">
        <ele>1262.9</ele>
        <time>2021-12-05T13:12:05Z</time>
      </trkpt>
      <trkpt lat="48.08139" lon="7.04909">
        <ele>1262</ele>
        <time>2021-12-05T13:12:15Z</time>
      </trkpt>
      <trkpt lat="48.08143" lon="7.04923">
        <ele>1261.7</ele>
        <time>2021-12-05T13:12:25Z</time>
      </trkpt>
      <trkpt lat="48.08147" lon="7.04936">
        <ele>1260.8</ele>
        <time>2021-12-05T13:12:34Z</time>
      </trkpt>
      <trkpt lat="48.08151" lon="7.04948">
        <ele>1259.9</ele>
        <time>2021-12-05T13:12:43Z</time>
      </trkpt>
      <trkpt lat="48.08156" lon="7.04961">
        <ele>1259</ele>
        <time>2021-12-05T13:12:53Z</time>
      </trkpt>
      <trkpt lat="48.08159" lon="7.04974">
        <ele>1258.2</ele>
        <time>2021-12-05T13:13:03Z</time>
      </trkpt>
      <trkpt lat="48.08162" lon="7.04987">
        <ele>1257.5</ele>
        <time>2021-12-05T13:13:13Z</time>
      </trkpt>
      <trkpt lat="48.08165" lon="7.05">
        <ele>1257.2</ele>
        <time>2021-12-05T13:13:23Z</time>
      </trkpt>
      <trkpt lat="48.08168" lon="7.05013">
        <ele>1257</ele>
        <time>2021-12-05T13:13:34Z</time>
      </trkpt>
      <trkpt lat="48.08172" lon="7.05025">
        <ele>1257</ele>
        <time>2021-12-05T13:13:47Z</time>
      </trkpt>
      <trkpt lat="48.08172" lon="7.05026">
        <ele>1257</ele>
        <time>2021-12-05T13:13:58Z</time>
      </trkpt>
      <trkpt lat="48.08173" lon="7.05028">
        <ele>1257</ele>
        <time>2021-12-05T13:14:01Z</time>
      </trkpt>
      <trkpt lat="48.08173" lon="7.05029">
        <ele>1257</ele>
        <time>2021-12-05T13:14:04Z</time>
      </trkpt>
      <trkpt lat="48.08182" lon="7.05035">
        <ele>1257.1</ele>
        <time>2021-12-05T13:14:15Z</time>
      </trkpt>
      <trkpt lat="48.08188" lon="7.05045">
        <ele>1257.3</ele>
        <time>2021-12-05T13:14:25Z</time>
      </trkpt>
      <trkpt lat="48.08194" lon="7.05057">
        <ele>1257.6</ele>
        <time>2021-12-05T13:14:33Z</time>
      </trkpt>
      <trkpt lat="48.08201" lon="7.05068">
        <ele>1258.1</ele>
        <time>2021-12-05T13:14:41Z</time>
      </trkpt>
      <trkpt lat="48.08208" lon="7.05077">
        <ele>1258.7</ele>
        <time>2021-12-05T13:14:48Z</time>
      </trkpt>
      <trkpt lat="48.08214" lon="7.05088">
        <ele>1259.4</ele>
        <time>2021-12-05T13:14:55Z</time>
      </trkpt>
      <trkpt lat="48.08221" lon="7.05099">
        <ele>1260.1</ele>
        <time>2021-12-05T13:15:02Z</time>
      </trkpt>
      <trkpt lat="48.08226" lon="7.0511">
        <ele>1261</ele>
        <time>2021-12-05T13:15:10Z</time>
      </trkpt>
      <trkpt lat="48.08232" lon="7.05121">
        <ele>1262.1</ele>
        <time>2021-12-05T13:15:18Z</time>
      </trkpt>
      <trkpt lat="48.08237" lon="7.05134">
        <ele>1263.5</ele>
        <time>2021-12-05T13:15:27Z</time>
      </trkpt>
      <trkpt lat="48.08244" lon="7.05144">
        <ele>1265.2</ele>
        <time>2021-12-05T13:15:36Z</time>
      </trkpt>
      <trkpt lat="48.08251" lon="7.05148">
        <ele>1266.8</ele>
        <time>2021-12-05T13:15:48Z</time>
      </trkpt>
      <trkpt lat="48.08251" lon="7.05148">
        <ele>1266.9</ele>
        <time>2021-12-05T13:15:49Z</time>
      </trkpt>
      <trkpt lat="48.08251" lon="7.05148">
        <ele>1266.9</ele>
        <time>2021-12-05T13:15:50Z</time>
      </trkpt>
      <trkpt lat="48.08251" lon="7.05148">
        <ele>1266.9</ele>
        <time>2021-12-05T13:15:51Z</time>
      </trkpt>
      <trkpt lat="48.0826" lon="7.05146">
        <ele>1268.7</ele>
        <time>2021-12-05T13:16:07Z</time>
      </trkpt>
      <trkpt lat="48.08269" lon="7.05152">
        <ele>1270.1</ele>
        <time>2021-12-05T13:16:19Z</time>
      </trkpt>
      <trkpt lat="48.08273" lon="7.05164">
        <ele>1271.2</ele>
        <time>2021-12-05T13:16:34Z</time>
      </trkpt>
      <trkpt lat="48.08279" lon="7.05175">
        <ele>1272.4</ele>
        <time>2021-12-05T13:16:45Z</time>
      </trkpt>
      <trkpt lat="48.08287" lon="7.05181">
        <ele>1273.8</ele>
        <time>2021-12-05T13:16:55Z</time>
      </trkpt>
      <trkpt lat="48.08296" lon="7.05186">
        <ele>1275.6</ele>
        <time>2021-12-05T13:17:04Z</time>
      </trkpt>
      <trkpt lat="48.08304" lon="7.05192">
        <ele>1277.5</ele>
        <time>2021-12-05T13:17:15Z</time>
      </trkpt>
      <trkpt lat="48.08314" lon="7.05197">
        <ele>1279.4</ele>
        <time>2021-12-05T13:17:23Z</time>
      </trkpt>
      <trkpt lat="48.08323" lon="7.05201">
        <ele>1281.3</ele>
        <time>2021-12-05T13:17:36Z</time>
      </trkpt>
      <trkpt lat="48.08332" lon="7.05203">
        <ele>1283.4</ele>
        <time>2021-12-05T13:17:49Z</time>
      </trkpt>
      <trkpt lat="48.08338" lon="7.05213">
        <ele>1284.9</ele>
        <time>2021-12-05T13:18:00Z</time>
      </trkpt>
      <trkpt lat="48.08343" lon="7.05218">
        <ele>1285.2</ele>
        <time>2021-12-05T13:18:10Z</time>
      </trkpt>
      <trkpt lat="48.08343" lon="7.05218">
        <ele>1285.2</ele>
        <time>2021-12-05T13:18:29Z</time>
      </trkpt>
      <trkpt lat="48.0835" lon="7.05213">
        <ele>1285.6</ele>
        <time>2021-12-05T13:18:42Z</time>
      </trkpt>
      <trkpt lat="48.0835" lon="7.05214">
        <ele>1285.6</ele>
        <time>2021-12-05T13:18:43Z</time>
      </trkpt>
      <trkpt lat="48.08346" lon="7.05212">
        <ele>1285.5</ele>
        <time>2021-12-05T13:18:55Z</time>
      </trkpt>
      <trkpt lat="48.08346" lon="7.05211">
        <ele>1285.5</ele>
        <time>2021-12-05T13:19:05Z</time>
      </trkpt>
      <trkpt lat="48.08346" lon="7.05211">
        <ele>1285.5</ele>
        <time>2021-12-05T13:19:06Z</time>
      </trkpt>
      <trkpt lat="48.08346" lon="7.05211">
        <ele>1285.5</ele>
        <time>2021-12-05T13:19:10Z</time>
      </trkpt>
      <trkpt lat="48.08346" lon="7.05211">
        <ele>1285.4</ele>
        <time>2021-12-05T13:19:13Z</time>
      </trkpt>
      <trkpt lat="48.08346" lon="7.05211">
        <ele>1285.4</ele>
        <time>2021-12-05T13:19:14Z</time>
      </trkpt>
      <trkpt lat="48.08347" lon="7.05214">
        <ele>1285.4</ele>
        <time>2021-12-05T13:19:39Z</time>
      </trkpt>
      <trkpt lat="48.08347" lon="7.05214">
        <ele>1285.4</ele>
        <time>2021-12-05T13:19:45Z</time>
      </trkpt>
      <trkpt lat="48.08347" lon="7.05214">
        <ele>1285.4</ele>
        <time>2021-12-05T13:19:46Z</time>
      </trkpt>
      <trkpt lat="48.08347" lon="7.05214">
        <ele>1285.3</ele>
        <time>2021-12-05T13:19:53Z</time>
      </trkpt>
      <trkpt lat="48.08347" lon="7.05213">
        <ele>1285.3</ele>
        <time>2021-12-05T13:19:58Z</time>
      </trkpt>
      <trkpt lat="48.08346" lon="7.05214">
        <ele>1285.3</ele>
        <time>2021-12-05T13:19:59Z</time>
      </trkpt>
      <trkpt lat="48.08344" lon="7.05216">
        <ele>1285.2</ele>
        <time>2021-12-05T13:20:06Z</time>
      </trkpt>
      <trkpt lat="48.08344" lon="7.05216">
        <ele>1285.2</ele>
        <time>2021-12-05T13:20:43Z</time>
      </trkpt>
      <trkpt lat="48.08345" lon="7.05216">
        <ele>1285.2</ele>
        <time>2021-12-05T13:20:45Z</time>
      </trkpt>
      <trkpt lat="48.08345" lon="7.05216">
        <ele>1285.2</ele>
        <time>2021-12-05T13:20:48Z</time>
      </trkpt>
      <trkpt lat="48.08345" lon="7.05215">
        <ele>1285.2</ele>
        <time>2021-12-05T13:20:50Z</time>
      </trkpt>
      <trkpt lat="48.08345" lon="7.05215">
        <ele>1285.1</ele>
        <time>2021-12-05T13:20:51Z</time>
      </trkpt>
      <trkpt lat="48.08345" lon="7.05215">
        <ele>1285.1</ele>
        <time>2021-12-05T13:20:52Z</time>
      </trkpt>
      <trkpt lat="48.08345" lon="7.05215">
        <ele>1285.1</ele>
        <time>2021-12-05T13:21:26Z</time>
      </trkpt>
      <trkpt lat="48.08345" lon="7.05215">
        <ele>1285.1</ele>
        <time>2021-12-05T13:21:27Z</time>
      </trkpt>
      <trkpt lat="48.08345" lon="7.05215">
        <ele>1285.1</ele>
        <time>2021-12-05T13:21:44Z</time>
      </trkpt>
      <trkpt lat="48.08336" lon="7.05209">
        <ele>1284.7</ele>
        <time>2021-12-05T13:21:57Z</time>
      </trkpt>
      <trkpt lat="48.08334" lon="7.05209">
        <ele>1284.3</ele>
        <time>2021-12-05T13:22:02Z</time>
      </trkpt>
      <trkpt lat="48.08333" lon="7.05209">
        <ele>1284.2</ele>
        <time>2021-12-05T13:22:04Z</time>
      </trkpt>
      <trkpt lat="48.08331" lon="7.05204">
        <ele>1283.4</ele>
        <time>2021-12-05T13:22:17Z</time>
      </trkpt>
      <trkpt lat="48.08331" lon="7.05204">
        <ele>1283.2</ele>
        <time>2021-12-05T13:22:21Z</time>
      </trkpt>
      <trkpt lat="48.08321" lon="7.05202">
        <ele>1281.1</ele>
        <time>2021-12-05T13:22:28Z</time>
      </trkpt>
      <trkpt lat="48.08313" lon="7.05196">
        <ele>1279.2</ele>
        <time>2021-12-05T13:22:40Z</time>
      </trkpt>
      <trkpt lat="48.08304" lon="7.05191">
        <ele>1277.4</ele>
        <time>2021-12-05T13:22:49Z</time>
      </trkpt>
      <trkpt lat="48.08295" lon="7.05184">
        <ele>1275.5</ele>
        <time>2021-12-05T13:22:59Z</time>
      </trkpt>
      <trkpt lat="48.08286" lon="7.0518">
        <ele>1273.6</ele>
        <time>2021-12-05T13:23:08Z</time>
      </trkpt>
      <trkpt lat="48.08277" lon="7.05175">
        <ele>1272.4</ele>
        <time>2021-12-05T13:23:16Z</time>
      </trkpt>
      <trkpt lat="48.0827" lon="7.05165">
        <ele>1271.1</ele>
        <time>2021-12-05T13:23:30Z</time>
      </trkpt>
      <trkpt lat="48.0826" lon="7.05166">
        <ele>1269.9</ele>
        <time>2021-12-05T13:23:41Z</time>
      </trkpt>
      <trkpt lat="48.08251" lon="7.05163">
        <ele>1268.5</ele>
        <time>2021-12-05T13:23:52Z</time>
      </trkpt>
      <trkpt lat="48.08247" lon="7.0515">
        <ele>1266.6</ele>
        <time>2021-12-05T13:24:03Z</time>
      </trkpt>
      <trkpt lat="48.08241" lon="7.05139">
        <ele>1264.7</ele>
        <time>2021-12-05T13:24:12Z</time>
      </trkpt>
      <trkpt lat="48.08235" lon="7.05128">
        <ele>1263.1</ele>
        <time>2021-12-05T13:24:21Z</time>
      </trkpt>
      <trkpt lat="48.0823" lon="7.05116">
        <ele>1261.8</ele>
        <time>2021-12-05T13:24:29Z</time>
      </trkpt>
      <trkpt lat="48.08225" lon="7.05105">
        <ele>1260.8</ele>
        <time>2021-12-05T13:24:37Z</time>
      </trkpt>
      <trkpt lat="48.08218" lon="7.05093">
        <ele>1259.9</ele>
        <time>2021-12-05T13:24:45Z</time>
      </trkpt>
      <trkpt lat="48.08212" lon="7.05083">
        <ele>1259.2</ele>
        <time>2021-12-05T13:24:53Z</time>
      </trkpt>
      <trkpt lat="48.08206" lon="7.05073">
        <ele>1258.6</ele>
        <time>2021-12-05T13:25:02Z</time>
      </trkpt>
      <trkpt lat="48.08199" lon="7.05064">
        <ele>1258</ele>
        <time>2021-12-05T13:25:10Z</time>
      </trkpt>
      <trkpt lat="48.08193" lon="7.05053">
        <ele>1257.6</ele>
        <time>2021-12-05T13:25:18Z</time>
      </trkpt>
      <trkpt lat="48.08186" lon="7.05042">
        <ele>1257.3</ele>
        <time>2021-12-05T13:25:27Z</time>
      </trkpt>
      <trkpt lat="48.08179" lon="7.05033">
        <ele>1257.1</ele>
        <time>2021-12-05T13:25:36Z</time>
      </trkpt>
      <trkpt lat="48.08177" lon="7.05033">
        <ele>1257.1</ele>
        <time>2021-12-05T13:25:42Z</time>
      </trkpt>
      <trkpt lat="48.08176" lon="7.05033">
        <ele>1257.1</ele>
        <time>2021-12-05T13:25:43Z</time>
      </trkpt>
      <trkpt lat="48.08176" lon="7.05033">
        <ele>1257.1</ele>
        <time>2021-12-05T13:25:45Z</time>
      </trkpt>
      <trkpt lat="48.08176" lon="7.05033">
        <ele>1257.1</ele>
        <time>2021-12-05T13:25:46Z</time>
      </trkpt>
      <trkpt lat="48.08176" lon="7.05032">
        <ele>1257.1</ele>
        <time>2021-12-05T13:25:49Z</time>
      </trkpt>
      <trkpt lat="48.08176" lon="7.05033">
        <ele>1257.1</ele>
        <time>2021-12-05T13:25:51Z</time>
      </trkpt>
      <trkpt lat="48.08176" lon="7.05033">
        <ele>1257.1</ele>
        <time>2021-12-05T13:25:52Z</time>
      </trkpt>
      <trkpt lat="48.08176" lon="7.05033">
        <ele>1257.1</ele>
        <time>2021-12-05T13:25:53Z</time>
      </trkpt>
      <trkpt lat="48.08176" lon="7.05033">
        <ele>1257.1</ele>
        <time>2021-12-05T13:25:55Z</time>
      </trkpt>
      <trkpt lat="48.08176" lon="7.05032">
        <ele>1257.1</ele>
        <time>2021-12-05T13:26:01Z</time>
      </trkpt>
      <trkpt lat="48.08176" lon="7.05032">
        <ele>1257.1</ele>
        <time>2021-12-05T13:26:02Z</time>
      </trkpt>
      <trkpt lat="48.08176" lon="7.05033">
        <ele>1257.1</ele>
        <time>2021-12-05T13:26:08Z</time>
      </trkpt>
      <trkpt lat="48.08177" lon="7.05033">
        <ele>1257.1</ele>
        <time>2021-12-05T13:26:10Z</time>
      </trkpt>
      <trkpt lat="48.08176" lon="7.05032">
        <ele>1257.1</ele>
        <time>2021-12-05T13:26:20Z</time>
      </trkpt>
      <trkpt lat="48.08176" lon="7.05032">
        <ele>1257</ele>
        <time>2021-12-05T13:26:22Z</time>
      </trkpt>
      <trkpt lat="48.08176" lon="7.05032">
        <ele>1257</ele>
        <time>2021-12-05T13:26:25Z</time>
      </trkpt>
      <trkpt lat="48.08176" lon="7.05032">
        <ele>1257</ele>
        <time>2021-12-05T13:26:27Z</time>
      </trkpt>
      <trkpt lat="48.08176" lon="7.05032">
        <ele>1257</ele>
        <time>2021-12-05T13:26:31Z</time>
      </trkpt>
      <trkpt lat="48.08176" lon="7.05032">
        <ele>1257</ele>
        <time>2021-12-05T13:26:33Z</time>
      </trkpt>
      <trkpt lat="48.08176" lon="7.05032">
        <ele>1257</ele>
        <time>2021-12-05T13:26:40Z</time>
      </trkpt>
      <trkpt lat="48.08176" lon="7.05032">
        <ele>1257</ele>
        <time>2021-12-05T13:26:42Z</time>
      </trkpt>
      <trkpt lat="48.08176" lon="7.05032">
        <ele>1257</ele>
        <time>2021-12-05T13:26:48Z</time>
      </trkpt>
      <trkpt lat="48.08176" lon="7.05031">
        <ele>1257</ele>
        <time>2021-12-05T13:26:52Z</time>
      </trkpt>
      <trkpt lat="48.08176" lon="7.0503">
        <ele>1257</ele>
        <time>2021-12-05T13:26:55Z</time>
      </trkpt>
      <trkpt lat="48.08175" lon="7.0503">
        <ele>1257</ele>
        <time>2021-12-05T13:26:59Z</time>
      </trkpt>
      <trkpt lat="48.08175" lon="7.0503">
        <ele>1257</ele>
        <time>2021-12-05T13:27:01Z</time>
      </trkpt>
      <trkpt lat="48.08175" lon="7.0503">
        <ele>1257</ele>
        <time>2021-12-05T13:27:02Z</time>
      </trkpt>
      <trkpt lat="48.08175" lon="7.05031">
        <ele>1257</ele>
        <time>2021-12-05T13:27:03Z</time>
      </trkpt>
      <trkpt lat="48.08175" lon="7.05031">
        <ele>1257</ele>
        <time>2021-12-05T13:27:05Z</time>
      </trkpt>
      <trkpt lat="48.08175" lon="7.0503">
        <ele>1257</ele>
        <time>2021-12-05T13:27:07Z</time>
      </trkpt>
      <trkpt lat="48.08175" lon="7.0503">
        <ele>1257</ele>
        <time>2021-12-05T13:27:09Z</time>
      </trkpt>
      <trkpt lat="48.08175" lon="7.0503">
        <ele>1257</ele>
        <time>2021-12-05T13:27:15Z</time>
      </trkpt>
      <trkpt lat="48.08174" lon="7.05029">
        <ele>1257</ele>
        <time>2021-12-05T13:27:19Z</time>
      </trkpt>
      <trkpt lat="48.08174" lon="7.05029">
        <ele>1257</ele>
        <time>2021-12-05T13:27:24Z</time>
      </trkpt>
      <trkpt lat="48.08167" lon="7.05018">
        <ele>1257</ele>
        <time>2021-12-05T13:27:34Z</time>
      </trkpt>
      <trkpt lat="48.0816" lon="7.05007">
        <ele>1257.2</ele>
        <time>2021-12-05T13:27:45Z</time>
      </trkpt>
      <trkpt lat="48.08154" lon="7.04996">
        <ele>1257.5</ele>
        <time>2021-12-05T13:27:53Z</time>
      </trkpt>
      <trkpt lat="48.08154" lon="7.04996">
        <ele>1257.6</ele>
        <time>2021-12-05T13:27:55Z</time>
      </trkpt>
      <trkpt lat="48.08153" lon="7.04995">
        <ele>1257.6</ele>
        <time>2021-12-05T13:27:56Z</time>
      </trkpt>
      <trkpt lat="48.08146" lon="7.04986">
        <ele>1258.3</ele>
        <time>2021-12-05T13:28:03Z</time>
      </trkpt>
      <trkpt lat="48.08137" lon="7.04977">
        <ele>1259.3</ele>
        <time>2021-12-05T13:28:12Z</time>
      </trkpt>
      <trkpt lat="48.0813" lon="7.04968">
        <ele>1260.2</ele>
        <time>2021-12-05T13:28:21Z</time>
      </trkpt>
      <trkpt lat="48.08122" lon="7.04959">
        <ele>1261.2</ele>
        <time>2021-12-05T13:28:31Z</time>
      </trkpt>
      <trkpt lat="48.08118" lon="7.04947">
        <ele>1262.2</ele>
        <time>2021-12-05T13:28:40Z</time>
      </trkpt>
      <trkpt lat="48.08117" lon="7.04934">
        <ele>1263.2</ele>
        <time>2021-12-05T13:28:50Z</time>
      </trkpt>
      <trkpt lat="48.08115" lon="7.0492">
        <ele>1264.2</ele>
        <time>2021-12-05T13:29:00Z</time>
      </trkpt>
      <trkpt lat="48.08114" lon="7.04907">
        <ele>1265.1</ele>
        <time>2021-12-05T13:29:10Z</time>
      </trkpt>
      <trkpt lat="48.08111" lon="7.04893">
        <ele>1266.1</ele>
        <time>2021-12-05T13:29:20Z</time>
      </trkpt>
      <trkpt lat="48.08109" lon="7.04879">
        <ele>1267.1</ele>
        <time>2021-12-05T13:29:30Z</time>
      </trkpt>
      <trkpt lat="48.08104" lon="7.04868">
        <ele>1268</ele>
        <time>2021-12-05T13:29:40Z</time>
      </trkpt>
      <trkpt lat="48.08098" lon="7.04857">
        <ele>1268.8</ele>
        <time>2021-12-05T13:29:55Z</time>
      </trkpt>
      <trkpt lat="48.08094" lon="7.04845">
        <ele>1269.4</ele>
        <time>2021-12-05T13:30:10Z</time>
      </trkpt>
      <trkpt lat="48.08088" lon="7.04833">
        <ele>1270.1</ele>
        <time>2021-12-05T13:30:21Z</time>
      </trkpt>
      <trkpt lat="48.08082" lon="7.04823">
        <ele>1270.8</ele>
        <time>2021-12-05T13:30:32Z</time>
      </trkpt>
      <trkpt lat="48.08077" lon="7.04811">
        <ele>1271.4</ele>
        <time>2021-12-05T13:30:48Z</time>
      </trkpt>
      <trkpt lat="48.08075" lon="7.04797">
        <ele>1272.1</ele>
        <time>2021-12-05T13:31:00Z</time>
      </trkpt>
      <trkpt lat="48.08071" lon="7.04784">
        <ele>1272.8</ele>
        <time>2021-12-05T13:31:09Z</time>
      </trkpt>
      <trkpt lat="48.0807" lon="7.0477">
        <ele>1273.5</ele>
        <time>2021-12-05T13:31:19Z</time>
      </trkpt>
      <trkpt lat="48.08066" lon="7.04758">
        <ele>1274.3</ele>
        <time>2021-12-05T13:31:30Z</time>
      </trkpt>
      <trkpt lat="48.08062" lon="7.04745">
        <ele>1275.2</ele>
        <time>2021-12-05T13:31:42Z</time>
      </trkpt>
      <trkpt lat="48.08056" lon="7.04733">
        <ele>1276.1</ele>
        <time>2021-12-05T13:31:57Z</time>
      </trkpt>
      <trkpt lat="48.08049" lon="7.04724">
        <ele>1277</ele>
        <time>2021-12-05T13:32:08Z</time>
      </trkpt>
      <trkpt lat="48.08046" lon="7.0472">
        <ele>1277.4</ele>
        <time>2021-12-05T13:32:15Z</time>
      </trkpt>
      <trkpt lat="48.08046" lon="7.0472">
        <ele>1277.4</ele>
        <time>2021-12-05T13:32:25Z</time>
      </trkpt>
      <trkpt lat="48.08037" lon="7.04713">
        <ele>1278.2</ele>
        <time>2021-12-05T13:32:41Z</time>
      </trkpt>
      <trkpt lat="48.0803" lon="7.04704">
        <ele>1278.8</ele>
        <time>2021-12-05T13:32:50Z</time>
      </trkpt>
      <trkpt lat="48.08025" lon="7.04692">
        <ele>1279.3</ele>
        <time>2021-12-05T13:33:00Z</time>
      </trkpt>
      <trkpt lat="48.08019" lon="7.04679">
        <ele>1279.7</ele>
        <time>2021-12-05T13:33:11Z</time>
      </trkpt>
      <trkpt lat="48.0802" lon="7.04666">
        <ele>1280</ele>
        <time>2021-12-05T13:33:19Z</time>
      </trkpt>
      <trkpt lat="48.08019" lon="7.04652">
        <ele>1280.4</ele>
        <time>2021-12-05T13:33:28Z</time>
      </trkpt>
      <trkpt lat="48.08019" lon="7.04638">
        <ele>1281</ele>
        <time>2021-12-05T13:33:36Z</time>
      </trkpt>
      <trkpt lat="48.08017" lon="7.04624">
        <ele>1281.6</ele>
        <time>2021-12-05T13:33:45Z</time>
      </trkpt>
      <trkpt lat="48.08015" lon="7.04609">
        <ele>1282.2</ele>
        <time>2021-12-05T13:33:54Z</time>
      </trkpt>
      <trkpt lat="48.08016" lon="7.04595">
        <ele>1282.3</ele>
        <time>2021-12-05T13:34:03Z</time>
      </trkpt>
      <trkpt lat="48.08017" lon="7.0458">
        <ele>1282</ele>
        <time>2021-12-05T13:34:12Z</time>
      </trkpt>
      <trkpt lat="48.08017" lon="7.04566">
        <ele>1281.3</ele>
        <time>2021-12-05T13:34:21Z</time>
      </trkpt>
      <trkpt lat="48.08021" lon="7.04553">
        <ele>1280.2</ele>
        <time>2021-12-05T13:34:33Z</time>
      </trkpt>
      <trkpt lat="48.08019" lon="7.04541">
        <ele>1278.8</ele>
        <time>2021-12-05T13:34:49Z</time>
      </trkpt>
      <trkpt lat="48.08019" lon="7.04541">
        <ele>1278.7</ele>
        <time>2021-12-05T13:34:55Z</time>
      </trkpt>
      <trkpt lat="48.08015" lon="7.04528">
        <ele>1276.8</ele>
        <time>2021-12-05T13:35:05Z</time>
      </trkpt>
      <trkpt lat="48.08013" lon="7.04513">
        <ele>1275.1</ele>
        <time>2021-12-05T13:35:15Z</time>
      </trkpt>
      <trkpt lat="48.08013" lon="7.04499">
        <ele>1274</ele>
        <time>2021-12-05T13:35:24Z</time>
      </trkpt>
      <trkpt lat="48.08013" lon="7.04485">
        <ele>1273.3</ele>
        <time>2021-12-05T13:35:34Z</time>
      </trkpt>
      <trkpt lat="48.08013" lon="7.0448">
        <ele>1273.1</ele>
        <time>2021-12-05T13:35:41Z</time>
      </trkpt>
      <trkpt lat="48.08013" lon="7.0448">
        <ele>1273.1</ele>
        <time>2021-12-05T13:35:43Z</time>
      </trkpt>
      <trkpt lat="48.08015" lon="7.04466">
        <ele>1272.5</ele>
        <time>2021-12-05T13:35:55Z</time>
      </trkpt>
      <trkpt lat="48.08018" lon="7.04453">
        <ele>1272</ele>
        <time>2021-12-05T13:36:04Z</time>
      </trkpt>
      <trkpt lat="48.08018" lon="7.04449">
        <ele>1271.9</ele>
        <time>2021-12-05T13:36:09Z</time>
      </trkpt>
      <trkpt lat="48.08018" lon="7.04448">
        <ele>1271.8</ele>
        <time>2021-12-05T13:36:11Z</time>
      </trkpt>
      <trkpt lat="48.08018" lon="7.04435">
        <ele>1271.3</ele>
        <time>2021-12-05T13:36:19Z</time>
      </trkpt>
      <trkpt lat="48.08019" lon="7.0442">
        <ele>1270.6</ele>
        <time>2021-12-05T13:36:28Z</time>
      </trkpt>
      <trkpt lat="48.08019" lon="7.04405">
        <ele>1269.7</ele>
        <time>2021-12-05T13:36:37Z</time>
      </trkpt>
      <trkpt lat="48.08018" lon="7.04391">
        <ele>1269</ele>
        <time>2021-12-05T13:36:47Z</time>
      </trkpt>
      <trkpt lat="48.08016" lon="7.04378">
        <ele>1268.3</ele>
        <time>2021-12-05T13:36:57Z</time>
      </trkpt>
      <trkpt lat="48.08014" lon="7.04364">
        <ele>1267.7</ele>
        <time>2021-12-05T13:37:08Z</time>
      </trkpt>
      <trkpt lat="48.08012" lon="7.04351">
        <ele>1266.9</ele>
        <time>2021-12-05T13:37:17Z</time>
      </trkpt>
      <trkpt lat="48.08011" lon="7.04337">
        <ele>1266.2</ele>
        <time>2021-12-05T13:37:27Z</time>
      </trkpt>
      <trkpt lat="48.08008" lon="7.04323">
        <ele>1265.5</ele>
        <time>2021-12-05T13:37:38Z</time>
      </trkpt>
      <trkpt lat="48.08006" lon="7.0431">
        <ele>1264.8</ele>
        <time>2021-12-05T13:37:48Z</time>
      </trkpt>
      <trkpt lat="48.08004" lon="7.04295">
        <ele>1264.2</ele>
        <time>2021-12-05T13:37:58Z</time>
      </trkpt>
      <trkpt lat="48.07999" lon="7.04283">
        <ele>1263.6</ele>
        <time>2021-12-05T13:38:09Z</time>
      </trkpt>
      <trkpt lat="48.07998" lon="7.0427">
        <ele>1262.9</ele>
        <time>2021-12-05T13:38:20Z</time>
      </trkpt>
      <trkpt lat="48.07997" lon="7.04256">
        <ele>1262.2</ele>
        <time>2021-12-05T13:38:32Z</time>
      </trkpt>
      <trkpt lat="48.07997" lon="7.04254">
        <ele>1262.1</ele>
        <time>2021-12-05T13:38:36Z</time>
      </trkpt>
      <trkpt lat="48.07997" lon="7.04254">
        <ele>1262.1</ele>
        <time>2021-12-05T13:38:38Z</time>
      </trkpt>
      <trkpt lat="48.07997" lon="7.04254">
        <ele>1262.1</ele>
        <time>2021-12-05T13:38:40Z</time>
      </trkpt>
      <trkpt lat="48.07997" lon="7.04254">
        <ele>1262</ele>
        <time>2021-12-05T13:38:51Z</time>
      </trkpt>
      <trkpt lat="48.07997" lon="7.04254">
        <ele>1262</ele>
        <time>2021-12-05T13:38:52Z</time>
      </trkpt>
      <trkpt lat="48.07997" lon="7.04254">
        <ele>1262</ele>
        <time>2021-12-05T13:38:53Z</time>
      </trkpt>
      <trkpt lat="48.07997" lon="7.04254">
        <ele>1262</ele>
        <time>2021-12-05T13:38:55Z</time>
      </trkpt>
      <trkpt lat="48.07997" lon="7.04253">
        <ele>1262</ele>
        <time>2021-12-05T13:39:01Z</time>
      </trkpt>
      <trkpt lat="48.07994" lon="7.04239">
        <ele>1261.2</ele>
        <time>2021-12-05T13:39:11Z</time>
      </trkpt>
      <trkpt lat="48.07991" lon="7.04226">
        <ele>1260.7</ele>
        <time>2021-12-05T13:39:20Z</time>
      </trkpt>
      <trkpt lat="48.07992" lon="7.04213">
        <ele>1260.1</ele>
        <time>2021-12-05T13:39:32Z</time>
      </trkpt>
      <trkpt lat="48.07987" lon="7.04202">
        <ele>1259.6</ele>
        <time>2021-12-05T13:39:48Z</time>
      </trkpt>
      <trkpt lat="48.07986" lon="7.04188">
        <ele>1259</ele>
        <time>2021-12-05T13:39:59Z</time>
      </trkpt>
      <trkpt lat="48.07986" lon="7.04174">
        <ele>1258.2</ele>
        <time>2021-12-05T13:40:09Z</time>
      </trkpt>
      <trkpt lat="48.07986" lon="7.0416">
        <ele>1257.5</ele>
        <time>2021-12-05T13:40:23Z</time>
      </trkpt>
      <trkpt lat="48.07987" lon="7.04146">
        <ele>1257.1</ele>
        <time>2021-12-05T13:40:32Z</time>
      </trkpt>
      <trkpt lat="48.0799" lon="7.04131">
        <ele>1256.8</ele>
        <time>2021-12-05T13:40:44Z</time>
      </trkpt>
      <trkpt lat="48.07991" lon="7.04117">
        <ele>1256.9</ele>
        <time>2021-12-05T13:40:58Z</time>
      </trkpt>
      <trkpt lat="48.07993" lon="7.04103">
        <ele>1257</ele>
        <time>2021-12-05T13:41:07Z</time>
      </trkpt>
      <trkpt lat="48.07986" lon="7.04095">
        <ele>1257.1</ele>
        <time>2021-12-05T13:41:21Z</time>
      </trkpt>
      <trkpt lat="48.07988" lon="7.04089">
        <ele>1257.2</ele>
        <time>2021-12-05T13:41:29Z</time>
      </trkpt>
      <trkpt lat="48.07988" lon="7.04088">
        <ele>1257.3</ele>
        <time>2021-12-05T13:41:32Z</time>
      </trkpt>
      <trkpt lat="48.07985" lon="7.04075">
        <ele>1257.4</ele>
        <time>2021-12-05T13:41:46Z</time>
      </trkpt>
      <trkpt lat="48.0798" lon="7.04063">
        <ele>1257.5</ele>
        <time>2021-12-05T13:41:58Z</time>
      </trkpt>
      <trkpt lat="48.07978" lon="7.0405">
        <ele>1257.5</ele>
        <time>2021-12-05T13:42:10Z</time>
      </trkpt>
      <trkpt lat="48.07978" lon="7.04036">
        <ele>1257.3</ele>
        <time>2021-12-05T13:42:23Z</time>
      </trkpt>
      <trkpt lat="48.07972" lon="7.04025">
        <ele>1257.1</ele>
        <time>2021-12-05T13:42:36Z</time>
      </trkpt>
      <trkpt lat="48.07974" lon="7.04011">
        <ele>1256.9</ele>
        <time>2021-12-05T13:42:44Z</time>
      </trkpt>
      <trkpt lat="48.0797" lon="7.03998">
        <ele>1256.5</ele>
        <time>2021-12-05T13:42:57Z</time>
      </trkpt>
      <trkpt lat="48.07966" lon="7.03985">
        <ele>1256</ele>
        <time>2021-12-05T13:43:07Z</time>
      </trkpt>
      <trkpt lat="48.0796" lon="7.03973">
        <ele>1255.5</ele>
        <time>2021-12-05T13:43:17Z</time>
      </trkpt>
      <trkpt lat="48.0796" lon="7.03958">
        <ele>1255.2</ele>
        <time>2021-12-05T13:43:30Z</time>
      </trkpt>
      <trkpt lat="48.07957" lon="7.03944">
        <ele>1255</ele>
        <time>2021-12-05T13:43:44Z</time>
      </trkpt>
      <trkpt lat="48.07951" lon="7.03933">
        <ele>1255</ele>
        <time>2021-12-05T13:43:58Z</time>
      </trkpt>
      <trkpt lat="48.07943" lon="7.03926">
        <ele>1255.1</ele>
        <time>2021-12-05T13:44:10Z</time>
      </trkpt>
      <trkpt lat="48.07933" lon="7.03923">
        <ele>1255.3</ele>
        <time>2021-12-05T13:44:24Z</time>
      </trkpt>
      <trkpt lat="48.07929" lon="7.0392">
        <ele>1255.5</ele>
        <time>2021-12-05T13:44:34Z</time>
      </trkpt>
      <trkpt lat="48.07929" lon="7.0392">
        <ele>1255.5</ele>
        <time>2021-12-05T13:44:36Z</time>
      </trkpt>
      <trkpt lat="48.07922" lon="7.03911">
        <ele>1255.9</ele>
        <time>2021-12-05T13:44:51Z</time>
      </trkpt>
      <trkpt lat="48.0792" lon="7.03897">
        <ele>1256.5</ele>
        <time>2021-12-05T13:45:09Z</time>
      </trkpt>
      <trkpt lat="48.07913" lon="7.03888">
        <ele>1257</ele>
        <time>2021-12-05T13:45:23Z</time>
      </trkpt>
      <trkpt lat="48.07907" lon="7.03877">
        <ele>1257.5</ele>
        <time>2021-12-05T13:45:37Z</time>
      </trkpt>
      <trkpt lat="48.07905" lon="7.03876">
        <ele>1257.7</ele>
        <time>2021-12-05T13:45:42Z</time>
      </trkpt>
      <trkpt lat="48.07905" lon="7.03876">
        <ele>1257.7</ele>
        <time>2021-12-05T13:45:43Z</time>
      </trkpt>
      <trkpt lat="48.07896" lon="7.03874">
        <ele>1258.1</ele>
        <time>2021-12-05T13:45:58Z</time>
      </trkpt>
      <trkpt lat="48.07888" lon="7.03864">
        <ele>1258.5</ele>
        <time>2021-12-05T13:46:10Z</time>
      </trkpt>
      <trkpt lat="48.07884" lon="7.03861">
        <ele>1258.7</ele>
        <time>2021-12-05T13:46:21Z</time>
      </trkpt>
      <trkpt lat="48.07883" lon="7.0386">
        <ele>1258.7</ele>
        <time>2021-12-05T13:46:23Z</time>
      </trkpt>
      <trkpt lat="48.07874" lon="7.03855">
        <ele>1258.9</ele>
        <time>2021-12-05T13:46:34Z</time>
      </trkpt>
      <trkpt lat="48.07866" lon="7.03848">
        <ele>1259</ele>
        <time>2021-12-05T13:46:45Z</time>
      </trkpt>
      <trkpt lat="48.07859" lon="7.0384">
        <ele>1258.9</ele>
        <time>2021-12-05T13:46:59Z</time>
      </trkpt>
      <trkpt lat="48.07858" lon="7.0384">
        <ele>1258.9</ele>
        <time>2021-12-05T13:47:01Z</time>
      </trkpt>
      <trkpt lat="48.07858" lon="7.0384">
        <ele>1258.9</ele>
        <time>2021-12-05T13:47:05Z</time>
      </trkpt>
      <trkpt lat="48.07858" lon="7.0384">
        <ele>1258.9</ele>
        <time>2021-12-05T13:47:06Z</time>
      </trkpt>
      <trkpt lat="48.07859" lon="7.0384">
        <ele>1258.9</ele>
        <time>2021-12-05T13:47:11Z</time>
      </trkpt>
      <trkpt lat="48.07858" lon="7.0384">
        <ele>1258.9</ele>
        <time>2021-12-05T13:47:13Z</time>
      </trkpt>
      <trkpt lat="48.07858" lon="7.0384">
        <ele>1258.9</ele>
        <time>2021-12-05T13:47:23Z</time>
      </trkpt>
      <trkpt lat="48.07855" lon="7.03853">
        <ele>1258.9</ele>
        <time>2021-12-05T13:47:38Z</time>
      </trkpt>
      <trkpt lat="48.07854" lon="7.03855">
        <ele>1258.9</ele>
        <time>2021-12-05T13:47:42Z</time>
      </trkpt>
      <trkpt lat="48.07854" lon="7.03855">
        <ele>1258.9</ele>
        <time>2021-12-05T13:47:49Z</time>
      </trkpt>
      <trkpt lat="48.07854" lon="7.03855">
        <ele>1258.9</ele>
        <time>2021-12-05T13:47:50Z</time>
      </trkpt>
      <trkpt lat="48.07854" lon="7.03855">
        <ele>1258.9</ele>
        <time>2021-12-05T13:47:55Z</time>
      </trkpt>
      <trkpt lat="48.07854" lon="7.03855">
        <ele>1258.9</ele>
        <time>2021-12-05T13:47:56Z</time>
      </trkpt>
      <trkpt lat="48.07854" lon="7.03855">
        <ele>1258.9</ele>
        <time>2021-12-05T13:47:57Z</time>
      </trkpt>
      <trkpt lat="48.07853" lon="7.03851">
        <ele>1258.8</ele>
        <time>2021-12-05T13:48:03Z</time>
      </trkpt>
      <trkpt lat="48.07853" lon="7.03851">
        <ele>1258.8</ele>
        <time>2021-12-05T13:48:04Z</time>
      </trkpt>
      <trkpt lat="48.07853" lon="7.03851">
        <ele>1258.8</ele>
        <time>2021-12-05T13:48:05Z</time>
      </trkpt>
      <trkpt lat="48.07853" lon="7.03851">
        <ele>1258.8</ele>
        <time>2021-12-05T13:48:10Z</time>
      </trkpt>
      <trkpt lat="48.07853" lon="7.03851">
        <ele>1258.8</ele>
        <time>2021-12-05T13:48:13Z</time>
      </trkpt>
      <trkpt lat="48.07852" lon="7.03851">
        <ele>1258.8</ele>
        <time>2021-12-05T13:48:16Z</time>
      </trkpt>
      <trkpt lat="48.07851" lon="7.03847">
        <ele>1258.8</ele>
        <time>2021-12-05T13:48:25Z</time>
      </trkpt>
      <trkpt lat="48.07851" lon="7.03847">
        <ele>1258.8</ele>
        <time>2021-12-05T13:48:43Z</time>
      </trkpt>
      <trkpt lat="48.07849" lon="7.03841">
        <ele>1258.7</ele>
        <time>2021-12-05T13:48:52Z</time>
      </trkpt>
      <trkpt lat="48.0785" lon="7.03841">
        <ele>1258.7</ele>
        <time>2021-12-05T13:48:53Z</time>
      </trkpt>
      <trkpt lat="48.07849" lon="7.03841">
        <ele>1258.7</ele>
        <time>2021-12-05T13:48:55Z</time>
      </trkpt>
      <trkpt lat="48.0785" lon="7.03841">
        <ele>1258.7</ele>
        <time>2021-12-05T13:48:57Z</time>
      </trkpt>
      <trkpt lat="48.0785" lon="7.0384">
        <ele>1258.7</ele>
        <time>2021-12-05T13:49:00Z</time>
      </trkpt>
      <trkpt lat="48.0785" lon="7.0384">
        <ele>1258.6</ele>
        <time>2021-12-05T13:49:01Z</time>
      </trkpt>
      <trkpt lat="48.07849" lon="7.03839">
        <ele>1258.6</ele>
        <time>2021-12-05T13:49:05Z</time>
      </trkpt>
      <trkpt lat="48.0785" lon="7.03839">
        <ele>1258.6</ele>
        <time>2021-12-05T13:49:08Z</time>
      </trkpt>
      <trkpt lat="48.0785" lon="7.03839">
        <ele>1258.6</ele>
        <time>2021-12-05T13:49:10Z</time>
      </trkpt>
      <trkpt lat="48.0785" lon="7.03839">
        <ele>1258.6</ele>
        <time>2021-12-05T13:49:12Z</time>
      </trkpt>
      <trkpt lat="48.0785" lon="7.03839">
        <ele>1258.6</ele>
        <time>2021-12-05T13:49:14Z</time>
      </trkpt>
      <trkpt lat="48.0785" lon="7.03839">
        <ele>1258.6</ele>
        <time>2021-12-05T13:49:21Z</time>
      </trkpt>
      <trkpt lat="48.0785" lon="7.03839">
        <ele>1258.6</ele>
        <time>2021-12-05T13:49:22Z</time>
      </trkpt>
      <trkpt lat="48.07849" lon="7.03839">
        <ele>1258.6</ele>
        <time>2021-12-05T13:49:50Z</time>
      </trkpt>
      <trkpt lat="48.07849" lon="7.03838">
        <ele>1258.6</ele>
        <time>2021-12-05T13:49:53Z</time>
      </trkpt>
      <trkpt lat="48.07849" lon="7.03838">
        <ele>1258.6</ele>
        <time>2021-12-05T13:50:03Z</time>
      </trkpt>
      <trkpt lat="48.07849" lon="7.03838">
        <ele>1258.6</ele>
        <time>2021-12-05T13:50:06Z</time>
      </trkpt>
      <trkpt lat="48.07848" lon="7.03838">
        <ele>1258.6</ele>
        <time>2021-12-05T13:50:16Z</time>
      </trkpt>
      <trkpt lat="48.07844" lon="7.03825">
        <ele>1258.3</ele>
        <time>2021-12-05T13:50:28Z</time>
      </trkpt>
      <trkpt lat="48.07841" lon="7.03816">
        <ele>1258</ele>
        <time>2021-12-05T13:50:42Z</time>
      </trkpt>
      <trkpt lat="48.07841" lon="7.03815">
        <ele>1258</ele>
        <time>2021-12-05T13:50:44Z</time>
      </trkpt>
      <trkpt lat="48.07838" lon="7.0381">
        <ele>1257.8</ele>
        <time>2021-12-05T13:50:53Z</time>
      </trkpt>
      <trkpt lat="48.07838" lon="7.0381">
        <ele>1257.8</ele>
        <time>2021-12-05T13:50:54Z</time>
      </trkpt>
      <trkpt lat="48.07833" lon="7.03797">
        <ele>1257.4</ele>
        <time>2021-12-05T13:51:07Z</time>
      </trkpt>
      <trkpt lat="48.0783" lon="7.03783">
        <ele>1257</ele>
        <time>2021-12-05T13:51:16Z</time>
      </trkpt>
      <trkpt lat="48.07832" lon="7.0377">
        <ele>1256.8</ele>
        <time>2021-12-05T13:51:25Z</time>
      </trkpt>
      <trkpt lat="48.07832" lon="7.03755">
        <ele>1256.7</ele>
        <time>2021-12-05T13:51:37Z</time>
      </trkpt>
      <trkpt lat="48.07833" lon="7.03741">
        <ele>1256.7</ele>
        <time>2021-12-05T13:51:47Z</time>
      </trkpt>
      <trkpt lat="48.0783" lon="7.03727">
        <ele>1256.9</ele>
        <time>2021-12-05T13:51:59Z</time>
      </trkpt>
      <trkpt lat="48.07827" lon="7.03721">
        <ele>1257.1</ele>
        <time>2021-12-05T13:52:07Z</time>
      </trkpt>
      <trkpt lat="48.07827" lon="7.0372">
        <ele>1257.1</ele>
        <time>2021-12-05T13:52:09Z</time>
      </trkpt>
      <trkpt lat="48.07821" lon="7.03709">
        <ele>1257.6</ele>
        <time>2021-12-05T13:52:20Z</time>
      </trkpt>
      <trkpt lat="48.07812" lon="7.03707">
        <ele>1258.2</ele>
        <time>2021-12-05T13:52:32Z</time>
      </trkpt>
      <trkpt lat="48.07803" lon="7.03703">
        <ele>1258.9</ele>
        <time>2021-12-05T13:52:43Z</time>
      </trkpt>
      <trkpt lat="48.07795" lon="7.03695">
        <ele>1259.8</ele>
        <time>2021-12-05T13:52:55Z</time>
      </trkpt>
      <trkpt lat="48.07787" lon="7.03687">
        <ele>1260.8</ele>
        <time>2021-12-05T13:53:07Z</time>
      </trkpt>
      <trkpt lat="48.07778" lon="7.03683">
        <ele>1261.8</ele>
        <time>2021-12-05T13:53:18Z</time>
      </trkpt>
      <trkpt lat="48.07769" lon="7.0368">
        <ele>1262.8</ele>
        <time>2021-12-05T13:53:33Z</time>
      </trkpt>
      <trkpt lat="48.0776" lon="7.03677">
        <ele>1263.8</ele>
        <time>2021-12-05T13:53:47Z</time>
      </trkpt>
      <trkpt lat="48.0775" lon="7.03674">
        <ele>1264.7</ele>
        <time>2021-12-05T13:54:01Z</time>
      </trkpt>
      <trkpt lat="48.07741" lon="7.0367">
        <ele>1265.6</ele>
        <time>2021-12-05T13:54:12Z</time>
      </trkpt>
      <trkpt lat="48.07732" lon="7.03666">
        <ele>1266.3</ele>
        <time>2021-12-05T13:54:25Z</time>
      </trkpt>
      <trkpt lat="48.07723" lon="7.03663">
        <ele>1267</ele>
        <time>2021-12-05T13:54:36Z</time>
      </trkpt>
      <trkpt lat="48.07714" lon="7.03659">
        <ele>1267.4</ele>
        <time>2021-12-05T13:54:45Z</time>
      </trkpt>
      <trkpt lat="48.07705" lon="7.03653">
        <ele>1267.7</ele>
        <time>2021-12-05T13:54:55Z</time>
      </trkpt>
      <trkpt lat="48.07699" lon="7.03644">
        <ele>1267.8</ele>
        <time>2021-12-05T13:55:08Z</time>
      </trkpt>
      <trkpt lat="48.07699" lon="7.03644">
        <ele>1267.8</ele>
        <time>2021-12-05T13:55:11Z</time>
      </trkpt>
      <trkpt lat="48.07699" lon="7.03644">
        <ele>1267.8</ele>
        <time>2021-12-05T13:55:12Z</time>
      </trkpt>
      <trkpt lat="48.07698" lon="7.03644">
        <ele>1267.9</ele>
        <time>2021-12-05T13:55:16Z</time>
      </trkpt>
      <trkpt lat="48.07694" lon="7.03639">
        <ele>1267.8</ele>
        <time>2021-12-05T13:55:29Z</time>
      </trkpt>
      <trkpt lat="48.07694" lon="7.03639">
        <ele>1267.8</ele>
        <time>2021-12-05T13:55:31Z</time>
      </trkpt>
      <trkpt lat="48.07694" lon="7.03639">
        <ele>1267.8</ele>
        <time>2021-12-05T13:55:32Z</time>
      </trkpt>
      <trkpt lat="48.07694" lon="7.03638">
        <ele>1267.8</ele>
        <time>2021-12-05T13:56:04Z</time>
      </trkpt>
      <trkpt lat="48.07694" lon="7.03638">
        <ele>1267.8</ele>
        <time>2021-12-05T13:56:06Z</time>
      </trkpt>
      <trkpt lat="48.07693" lon="7.03638">
        <ele>1267.8</ele>
        <time>2021-12-05T13:56:20Z</time>
      </trkpt>
      <trkpt lat="48.07693" lon="7.03638">
        <ele>1267.8</ele>
        <time>2021-12-05T13:56:21Z</time>
      </trkpt>
      <trkpt lat="48.07693" lon="7.03638">
        <ele>1267.8</ele>
        <time>2021-12-05T13:56:57Z</time>
      </trkpt>
      <trkpt lat="48.07693" lon="7.03638">
        <ele>1267.8</ele>
        <time>2021-12-05T13:56:58Z</time>
      </trkpt>
      <trkpt lat="48.07693" lon="7.03638">
        <ele>1267.8</ele>
        <time>2021-12-05T13:57:39Z</time>
      </trkpt>
      <trkpt lat="48.07693" lon="7.03638">
        <ele>1267.8</ele>
        <time>2021-12-05T13:57:40Z</time>
      </trkpt>
      <trkpt lat="48.07693" lon="7.03638">
        <ele>1267.8</ele>
        <time>2021-12-05T13:58:08Z</time>
      </trkpt>
      <trkpt lat="48.07693" lon="7.03638">
        <ele>1267.8</ele>
        <time>2021-12-05T13:58:09Z</time>
      </trkpt>
      <trkpt lat="48.07693" lon="7.03638">
        <ele>1267.8</ele>
        <time>2021-12-05T13:58:15Z</time>
      </trkpt>
      <trkpt lat="48.07693" lon="7.03638">
        <ele>1267.8</ele>
        <time>2021-12-05T13:58:16Z</time>
      </trkpt>
      <trkpt lat="48.07693" lon="7.03638">
        <ele>1267.8</ele>
        <time>2021-12-05T13:58:19Z</time>
      </trkpt>
      <trkpt lat="48.07693" lon="7.03638">
        <ele>1267.8</ele>
        <time>2021-12-05T13:58:21Z</time>
      </trkpt>
      <trkpt lat="48.07693" lon="7.03638">
        <ele>1267.8</ele>
        <time>2021-12-05T13:59:10Z</time>
      </trkpt>
      <trkpt lat="48.07691" lon="7.03636">
        <ele>1267.8</ele>
        <time>2021-12-05T13:59:16Z</time>
      </trkpt>
      <trkpt lat="48.07691" lon="7.03636">
        <ele>1267.8</ele>
        <time>2021-12-05T13:59:26Z</time>
      </trkpt>
      <trkpt lat="48.07691" lon="7.03635">
        <ele>1266.3</ele>
        <time>2021-12-05T13:59:31Z</time>
      </trkpt>
      <trkpt lat="48.07691" lon="7.03635">
        <ele>1266.3</ele>
        <time>2021-12-05T13:59:39Z</time>
      </trkpt>
      <trkpt lat="48.07686" lon="7.03624">
        <ele>1265.6</ele>
        <time>2021-12-05T13:59:53Z</time>
      </trkpt>
      <trkpt lat="48.07677" lon="7.03619">
        <ele>1264.8</ele>
        <time>2021-12-05T14:00:03Z</time>
      </trkpt>
      <trkpt lat="48.07674" lon="7.03616">
        <ele>1264.5</ele>
        <time>2021-12-05T14:00:10Z</time>
      </trkpt>
      <trkpt lat="48.07673" lon="7.03616">
        <ele>1264.4</ele>
        <time>2021-12-05T14:00:13Z</time>
      </trkpt>
      <trkpt lat="48.07665" lon="7.03609">
        <ele>1263.6</ele>
        <time>2021-12-05T14:00:24Z</time>
      </trkpt>
      <trkpt lat="48.07658" lon="7.036">
        <ele>1262.8</ele>
        <time>2021-12-05T14:00:36Z</time>
      </trkpt>
      <trkpt lat="48.07652" lon="7.03589">
        <ele>1262.1</ele>
        <time>2021-12-05T14:00:47Z</time>
      </trkpt>
      <trkpt lat="48.07644" lon="7.0358">
        <ele>1261.5</ele>
        <time>2021-12-05T14:00:58Z</time>
      </trkpt>
      <trkpt lat="48.07638" lon="7.0357">
        <ele>1261.1</ele>
        <time>2021-12-05T14:01:09Z</time>
      </trkpt>
      <trkpt lat="48.07631" lon="7.03561">
        <ele>1260.7</ele>
        <time>2021-12-05T14:01:19Z</time>
      </trkpt>
      <trkpt lat="48.07624" lon="7.03551">
        <ele>1260.5</ele>
        <time>2021-12-05T14:01:29Z</time>
      </trkpt>
      <trkpt lat="48.07617" lon="7.03542">
        <ele>1260.3</ele>
        <time>2021-12-05T14:01:38Z</time>
      </trkpt>
      <trkpt lat="48.0761" lon="7.03534">
        <ele>1260</ele>
        <time>2021-12-05T14:01:47Z</time>
      </trkpt>
      <trkpt lat="48.07604" lon="7.03524">
        <ele>1259.8</ele>
        <time>2021-12-05T14:01:58Z</time>
      </trkpt>
      <trkpt lat="48.07596" lon="7.03515">
        <ele>1259.4</ele>
        <time>2021-12-05T14:02:09Z</time>
      </trkpt>
      <trkpt lat="48.07587" lon="7.03511">
        <ele>1258.9</ele>
        <time>2021-12-05T14:02:18Z</time>
      </trkpt>
      <trkpt lat="48.0758" lon="7.035">
        <ele>1258.4</ele>
        <time>2021-12-05T14:02:29Z</time>
      </trkpt>
      <trkpt lat="48.07576" lon="7.03488">
        <ele>1257.7</ele>
        <time>2021-12-05T14:02:39Z</time>
      </trkpt>
      <trkpt lat="48.0757" lon="7.03476">
        <ele>1256.7</ele>
        <time>2021-12-05T14:02:49Z</time>
      </trkpt>
      <trkpt lat="48.07566" lon="7.03464">
        <ele>1255.8</ele>
        <time>2021-12-05T14:02:59Z</time>
      </trkpt>
      <trkpt lat="48.07562" lon="7.03452">
        <ele>1254.7</ele>
        <time>2021-12-05T14:03:11Z</time>
      </trkpt>
      <trkpt lat="48.07555" lon="7.03443">
        <ele>1253.5</ele>
        <time>2021-12-05T14:03:20Z</time>
      </trkpt>
      <trkpt lat="48.07549" lon="7.03433">
        <ele>1252.3</ele>
        <time>2021-12-05T14:03:29Z</time>
      </trkpt>
      <trkpt lat="48.07543" lon="7.03422">
        <ele>1251.2</ele>
        <time>2021-12-05T14:03:39Z</time>
      </trkpt>
      <trkpt lat="48.07538" lon="7.0341">
        <ele>1250</ele>
        <time>2021-12-05T14:03:49Z</time>
      </trkpt>
      <trkpt lat="48.07532" lon="7.03399">
        <ele>1249</ele>
        <time>2021-12-05T14:03:58Z</time>
      </trkpt>
      <trkpt lat="48.07525" lon="7.03389">
        <ele>1247.8</ele>
        <time>2021-12-05T14:04:09Z</time>
      </trkpt>
      <trkpt lat="48.07518" lon="7.03381">
        <ele>1246.7</ele>
        <time>2021-12-05T14:04:18Z</time>
      </trkpt>
      <trkpt lat="48.07514" lon="7.03367">
        <ele>1245.4</ele>
        <time>2021-12-05T14:04:29Z</time>
      </trkpt>
      <trkpt lat="48.0751" lon="7.03355">
        <ele>1244.3</ele>
        <time>2021-12-05T14:04:37Z</time>
      </trkpt>
      <trkpt lat="48.07507" lon="7.03342">
        <ele>1243.1</ele>
        <time>2021-12-05T14:04:47Z</time>
      </trkpt>
      <trkpt lat="48.07504" lon="7.03329">
        <ele>1242</ele>
        <time>2021-12-05T14:04:57Z</time>
      </trkpt>
      <trkpt lat="48.07503" lon="7.03314">
        <ele>1240.7</ele>
        <time>2021-12-05T14:05:07Z</time>
      </trkpt>
      <trkpt lat="48.07501" lon="7.03301">
        <ele>1239.4</ele>
        <time>2021-12-05T14:05:16Z</time>
      </trkpt>
      <trkpt lat="48.075" lon="7.03287">
        <ele>1237.6</ele>
        <time>2021-12-05T14:05:34Z</time>
      </trkpt>
      <trkpt lat="48.07501" lon="7.03273">
        <ele>1236</ele>
        <time>2021-12-05T14:05:41Z</time>
      </trkpt>
      <trkpt lat="48.07503" lon="7.03259">
        <ele>1234.7</ele>
        <time>2021-12-05T14:05:52Z</time>
      </trkpt>
      <trkpt lat="48.07502" lon="7.03244">
        <ele>1232.7</ele>
        <time>2021-12-05T14:06:04Z</time>
      </trkpt>
      <trkpt lat="48.075" lon="7.03231">
        <ele>1230.8</ele>
        <time>2021-12-05T14:06:18Z</time>
      </trkpt>
      <trkpt lat="48.07496" lon="7.03219">
        <ele>1228.9</ele>
        <time>2021-12-05T14:06:28Z</time>
      </trkpt>
      <trkpt lat="48.07501" lon="7.03217">
        <ele>1228.9</ele>
        <time>2021-12-05T14:06:37Z</time>
      </trkpt>
      <trkpt lat="48.075" lon="7.03216">
        <ele>1228.9</ele>
        <time>2021-12-05T14:06:49Z</time>
      </trkpt>
      <trkpt lat="48.075" lon="7.03214">
        <ele>1228.4</ele>
        <time>2021-12-05T14:06:53Z</time>
      </trkpt>
      <trkpt lat="48.075" lon="7.03214">
        <ele>1228.4</ele>
        <time>2021-12-05T14:06:56Z</time>
      </trkpt>
      <trkpt lat="48.07494" lon="7.03202">
        <ele>1226.8</ele>
        <time>2021-12-05T14:07:08Z</time>
      </trkpt>
      <trkpt lat="48.07488" lon="7.03192">
        <ele>1225.8</ele>
        <time>2021-12-05T14:07:20Z</time>
      </trkpt>
      <trkpt lat="48.07485" lon="7.03179">
        <ele>1224.7</ele>
        <time>2021-12-05T14:07:30Z</time>
      </trkpt>
      <trkpt lat="48.07488" lon="7.03166">
        <ele>1223.8</ele>
        <time>2021-12-05T14:07:42Z</time>
      </trkpt>
      <trkpt lat="48.07485" lon="7.03153">
        <ele>1222.9</ele>
        <time>2021-12-05T14:07:59Z</time>
      </trkpt>
      <trkpt lat="48.0748" lon="7.03141">
        <ele>1222.4</ele>
        <time>2021-12-05T14:08:06Z</time>
      </trkpt>
      <trkpt lat="48.07473" lon="7.0313">
        <ele>1222.3</ele>
        <time>2021-12-05T14:08:14Z</time>
      </trkpt>
      <trkpt lat="48.07471" lon="7.03117">
        <ele>1222.2</ele>
        <time>2021-12-05T14:08:28Z</time>
      </trkpt>
      <trkpt lat="48.07471" lon="7.03117">
        <ele>1222.2</ele>
        <time>2021-12-05T14:08:29Z</time>
      </trkpt>
      <trkpt lat="48.0747" lon="7.03117">
        <ele>1222.2</ele>
        <time>2021-12-05T14:08:30Z</time>
      </trkpt>
      <trkpt lat="48.0747" lon="7.03117">
        <ele>1222.2</ele>
        <time>2021-12-05T14:08:31Z</time>
      </trkpt>
      <trkpt lat="48.0747" lon="7.03116">
        <ele>1222.1</ele>
        <time>2021-12-05T14:08:41Z</time>
      </trkpt>
      <trkpt lat="48.07466" lon="7.03103">
        <ele>1222.1</ele>
        <time>2021-12-05T14:08:53Z</time>
      </trkpt>
      <trkpt lat="48.07459" lon="7.03093">
        <ele>1222.1</ele>
        <time>2021-12-05T14:09:03Z</time>
      </trkpt>
      <trkpt lat="48.07453" lon="7.03081">
        <ele>1221.9</ele>
        <time>2021-12-05T14:09:13Z</time>
      </trkpt>
      <trkpt lat="48.07449" lon="7.03069">
        <ele>1222</ele>
        <time>2021-12-05T14:09:23Z</time>
      </trkpt>
      <trkpt lat="48.07443" lon="7.03064">
        <ele>1222</ele>
        <time>2021-12-05T14:09:33Z</time>
      </trkpt>
      <trkpt lat="48.07442" lon="7.03064">
        <ele>1222</ele>
        <time>2021-12-05T14:09:35Z</time>
      </trkpt>
      <trkpt lat="48.07442" lon="7.03064">
        <ele>1222</ele>
        <time>2021-12-05T14:09:38Z</time>
      </trkpt>
      <trkpt lat="48.07442" lon="7.03064">
        <ele>1222</ele>
        <time>2021-12-05T14:09:39Z</time>
      </trkpt>
      <trkpt lat="48.07442" lon="7.03064">
        <ele>1222</ele>
        <time>2021-12-05T14:09:40Z</time>
      </trkpt>
      <trkpt lat="48.07441" lon="7.03064">
        <ele>1222</ele>
        <time>2021-12-05T14:09:44Z</time>
      </trkpt>
      <trkpt lat="48.0744" lon="7.03056">
        <ele>1221.7</ele>
        <time>2021-12-05T14:09:59Z</time>
      </trkpt>
      <trkpt lat="48.0744" lon="7.03056">
        <ele>1221.7</ele>
        <time>2021-12-05T14:10:00Z</time>
      </trkpt>
      <trkpt lat="48.07436" lon="7.03042">
        <ele>1221</ele>
        <time>2021-12-05T14:10:11Z</time>
      </trkpt>
      <trkpt lat="48.07429" lon="7.0303">
        <ele>1220.4</ele>
        <time>2021-12-05T14:10:22Z</time>
      </trkpt>
      <trkpt lat="48.07423" lon="7.03019">
        <ele>1220</ele>
        <time>2021-12-05T14:10:30Z</time>
      </trkpt>
      <trkpt lat="48.07418" lon="7.03008">
        <ele>1219.6</ele>
        <time>2021-12-05T14:10:39Z</time>
      </trkpt>
      <trkpt lat="48.07413" lon="7.02996">
        <ele>1219.1</ele>
        <time>2021-12-05T14:10:52Z</time>
      </trkpt>
      <trkpt lat="48.07409" lon="7.02983">
        <ele>1218.8</ele>
        <time>2021-12-05T14:11:06Z</time>
      </trkpt>
      <trkpt lat="48.07402" lon="7.02971">
        <ele>1218.7</ele>
        <time>2021-12-05T14:11:17Z</time>
      </trkpt>
      <trkpt lat="48.07395" lon="7.02963">
        <ele>1218.8</ele>
        <time>2021-12-05T14:11:29Z</time>
      </trkpt>
      <trkpt lat="48.0739" lon="7.02951">
        <ele>1218.4</ele>
        <time>2021-12-05T14:11:41Z</time>
      </trkpt>
      <trkpt lat="48.07386" lon="7.02944">
        <ele>1218.5</ele>
        <time>2021-12-05T14:11:53Z</time>
      </trkpt>
      <trkpt lat="48.07387" lon="7.02943">
        <ele>1218.3</ele>
        <time>2021-12-05T14:12:04Z</time>
      </trkpt>
      <trkpt lat="48.07383" lon="7.02941">
        <ele>1218.8</ele>
        <time>2021-12-05T14:12:11Z</time>
      </trkpt>
      <trkpt lat="48.07383" lon="7.02941">
        <ele>1218.8</ele>
        <time>2021-12-05T14:12:12Z</time>
      </trkpt>
      <trkpt lat="48.07378" lon="7.02929">
        <ele>1218.5</ele>
        <time>2021-12-05T14:12:27Z</time>
      </trkpt>
      <trkpt lat="48.07376" lon="7.02915">
        <ele>1217.8</ele>
        <time>2021-12-05T14:12:40Z</time>
      </trkpt>
      <trkpt lat="48.07372" lon="7.02902">
        <ele>1218</ele>
        <time>2021-12-05T14:12:51Z</time>
      </trkpt>
      <trkpt lat="48.07367" lon="7.0289">
        <ele>1217.9</ele>
        <time>2021-12-05T14:13:03Z</time>
      </trkpt>
      <trkpt lat="48.07362" lon="7.02879">
        <ele>1218.4</ele>
        <time>2021-12-05T14:13:17Z</time>
      </trkpt>
      <trkpt lat="48.07356" lon="7.02868">
        <ele>1219</ele>
        <time>2021-12-05T14:13:31Z</time>
      </trkpt>
      <trkpt lat="48.07351" lon="7.02856">
        <ele>1219.6</ele>
        <time>2021-12-05T14:13:43Z</time>
      </trkpt>
      <trkpt lat="48.07349" lon="7.02843">
        <ele>1220.2</ele>
        <time>2021-12-05T14:13:54Z</time>
      </trkpt>
      <trkpt lat="48.07347" lon="7.0284">
        <ele>1220.3</ele>
        <time>2021-12-05T14:14:01Z</time>
      </trkpt>
      <trkpt lat="48.07346" lon="7.0284">
        <ele>1220.3</ele>
        <time>2021-12-05T14:14:03Z</time>
      </trkpt>
      <trkpt lat="48.07347" lon="7.02839">
        <ele>1220.3</ele>
        <time>2021-12-05T14:14:05Z</time>
      </trkpt>
      <trkpt lat="48.07346" lon="7.02838">
        <ele>1220.3</ele>
        <time>2021-12-05T14:14:07Z</time>
      </trkpt>
      <trkpt lat="48.07346" lon="7.02838">
        <ele>1220.7</ele>
        <time>2021-12-05T14:14:09Z</time>
      </trkpt>
      <trkpt lat="48.07345" lon="7.02838">
        <ele>1220.7</ele>
        <time>2021-12-05T14:14:11Z</time>
      </trkpt>
      <trkpt lat="48.07344" lon="7.02832">
        <ele>1221.1</ele>
        <time>2021-12-05T14:14:19Z</time>
      </trkpt>
      <trkpt lat="48.07344" lon="7.02832">
        <ele>1221.1</ele>
        <time>2021-12-05T14:14:20Z</time>
      </trkpt>
      <trkpt lat="48.07345" lon="7.02817">
        <ele>1221.9</ele>
        <time>2021-12-05T14:14:34Z</time>
      </trkpt>
      <trkpt lat="48.07341" lon="7.02805">
        <ele>1223.1</ele>
        <time>2021-12-05T14:14:48Z</time>
      </trkpt>
      <trkpt lat="48.07339" lon="7.02791">
        <ele>1223.8</ele>
        <time>2021-12-05T14:15:00Z</time>
      </trkpt>
      <trkpt lat="48.07337" lon="7.02777">
        <ele>1223.9</ele>
        <time>2021-12-05T14:15:09Z</time>
      </trkpt>
      <trkpt lat="48.07332" lon="7.02765">
        <ele>1224.5</ele>
        <time>2021-12-05T14:15:20Z</time>
      </trkpt>
      <trkpt lat="48.07329" lon="7.02752">
        <ele>1223.9</ele>
        <time>2021-12-05T14:15:29Z</time>
      </trkpt>
      <trkpt lat="48.07325" lon="7.0274">
        <ele>1224.1</ele>
        <time>2021-12-05T14:15:45Z</time>
      </trkpt>
      <trkpt lat="48.07325" lon="7.02735">
        <ele>1223.9</ele>
        <time>2021-12-05T14:15:50Z</time>
      </trkpt>
      <trkpt lat="48.07325" lon="7.02734">
        <ele>1223.8</ele>
        <time>2021-12-05T14:15:52Z</time>
      </trkpt>
      <trkpt lat="48.07325" lon="7.02734">
        <ele>1223.8</ele>
        <time>2021-12-05T14:15:53Z</time>
      </trkpt>
      <trkpt lat="48.07325" lon="7.02735">
        <ele>1223.9</ele>
        <time>2021-12-05T14:15:55Z</time>
      </trkpt>
      <trkpt lat="48.07323" lon="7.0273">
        <ele>1224.1</ele>
        <time>2021-12-05T14:16:03Z</time>
      </trkpt>
      <trkpt lat="48.07323" lon="7.0273">
        <ele>1224</ele>
        <time>2021-12-05T14:16:18Z</time>
      </trkpt>
      <trkpt lat="48.07323" lon="7.0273">
        <ele>1224</ele>
        <time>2021-12-05T14:16:19Z</time>
      </trkpt>
      <trkpt lat="48.07323" lon="7.02729">
        <ele>1224</ele>
        <time>2021-12-05T14:16:20Z</time>
      </trkpt>
      <trkpt lat="48.07323" lon="7.02729">
        <ele>1224</ele>
        <time>2021-12-05T14:16:24Z</time>
      </trkpt>
      <trkpt lat="48.07323" lon="7.02729">
        <ele>1224</ele>
        <time>2021-12-05T14:16:29Z</time>
      </trkpt>
      <trkpt lat="48.07323" lon="7.02729">
        <ele>1224</ele>
        <time>2021-12-05T14:16:30Z</time>
      </trkpt>
      <trkpt lat="48.07324" lon="7.02729">
        <ele>1223.7</ele>
        <time>2021-12-05T14:16:31Z</time>
      </trkpt>
      <trkpt lat="48.07324" lon="7.02728">
        <ele>1223.7</ele>
        <time>2021-12-05T14:16:33Z</time>
      </trkpt>
      <trkpt lat="48.07324" lon="7.02728">
        <ele>1223.7</ele>
        <time>2021-12-05T14:16:36Z</time>
      </trkpt>
      <trkpt lat="48.07324" lon="7.02728">
        <ele>1223.7</ele>
        <time>2021-12-05T14:16:37Z</time>
      </trkpt>
      <trkpt lat="48.07325" lon="7.02728">
        <ele>1223.7</ele>
        <time>2021-12-05T14:16:40Z</time>
      </trkpt>
      <trkpt lat="48.07315" lon="7.02724">
        <ele>1224.4</ele>
        <time>2021-12-05T14:16:56Z</time>
      </trkpt>
      <trkpt lat="48.07309" lon="7.02723">
        <ele>1225.2</ele>
        <time>2021-12-05T14:17:06Z</time>
      </trkpt>
      <trkpt lat="48.07308" lon="7.02723">
        <ele>1225.2</ele>
        <time>2021-12-05T14:17:10Z</time>
      </trkpt>
      <trkpt lat="48.07299" lon="7.02725">
        <ele>1226.1</ele>
        <time>2021-12-05T14:17:20Z</time>
      </trkpt>
      <trkpt lat="48.07291" lon="7.02719">
        <ele>1226.7</ele>
        <time>2021-12-05T14:17:32Z</time>
      </trkpt>
      <trkpt lat="48.07281" lon="7.02721">
        <ele>1227.7</ele>
        <time>2021-12-05T14:17:41Z</time>
      </trkpt>
      <trkpt lat="48.07272" lon="7.02717">
        <ele>1228.5</ele>
        <time>2021-12-05T14:17:51Z</time>
      </trkpt>
      <trkpt lat="48.07265" lon="7.0272">
        <ele>1229.7</ele>
        <time>2021-12-05T14:18:09Z</time>
      </trkpt>
      <trkpt lat="48.07265" lon="7.0272">
        <ele>1229.7</ele>
        <time>2021-12-05T14:18:20Z</time>
      </trkpt>
      <trkpt lat="48.07262" lon="7.02718">
        <ele>1230</ele>
        <time>2021-12-05T14:18:31Z</time>
      </trkpt>
      <trkpt lat="48.07262" lon="7.02718">
        <ele>1230</ele>
        <time>2021-12-05T14:18:32Z</time>
      </trkpt>
      <trkpt lat="48.07263" lon="7.02718">
        <ele>1229.7</ele>
        <time>2021-12-05T14:18:36Z</time>
      </trkpt>
      <trkpt lat="48.07263" lon="7.02719">
        <ele>1229.7</ele>
        <time>2021-12-05T14:18:38Z</time>
      </trkpt>
      <trkpt lat="48.07265" lon="7.02723">
        <ele>1230</ele>
        <time>2021-12-05T14:18:44Z</time>
      </trkpt>
      <trkpt lat="48.07265" lon="7.02723">
        <ele>1230</ele>
        <time>2021-12-05T14:18:45Z</time>
      </trkpt>
      <trkpt lat="48.07257" lon="7.02719">
        <ele>1230.6</ele>
        <time>2021-12-05T14:18:56Z</time>
      </trkpt>
      <trkpt lat="48.07248" lon="7.02716">
        <ele>1231.1</ele>
        <time>2021-12-05T14:19:09Z</time>
      </trkpt>
      <trkpt lat="48.07239" lon="7.02716">
        <ele>1231.7</ele>
        <time>2021-12-05T14:19:21Z</time>
      </trkpt>
      <trkpt lat="48.07229" lon="7.02717">
        <ele>1232.1</ele>
        <time>2021-12-05T14:19:34Z</time>
      </trkpt>
      <trkpt lat="48.0722" lon="7.02715">
        <ele>1232.7</ele>
        <time>2021-12-05T14:19:43Z</time>
      </trkpt>
      <trkpt lat="48.07211" lon="7.02713">
        <ele>1233.1</ele>
        <time>2021-12-05T14:19:55Z</time>
      </trkpt>
      <trkpt lat="48.07201" lon="7.02711">
        <ele>1233.1</ele>
        <time>2021-12-05T14:20:08Z</time>
      </trkpt>
      <trkpt lat="48.07193" lon="7.02704">
        <ele>1232.7</ele>
        <time>2021-12-05T14:20:21Z</time>
      </trkpt>
      <trkpt lat="48.07187" lon="7.02702">
        <ele>1233.2</ele>
        <time>2021-12-05T14:20:30Z</time>
      </trkpt>
      <trkpt lat="48.07186" lon="7.02702">
        <ele>1233.2</ele>
        <time>2021-12-05T14:20:31Z</time>
      </trkpt>
      <trkpt lat="48.07177" lon="7.02703">
        <ele>1233.8</ele>
        <time>2021-12-05T14:20:43Z</time>
      </trkpt>
      <trkpt lat="48.07177" lon="7.02703">
        <ele>1234</ele>
        <time>2021-12-05T14:20:44Z</time>
      </trkpt>
      <trkpt lat="48.07169" lon="7.0271">
        <ele>1235.2</ele>
        <time>2021-12-05T14:20:57Z</time>
      </trkpt>
      <trkpt lat="48.0716" lon="7.02714">
        <ele>1236</ele>
        <time>2021-12-05T14:21:10Z</time>
      </trkpt>
      <trkpt lat="48.07159" lon="7.02714">
        <ele>1236</ele>
        <time>2021-12-05T14:21:12Z</time>
      </trkpt>
      <trkpt lat="48.07159" lon="7.02714">
        <ele>1236</ele>
        <time>2021-12-05T14:21:13Z</time>
      </trkpt>
      <trkpt lat="48.07159" lon="7.02714">
        <ele>1236</ele>
        <time>2021-12-05T14:21:14Z</time>
      </trkpt>
      <trkpt lat="48.07159" lon="7.02714">
        <ele>1236</ele>
        <time>2021-12-05T14:21:16Z</time>
      </trkpt>
      <trkpt lat="48.07154" lon="7.02703">
        <ele>1234.8</ele>
        <time>2021-12-05T14:21:29Z</time>
      </trkpt>
      <trkpt lat="48.07145" lon="7.02699">
        <ele>1234.6</ele>
        <time>2021-12-05T14:21:46Z</time>
      </trkpt>
      <trkpt lat="48.07136" lon="7.02702">
        <ele>1235.4</ele>
        <time>2021-12-05T14:22:00Z</time>
      </trkpt>
      <trkpt lat="48.07127" lon="7.02699">
        <ele>1235.3</ele>
        <time>2021-12-05T14:22:10Z</time>
      </trkpt>
      <trkpt lat="48.07118" lon="7.02698">
        <ele>1235.5</ele>
        <time>2021-12-05T14:22:19Z</time>
      </trkpt>
      <trkpt lat="48.07107" lon="7.02697">
        <ele>1235.6</ele>
        <time>2021-12-05T14:22:26Z</time>
      </trkpt>
      <trkpt lat="48.07098" lon="7.02698">
        <ele>1235.4</ele>
        <time>2021-12-05T14:22:34Z</time>
      </trkpt>
      <trkpt lat="48.0709" lon="7.0269">
        <ele>1234.2</ele>
        <time>2021-12-05T14:22:50Z</time>
      </trkpt>
      <trkpt lat="48.07081" lon="7.02687">
        <ele>1233.3</ele>
        <time>2021-12-05T14:23:03Z</time>
      </trkpt>
      <trkpt lat="48.07076" lon="7.02682">
        <ele>1232.7</ele>
        <time>2021-12-05T14:23:13Z</time>
      </trkpt>
      <trkpt lat="48.07075" lon="7.02681">
        <ele>1232.7</ele>
        <time>2021-12-05T14:23:14Z</time>
      </trkpt>
      <trkpt lat="48.07066" lon="7.02679">
        <ele>1232.1</ele>
        <time>2021-12-05T14:23:22Z</time>
      </trkpt>
      <trkpt lat="48.07056" lon="7.02679">
        <ele>1231.3</ele>
        <time>2021-12-05T14:23:33Z</time>
      </trkpt>
      <trkpt lat="48.07047" lon="7.02678">
        <ele>1230.2</ele>
        <time>2021-12-05T14:23:42Z</time>
      </trkpt>
      <trkpt lat="48.07038" lon="7.02678">
        <ele>1229.6</ele>
        <time>2021-12-05T14:23:52Z</time>
      </trkpt>
      <trkpt lat="48.07028" lon="7.02679">
        <ele>1229.7</ele>
        <time>2021-12-05T14:24:01Z</time>
      </trkpt>
      <trkpt lat="48.07021" lon="7.02687">
        <ele>1229.7</ele>
        <time>2021-12-05T14:24:13Z</time>
      </trkpt>
      <trkpt lat="48.07016" lon="7.02694">
        <ele>1230.6</ele>
        <time>2021-12-05T14:24:25Z</time>
      </trkpt>
      <trkpt lat="48.07015" lon="7.02694">
        <ele>1230.6</ele>
        <time>2021-12-05T14:24:27Z</time>
      </trkpt>
      <trkpt lat="48.07007" lon="7.02697">
        <ele>1230.7</ele>
        <time>2021-12-05T14:24:49Z</time>
      </trkpt>
      <trkpt lat="48.07007" lon="7.02697">
        <ele>1230.7</ele>
        <time>2021-12-05T14:24:55Z</time>
      </trkpt>
      <trkpt lat="48.07002" lon="7.02692">
        <ele>1229.7</ele>
        <time>2021-12-05T14:25:10Z</time>
      </trkpt>
      <trkpt lat="48.07002" lon="7.02692">
        <ele>1229.7</ele>
        <time>2021-12-05T14:25:19Z</time>
      </trkpt>
      <trkpt lat="48.06993" lon="7.02691">
        <ele>1228.4</ele>
        <time>2021-12-05T14:25:27Z</time>
      </trkpt>
      <trkpt lat="48.06984" lon="7.02691">
        <ele>1227.9</ele>
        <time>2021-12-05T14:25:39Z</time>
      </trkpt>
      <trkpt lat="48.06975" lon="7.02698">
        <ele>1228.7</ele>
        <time>2021-12-05T14:25:55Z</time>
      </trkpt>
      <trkpt lat="48.06966" lon="7.02704">
        <ele>1228.7</ele>
        <time>2021-12-05T14:26:07Z</time>
      </trkpt>
      <trkpt lat="48.06957" lon="7.02701">
        <ele>1228.2</ele>
        <time>2021-12-05T14:26:14Z</time>
      </trkpt>
      <trkpt lat="48.06947" lon="7.02698">
        <ele>1226.8</ele>
        <time>2021-12-05T14:26:26Z</time>
      </trkpt>
      <trkpt lat="48.06938" lon="7.02695">
        <ele>1225.6</ele>
        <time>2021-12-05T14:26:43Z</time>
      </trkpt>
      <trkpt lat="48.06935" lon="7.02693">
        <ele>1225.4</ele>
        <time>2021-12-05T14:26:48Z</time>
      </trkpt>
      <trkpt lat="48.06933" lon="7.02693">
        <ele>1225.3</ele>
        <time>2021-12-05T14:26:49Z</time>
      </trkpt>
      <trkpt lat="48.06924" lon="7.02696">
        <ele>1225.5</ele>
        <time>2021-12-05T14:26:59Z</time>
      </trkpt>
      <trkpt lat="48.06916" lon="7.0269">
        <ele>1224.1</ele>
        <time>2021-12-05T14:27:11Z</time>
      </trkpt>
      <trkpt lat="48.06908" lon="7.02682">
        <ele>1223</ele>
        <time>2021-12-05T14:27:22Z</time>
      </trkpt>
      <trkpt lat="48.06903" lon="7.02671">
        <ele>1222.1</ele>
        <time>2021-12-05T14:27:39Z</time>
      </trkpt>
      <trkpt lat="48.06902" lon="7.02666">
        <ele>1221.7</ele>
        <time>2021-12-05T14:27:46Z</time>
      </trkpt>
      <trkpt lat="48.06902" lon="7.02666">
        <ele>1221.1</ele>
        <time>2021-12-05T14:27:48Z</time>
      </trkpt>
      <trkpt lat="48.06902" lon="7.02666">
        <ele>1221.1</ele>
        <time>2021-12-05T14:27:49Z</time>
      </trkpt>
      <trkpt lat="48.06902" lon="7.02666">
        <ele>1221.2</ele>
        <time>2021-12-05T14:27:50Z</time>
      </trkpt>
      <trkpt lat="48.06903" lon="7.02666">
        <ele>1221.2</ele>
        <time>2021-12-05T14:27:52Z</time>
      </trkpt>
      <trkpt lat="48.06902" lon="7.02666">
        <ele>1221.2</ele>
        <time>2021-12-05T14:27:55Z</time>
      </trkpt>
      <trkpt lat="48.06904" lon="7.02663">
        <ele>1221.2</ele>
        <time>2021-12-05T14:28:03Z</time>
      </trkpt>
      <trkpt lat="48.06904" lon="7.02663">
        <ele>1221.2</ele>
        <time>2021-12-05T14:28:22Z</time>
      </trkpt>
      <trkpt lat="48.06904" lon="7.02663">
        <ele>1221.2</ele>
        <time>2021-12-05T14:28:23Z</time>
      </trkpt>
      <trkpt lat="48.06904" lon="7.02662">
        <ele>1221.2</ele>
        <time>2021-12-05T14:28:24Z</time>
      </trkpt>
      <trkpt lat="48.06905" lon="7.02664">
        <ele>1221.2</ele>
        <time>2021-12-05T14:28:33Z</time>
      </trkpt>
      <trkpt lat="48.06904" lon="7.02664">
        <ele>1221.2</ele>
        <time>2021-12-05T14:28:35Z</time>
      </trkpt>
      <trkpt lat="48.06902" lon="7.02665">
        <ele>1221.2</ele>
        <time>2021-12-05T14:28:38Z</time>
      </trkpt>
      <trkpt lat="48.06903" lon="7.02665">
        <ele>1221.2</ele>
        <time>2021-12-05T14:28:39Z</time>
      </trkpt>
      <trkpt lat="48.06903" lon="7.02665">
        <ele>1221.2</ele>
        <time>2021-12-05T14:28:40Z</time>
      </trkpt>
      <trkpt lat="48.06903" lon="7.02665">
        <ele>1221.2</ele>
        <time>2021-12-05T14:28:41Z</time>
      </trkpt>
      <trkpt lat="48.06903" lon="7.02665">
        <ele>1221.2</ele>
        <time>2021-12-05T14:28:42Z</time>
      </trkpt>
      <trkpt lat="48.06901" lon="7.02665">
        <ele>1221.1</ele>
        <time>2021-12-05T14:28:43Z</time>
      </trkpt>
      <trkpt lat="48.06901" lon="7.02665">
        <ele>1221.1</ele>
        <time>2021-12-05T14:28:45Z</time>
      </trkpt>
      <trkpt lat="48.06901" lon="7.02665">
        <ele>1221.1</ele>
        <time>2021-12-05T14:28:48Z</time>
      </trkpt>
      <trkpt lat="48.06899" lon="7.02664">
        <ele>1221</ele>
        <time>2021-12-05T14:28:53Z</time>
      </trkpt>
      <trkpt lat="48.06899" lon="7.02664">
        <ele>1221.1</ele>
        <time>2021-12-05T14:28:54Z</time>
      </trkpt>
      <trkpt lat="48.06899" lon="7.02664">
        <ele>1221.1</ele>
        <time>2021-12-05T14:28:56Z</time>
      </trkpt>
      <trkpt lat="48.06899" lon="7.02664">
        <ele>1221.1</ele>
        <time>2021-12-05T14:28:57Z</time>
      </trkpt>
      <trkpt lat="48.06899" lon="7.02664">
        <ele>1221.1</ele>
        <time>2021-12-05T14:28:58Z</time>
      </trkpt>
      <trkpt lat="48.06899" lon="7.02664">
        <ele>1221.1</ele>
        <time>2021-12-05T14:29:04Z</time>
      </trkpt>
      <trkpt lat="48.069" lon="7.02663">
        <ele>1221.1</ele>
        <time>2021-12-05T14:29:06Z</time>
      </trkpt>
      <trkpt lat="48.06899" lon="7.02663">
        <ele>1221.1</ele>
        <time>2021-12-05T14:29:07Z</time>
      </trkpt>
      <trkpt lat="48.06899" lon="7.02663">
        <ele>1221.1</ele>
        <time>2021-12-05T14:29:08Z</time>
      </trkpt>
      <trkpt lat="48.069" lon="7.02663">
        <ele>1221.1</ele>
        <time>2021-12-05T14:29:13Z</time>
      </trkpt>
      <trkpt lat="48.06899" lon="7.02661">
        <ele>1220.7</ele>
        <time>2021-12-05T14:29:19Z</time>
      </trkpt>
      <trkpt lat="48.06899" lon="7.02661">
        <ele>1220.7</ele>
        <time>2021-12-05T14:29:21Z</time>
      </trkpt>
      <trkpt lat="48.06899" lon="7.02661">
        <ele>1220.7</ele>
        <time>2021-12-05T14:29:22Z</time>
      </trkpt>
      <trkpt lat="48.06899" lon="7.02661">
        <ele>1220.6</ele>
        <time>2021-12-05T14:29:23Z</time>
      </trkpt>
      <trkpt lat="48.06898" lon="7.02661">
        <ele>1220.6</ele>
        <time>2021-12-05T14:29:25Z</time>
      </trkpt>
      <trkpt lat="48.06898" lon="7.02661">
        <ele>1220.6</ele>
        <time>2021-12-05T14:29:40Z</time>
      </trkpt>
      <trkpt lat="48.06898" lon="7.02661">
        <ele>1220.6</ele>
        <time>2021-12-05T14:29:41Z</time>
      </trkpt>
      <trkpt lat="48.06898" lon="7.02661">
        <ele>1220.6</ele>
        <time>2021-12-05T14:29:43Z</time>
      </trkpt>
      <trkpt lat="48.06898" lon="7.0266">
        <ele>1220.6</ele>
        <time>2021-12-05T14:29:44Z</time>
      </trkpt>
      <trkpt lat="48.06899" lon="7.0266">
        <ele>1220.6</ele>
        <time>2021-12-05T14:29:45Z</time>
      </trkpt>
      <trkpt lat="48.06898" lon="7.0266">
        <ele>1220.6</ele>
        <time>2021-12-05T14:29:50Z</time>
      </trkpt>
      <trkpt lat="48.06898" lon="7.0266">
        <ele>1220.6</ele>
        <time>2021-12-05T14:29:53Z</time>
      </trkpt>
      <trkpt lat="48.06898" lon="7.0266">
        <ele>1220.6</ele>
        <time>2021-12-05T14:29:55Z</time>
      </trkpt>
      <trkpt lat="48.06898" lon="7.0266">
        <ele>1220.6</ele>
        <time>2021-12-05T14:29:57Z</time>
      </trkpt>
      <trkpt lat="48.06899" lon="7.0266">
        <ele>1220.7</ele>
        <time>2021-12-05T14:30:01Z</time>
      </trkpt>
      <trkpt lat="48.06899" lon="7.0266">
        <ele>1220.7</ele>
        <time>2021-12-05T14:30:04Z</time>
      </trkpt>
      <trkpt lat="48.06899" lon="7.02659">
        <ele>1220.6</ele>
        <time>2021-12-05T14:30:09Z</time>
      </trkpt>
      <trkpt lat="48.06899" lon="7.02658">
        <ele>1220.6</ele>
        <time>2021-12-05T14:30:22Z</time>
      </trkpt>
      <trkpt lat="48.06898" lon="7.02657">
        <ele>1220.1</ele>
        <time>2021-12-05T14:30:25Z</time>
      </trkpt>
      <trkpt lat="48.06898" lon="7.02657">
        <ele>1220.1</ele>
        <time>2021-12-05T14:30:26Z</time>
      </trkpt>
      <trkpt lat="48.06898" lon="7.02657">
        <ele>1220.1</ele>
        <time>2021-12-05T14:30:28Z</time>
      </trkpt>
      <trkpt lat="48.06898" lon="7.02657">
        <ele>1220.1</ele>
        <time>2021-12-05T14:30:46Z</time>
      </trkpt>
      <trkpt lat="48.06899" lon="7.02653">
        <ele>1220.1</ele>
        <time>2021-12-05T14:30:55Z</time>
      </trkpt>
      <trkpt lat="48.06899" lon="7.02653">
        <ele>1220.1</ele>
        <time>2021-12-05T14:31:06Z</time>
      </trkpt>
      <trkpt lat="48.06899" lon="7.02653">
        <ele>1220.1</ele>
        <time>2021-12-05T14:31:07Z</time>
      </trkpt>
      <trkpt lat="48.06898" lon="7.02654">
        <ele>1220.1</ele>
        <time>2021-12-05T14:31:19Z</time>
      </trkpt>
      <trkpt lat="48.06898" lon="7.02654">
        <ele>1220.1</ele>
        <time>2021-12-05T14:31:20Z</time>
      </trkpt>
      <trkpt lat="48.06898" lon="7.02654">
        <ele>1220.1</ele>
        <time>2021-12-05T14:31:21Z</time>
      </trkpt>
      <trkpt lat="48.06898" lon="7.02654">
        <ele>1220.1</ele>
        <time>2021-12-05T14:31:22Z</time>
      </trkpt>
      <trkpt lat="48.06898" lon="7.02654">
        <ele>1220.1</ele>
        <time>2021-12-05T14:31:23Z</time>
      </trkpt>
      <trkpt lat="48.06899" lon="7.02654">
        <ele>1220.1</ele>
        <time>2021-12-05T14:31:26Z</time>
      </trkpt>
      <trkpt lat="48.06898" lon="7.02654">
        <ele>1220.1</ele>
        <time>2021-12-05T14:31:27Z</time>
      </trkpt>
      <trkpt lat="48.06898" lon="7.02654">
        <ele>1220.1</ele>
        <time>2021-12-05T14:31:28Z</time>
      </trkpt>
      <trkpt lat="48.06898" lon="7.02654">
        <ele>1220.1</ele>
        <time>2021-12-05T14:31:31Z</time>
      </trkpt>
      <trkpt lat="48.06897" lon="7.02652">
        <ele>1219.7</ele>
        <time>2021-12-05T14:31:37Z</time>
      </trkpt>
      <trkpt lat="48.06897" lon="7.02652">
        <ele>1219.7</ele>
        <time>2021-12-05T14:31:47Z</time>
      </trkpt>
      <trkpt lat="48.06897" lon="7.02652">
        <ele>1219.7</ele>
        <time>2021-12-05T14:31:48Z</time>
      </trkpt>
      <trkpt lat="48.06897" lon="7.02652">
        <ele>1219.7</ele>
        <time>2021-12-05T14:31:53Z</time>
      </trkpt>
      <trkpt lat="48.06898" lon="7.02654">
        <ele>1220.1</ele>
        <time>2021-12-05T14:31:57Z</time>
      </trkpt>
      <trkpt lat="48.06897" lon="7.02655">
        <ele>1220.1</ele>
        <time>2021-12-05T14:31:58Z</time>
      </trkpt>
      <trkpt lat="48.06897" lon="7.02655">
        <ele>1220.1</ele>
        <time>2021-12-05T14:31:59Z</time>
      </trkpt>
      <trkpt lat="48.06898" lon="7.02655">
        <ele>1220.1</ele>
        <time>2021-12-05T14:32:04Z</time>
      </trkpt>
      <trkpt lat="48.06898" lon="7.02655">
        <ele>1220.1</ele>
        <time>2021-12-05T14:32:07Z</time>
      </trkpt>
      <trkpt lat="48.06898" lon="7.02655">
        <ele>1220.1</ele>
        <time>2021-12-05T14:32:30Z</time>
      </trkpt>
      <trkpt lat="48.06898" lon="7.02654">
        <ele>1220.1</ele>
        <time>2021-12-05T14:32:32Z</time>
      </trkpt>
      <trkpt lat="48.06898" lon="7.02654">
        <ele>1220.1</ele>
        <time>2021-12-05T14:32:33Z</time>
      </trkpt>
      <trkpt lat="48.06898" lon="7.02654">
        <ele>1220.1</ele>
        <time>2021-12-05T14:32:34Z</time>
      </trkpt>
      <trkpt lat="48.06898" lon="7.02654">
        <ele>1220.1</ele>
        <time>2021-12-05T14:32:36Z</time>
      </trkpt>
      <trkpt lat="48.06898" lon="7.02655">
        <ele>1220.1</ele>
        <time>2021-12-05T14:32:39Z</time>
      </trkpt>
      <trkpt lat="48.06898" lon="7.02655">
        <ele>1220.1</ele>
        <time>2021-12-05T14:32:42Z</time>
      </trkpt>
      <trkpt lat="48.06898" lon="7.02655">
        <ele>1220.1</ele>
        <time>2021-12-05T14:32:43Z</time>
      </trkpt>
      <trkpt lat="48.06898" lon="7.02654">
        <ele>1220.1</ele>
        <time>2021-12-05T14:32:44Z</time>
      </trkpt>
      <trkpt lat="48.06898" lon="7.02654">
        <ele>1220.1</ele>
        <time>2021-12-05T14:32:46Z</time>
      </trkpt>
      <trkpt lat="48.06898" lon="7.02654">
        <ele>1220.1</ele>
        <time>2021-12-05T14:33:00Z</time>
      </trkpt>
      <trkpt lat="48.06898" lon="7.02654">
        <ele>1220.1</ele>
        <time>2021-12-05T14:33:01Z</time>
      </trkpt>
      <trkpt lat="48.06898" lon="7.02654">
        <ele>1220.1</ele>
        <time>2021-12-05T14:33:10Z</time>
      </trkpt>
      <trkpt lat="48.06898" lon="7.02654">
        <ele>1220.1</ele>
        <time>2021-12-05T14:33:13Z</time>
      </trkpt>
      <trkpt lat="48.06898" lon="7.02654">
        <ele>1220.1</ele>
        <time>2021-12-05T14:33:14Z</time>
      </trkpt>
      <trkpt lat="48.06898" lon="7.02654">
        <ele>1220.1</ele>
        <time>2021-12-05T14:33:16Z</time>
      </trkpt>
      <trkpt lat="48.06898" lon="7.02654">
        <ele>1220.1</ele>
        <time>2021-12-05T14:33:19Z</time>
      </trkpt>
      <trkpt lat="48.06898" lon="7.02654">
        <ele>1220.1</ele>
        <time>2021-12-05T14:33:20Z</time>
      </trkpt>
      <trkpt lat="48.06897" lon="7.02654">
        <ele>1220.1</ele>
        <time>2021-12-05T14:33:30Z</time>
      </trkpt>
      <trkpt lat="48.06897" lon="7.02654">
        <ele>1220.1</ele>
        <time>2021-12-05T14:33:31Z</time>
      </trkpt>
      <trkpt lat="48.06897" lon="7.02653">
        <ele>1220.1</ele>
        <time>2021-12-05T14:33:46Z</time>
      </trkpt>
      <trkpt lat="48.06897" lon="7.02653">
        <ele>1220.1</ele>
        <time>2021-12-05T14:33:47Z</time>
      </trkpt>
      <trkpt lat="48.06897" lon="7.02653">
        <ele>1220.1</ele>
        <time>2021-12-05T14:33:49Z</time>
      </trkpt>
      <trkpt lat="48.06897" lon="7.02653">
        <ele>1220.1</ele>
        <time>2021-12-05T14:33:52Z</time>
      </trkpt>
      <trkpt lat="48.06898" lon="7.02653">
        <ele>1220.1</ele>
        <time>2021-12-05T14:33:53Z</time>
      </trkpt>
      <trkpt lat="48.06897" lon="7.02653">
        <ele>1220.1</ele>
        <time>2021-12-05T14:33:55Z</time>
      </trkpt>
      <trkpt lat="48.06898" lon="7.02654">
        <ele>1220.1</ele>
        <time>2021-12-05T14:33:57Z</time>
      </trkpt>
      <trkpt lat="48.06897" lon="7.02655">
        <ele>1220.1</ele>
        <time>2021-12-05T14:34:02Z</time>
      </trkpt>
      <trkpt lat="48.06897" lon="7.02655">
        <ele>1220.1</ele>
        <time>2021-12-05T14:34:03Z</time>
      </trkpt>
      <trkpt lat="48.06896" lon="7.02655">
        <ele>1220.1</ele>
        <time>2021-12-05T14:34:06Z</time>
      </trkpt>
      <trkpt lat="48.06896" lon="7.02655">
        <ele>1220.1</ele>
        <time>2021-12-05T14:34:12Z</time>
      </trkpt>
      <trkpt lat="48.06897" lon="7.02656">
        <ele>1220.1</ele>
        <time>2021-12-05T14:34:15Z</time>
      </trkpt>
      <trkpt lat="48.06897" lon="7.02656">
        <ele>1220.1</ele>
        <time>2021-12-05T14:34:16Z</time>
      </trkpt>
      <trkpt lat="48.06897" lon="7.02656">
        <ele>1220.1</ele>
        <time>2021-12-05T14:34:17Z</time>
      </trkpt>
      <trkpt lat="48.06897" lon="7.02657">
        <ele>1220.1</ele>
        <time>2021-12-05T14:34:29Z</time>
      </trkpt>
      <trkpt lat="48.06896" lon="7.02656">
        <ele>1220.1</ele>
        <time>2021-12-05T14:34:33Z</time>
      </trkpt>
      <trkpt lat="48.06896" lon="7.02657">
        <ele>1220.1</ele>
        <time>2021-12-05T14:34:34Z</time>
      </trkpt>
      <trkpt lat="48.06896" lon="7.02655">
        <ele>1220.1</ele>
        <time>2021-12-05T14:34:41Z</time>
      </trkpt>
      <trkpt lat="48.06896" lon="7.02655">
        <ele>1220.1</ele>
        <time>2021-12-05T14:34:43Z</time>
      </trkpt>
      <trkpt lat="48.06895" lon="7.02656">
        <ele>1220.1</ele>
        <time>2021-12-05T14:34:52Z</time>
      </trkpt>
      <trkpt lat="48.06895" lon="7.02656">
        <ele>1220.1</ele>
        <time>2021-12-05T14:34:54Z</time>
      </trkpt>
      <trkpt lat="48.06896" lon="7.02655">
        <ele>1220.1</ele>
        <time>2021-12-05T14:35:11Z</time>
      </trkpt>
      <trkpt lat="48.06896" lon="7.02655">
        <ele>1220.1</ele>
        <time>2021-12-05T14:35:12Z</time>
      </trkpt>
      <trkpt lat="48.06896" lon="7.02655">
        <ele>1220.1</ele>
        <time>2021-12-05T14:35:14Z</time>
      </trkpt>
      <trkpt lat="48.06895" lon="7.02655">
        <ele>1220.1</ele>
        <time>2021-12-05T14:35:15Z</time>
      </trkpt>
      <trkpt lat="48.06896" lon="7.02656">
        <ele>1220.1</ele>
        <time>2021-12-05T14:35:19Z</time>
      </trkpt>
      <trkpt lat="48.06897" lon="7.02656">
        <ele>1220.1</ele>
        <time>2021-12-05T14:35:30Z</time>
      </trkpt>
      <trkpt lat="48.06897" lon="7.02656">
        <ele>1220.1</ele>
        <time>2021-12-05T14:35:31Z</time>
      </trkpt>
      <trkpt lat="48.06896" lon="7.02656">
        <ele>1220.1</ele>
        <time>2021-12-05T14:35:38Z</time>
      </trkpt>
      <trkpt lat="48.06896" lon="7.02656">
        <ele>1220.1</ele>
        <time>2021-12-05T14:35:39Z</time>
      </trkpt>
      <trkpt lat="48.06897" lon="7.02657">
        <ele>1220.1</ele>
        <time>2021-12-05T14:35:44Z</time>
      </trkpt>
      <trkpt lat="48.06897" lon="7.02656">
        <ele>1220.1</ele>
        <time>2021-12-05T14:35:46Z</time>
      </trkpt>
      <trkpt lat="48.06896" lon="7.02655">
        <ele>1220.1</ele>
        <time>2021-12-05T14:35:49Z</time>
      </trkpt>
      <trkpt lat="48.06896" lon="7.02655">
        <ele>1220.1</ele>
        <time>2021-12-05T14:35:50Z</time>
      </trkpt>
      <trkpt lat="48.06896" lon="7.02655">
        <ele>1220.1</ele>
        <time>2021-12-05T14:35:51Z</time>
      </trkpt>
      <trkpt lat="48.06895" lon="7.02654">
        <ele>1220.1</ele>
        <time>2021-12-05T14:35:54Z</time>
      </trkpt>
      <trkpt lat="48.06895" lon="7.02654">
        <ele>1220.1</ele>
        <time>2021-12-05T14:35:55Z</time>
      </trkpt>
      <trkpt lat="48.06895" lon="7.02654">
        <ele>1220.1</ele>
        <time>2021-12-05T14:35:56Z</time>
      </trkpt>
      <trkpt lat="48.06895" lon="7.02654">
        <ele>1220.1</ele>
        <time>2021-12-05T14:35:57Z</time>
      </trkpt>
      <trkpt lat="48.06895" lon="7.02654">
        <ele>1220.1</ele>
        <time>2021-12-05T14:35:59Z</time>
      </trkpt>
      <trkpt lat="48.06895" lon="7.02654">
        <ele>1220.1</ele>
        <time>2021-12-05T14:36:00Z</time>
      </trkpt>
      <trkpt lat="48.06895" lon="7.02652">
        <ele>1219.6</ele>
        <time>2021-12-05T14:36:06Z</time>
      </trkpt>
      <trkpt lat="48.06895" lon="7.02652">
        <ele>1219.6</ele>
        <time>2021-12-05T14:36:07Z</time>
      </trkpt>
      <trkpt lat="48.06895" lon="7.02652">
        <ele>1219.6</ele>
        <time>2021-12-05T14:36:10Z</time>
      </trkpt>
      <trkpt lat="48.06895" lon="7.02652">
        <ele>1219.6</ele>
        <time>2021-12-05T14:36:11Z</time>
      </trkpt>
      <trkpt lat="48.06896" lon="7.02653">
        <ele>1220.1</ele>
        <time>2021-12-05T14:36:17Z</time>
      </trkpt>
      <trkpt lat="48.06896" lon="7.02653">
        <ele>1220.1</ele>
        <time>2021-12-05T14:36:18Z</time>
      </trkpt>
      <trkpt lat="48.06897" lon="7.02653">
        <ele>1219.7</ele>
        <time>2021-12-05T14:36:23Z</time>
      </trkpt>
      <trkpt lat="48.06898" lon="7.02653">
        <ele>1219.7</ele>
        <time>2021-12-05T14:36:24Z</time>
      </trkpt>
      <trkpt lat="48.06904" lon="7.02642">
        <ele>1218.9</ele>
        <time>2021-12-05T14:36:39Z</time>
      </trkpt>
      <trkpt lat="48.06913" lon="7.02636">
        <ele>1218.6</ele>
        <time>2021-12-05T14:36:54Z</time>
      </trkpt>
      <trkpt lat="48.06912" lon="7.02625">
        <ele>1217.4</ele>
        <time>2021-12-05T14:37:12Z</time>
      </trkpt>
      <trkpt lat="48.06912" lon="7.02624">
        <ele>1217.4</ele>
        <time>2021-12-05T14:37:19Z</time>
      </trkpt>
      <trkpt lat="48.06912" lon="7.02623">
        <ele>1217</ele>
        <time>2021-12-05T14:37:23Z</time>
      </trkpt>
      <trkpt lat="48.06911" lon="7.02623">
        <ele>1217</ele>
        <time>2021-12-05T14:37:24Z</time>
      </trkpt>
      <trkpt lat="48.0691" lon="7.02609">
        <ele>1215.5</ele>
        <time>2021-12-05T14:37:31Z</time>
      </trkpt>
      <trkpt lat="48.06902" lon="7.02598">
        <ele>1214.5</ele>
        <time>2021-12-05T14:37:39Z</time>
      </trkpt>
      <trkpt lat="48.06901" lon="7.02583">
        <ele>1212.3</ele>
        <time>2021-12-05T14:37:45Z</time>
      </trkpt>
      <trkpt lat="48.06897" lon="7.02571">
        <ele>1210.3</ele>
        <time>2021-12-05T14:37:56Z</time>
      </trkpt>
      <trkpt lat="48.06896" lon="7.02568">
        <ele>1210.2</ele>
        <time>2021-12-05T14:38:02Z</time>
      </trkpt>
      <trkpt lat="48.06895" lon="7.02568">
        <ele>1210.2</ele>
        <time>2021-12-05T14:38:04Z</time>
      </trkpt>
      <trkpt lat="48.06895" lon="7.02568">
        <ele>1210.2</ele>
        <time>2021-12-05T14:38:07Z</time>
      </trkpt>
      <trkpt lat="48.06894" lon="7.02568">
        <ele>1210.2</ele>
        <time>2021-12-05T14:38:09Z</time>
      </trkpt>
      <trkpt lat="48.0689" lon="7.02555">
        <ele>1207.6</ele>
        <time>2021-12-05T14:38:18Z</time>
      </trkpt>
      <trkpt lat="48.06885" lon="7.02541">
        <ele>1204.1</ele>
        <time>2021-12-05T14:38:29Z</time>
      </trkpt>
      <trkpt lat="48.06883" lon="7.02538">
        <ele>1204.1</ele>
        <time>2021-12-05T14:38:33Z</time>
      </trkpt>
      <trkpt lat="48.06883" lon="7.02538">
        <ele>1204.1</ele>
        <time>2021-12-05T14:38:35Z</time>
      </trkpt>
      <trkpt lat="48.06877" lon="7.02526">
        <ele>1201.2</ele>
        <time>2021-12-05T14:38:45Z</time>
      </trkpt>
      <trkpt lat="48.06871" lon="7.02516">
        <ele>1199.1</ele>
        <time>2021-12-05T14:38:51Z</time>
      </trkpt>
      <trkpt lat="48.06862" lon="7.02521">
        <ele>1199.5</ele>
        <time>2021-12-05T14:39:01Z</time>
      </trkpt>
      <trkpt lat="48.06854" lon="7.02528">
        <ele>1199.6</ele>
        <time>2021-12-05T14:39:11Z</time>
      </trkpt>
      <trkpt lat="48.06845" lon="7.02528">
        <ele>1198.8</ele>
        <time>2021-12-05T14:39:22Z</time>
      </trkpt>
      <trkpt lat="48.06835" lon="7.02526">
        <ele>1197.4</ele>
        <time>2021-12-05T14:39:31Z</time>
      </trkpt>
      <trkpt lat="48.06825" lon="7.02525">
        <ele>1196.1</ele>
        <time>2021-12-05T14:39:39Z</time>
      </trkpt>
      <trkpt lat="48.06816" lon="7.0252">
        <ele>1194.2</ele>
        <time>2021-12-05T14:39:48Z</time>
      </trkpt>
      <trkpt lat="48.06807" lon="7.02516">
        <ele>1191.9</ele>
        <time>2021-12-05T14:39:56Z</time>
      </trkpt>
      <trkpt lat="48.06797" lon="7.02517">
        <ele>1190.8</ele>
        <time>2021-12-05T14:40:07Z</time>
      </trkpt>
      <trkpt lat="48.06788" lon="7.02516">
        <ele>1189.8</ele>
        <time>2021-12-05T14:40:18Z</time>
      </trkpt>
      <trkpt lat="48.06783" lon="7.02517">
        <ele>1189.2</ele>
        <time>2021-12-05T14:40:28Z</time>
      </trkpt>
      <trkpt lat="48.06783" lon="7.02517">
        <ele>1189.2</ele>
        <time>2021-12-05T14:40:29Z</time>
      </trkpt>
      <trkpt lat="48.06783" lon="7.02517">
        <ele>1189.2</ele>
        <time>2021-12-05T14:40:30Z</time>
      </trkpt>
      <trkpt lat="48.06783" lon="7.02517">
        <ele>1189.2</ele>
        <time>2021-12-05T14:40:32Z</time>
      </trkpt>
      <trkpt lat="48.06783" lon="7.02517">
        <ele>1189.2</ele>
        <time>2021-12-05T14:40:34Z</time>
      </trkpt>
      <trkpt lat="48.06783" lon="7.02517">
        <ele>1189.2</ele>
        <time>2021-12-05T14:40:35Z</time>
      </trkpt>
      <trkpt lat="48.06783" lon="7.02518">
        <ele>1189.2</ele>
        <time>2021-12-05T14:40:38Z</time>
      </trkpt>
      <trkpt lat="48.06783" lon="7.02518">
        <ele>1189.2</ele>
        <time>2021-12-05T14:40:39Z</time>
      </trkpt>
      <trkpt lat="48.06781" lon="7.02518">
        <ele>1188.9</ele>
        <time>2021-12-05T14:40:52Z</time>
      </trkpt>
      <trkpt lat="48.0678" lon="7.02518">
        <ele>1188.9</ele>
        <time>2021-12-05T14:40:53Z</time>
      </trkpt>
      <trkpt lat="48.0678" lon="7.02518">
        <ele>1188.9</ele>
        <time>2021-12-05T14:40:54Z</time>
      </trkpt>
      <trkpt lat="48.0678" lon="7.02518">
        <ele>1188.9</ele>
        <time>2021-12-05T14:41:00Z</time>
      </trkpt>
      <trkpt lat="48.0678" lon="7.02518">
        <ele>1188.9</ele>
        <time>2021-12-05T14:41:01Z</time>
      </trkpt>
      <trkpt lat="48.06779" lon="7.02518">
        <ele>1188.9</ele>
        <time>2021-12-05T14:41:02Z</time>
      </trkpt>
      <trkpt lat="48.0677" lon="7.02521">
        <ele>1188.1</ele>
        <time>2021-12-05T14:41:18Z</time>
      </trkpt>
      <trkpt lat="48.06761" lon="7.02518">
        <ele>1187.1</ele>
        <time>2021-12-05T14:41:30Z</time>
      </trkpt>
      <trkpt lat="48.06752" lon="7.02512">
        <ele>1186.2</ele>
        <time>2021-12-05T14:41:41Z</time>
      </trkpt>
      <trkpt lat="48.06747" lon="7.02511">
        <ele>1185.8</ele>
        <time>2021-12-05T14:41:53Z</time>
      </trkpt>
      <trkpt lat="48.06747" lon="7.02511">
        <ele>1185.8</ele>
        <time>2021-12-05T14:41:55Z</time>
      </trkpt>
      <trkpt lat="48.06747" lon="7.02511">
        <ele>1185.8</ele>
        <time>2021-12-05T14:41:56Z</time>
      </trkpt>
      <trkpt lat="48.06747" lon="7.02512">
        <ele>1186</ele>
        <time>2021-12-05T14:42:07Z</time>
      </trkpt>
      <trkpt lat="48.06747" lon="7.02513">
        <ele>1185.8</ele>
        <time>2021-12-05T14:42:12Z</time>
      </trkpt>
      <trkpt lat="48.06747" lon="7.02513">
        <ele>1185.8</ele>
        <time>2021-12-05T14:42:14Z</time>
      </trkpt>
      <trkpt lat="48.06747" lon="7.02514">
        <ele>1185.8</ele>
        <time>2021-12-05T14:42:16Z</time>
      </trkpt>
      <trkpt lat="48.06747" lon="7.02514">
        <ele>1185.8</ele>
        <time>2021-12-05T14:42:18Z</time>
      </trkpt>
      <trkpt lat="48.06742" lon="7.02526">
        <ele>1186.4</ele>
        <time>2021-12-05T14:42:37Z</time>
      </trkpt>
      <trkpt lat="48.06732" lon="7.02528">
        <ele>1186.1</ele>
        <time>2021-12-05T14:42:49Z</time>
      </trkpt>
      <trkpt lat="48.0673" lon="7.02528">
        <ele>1186.1</ele>
        <time>2021-12-05T14:42:53Z</time>
      </trkpt>
      <trkpt lat="48.06729" lon="7.02528">
        <ele>1186.1</ele>
        <time>2021-12-05T14:42:54Z</time>
      </trkpt>
      <trkpt lat="48.0672" lon="7.02527">
        <ele>1186.1</ele>
        <time>2021-12-05T14:43:07Z</time>
      </trkpt>
      <trkpt lat="48.06713" lon="7.02519">
        <ele>1185.6</ele>
        <time>2021-12-05T14:43:18Z</time>
      </trkpt>
      <trkpt lat="48.06706" lon="7.0251">
        <ele>1185.6</ele>
        <time>2021-12-05T14:43:26Z</time>
      </trkpt>
      <trkpt lat="48.06697" lon="7.02508">
        <ele>1185.9</ele>
        <time>2021-12-05T14:43:33Z</time>
      </trkpt>
      <trkpt lat="48.06688" lon="7.02503">
        <ele>1186</ele>
        <time>2021-12-05T14:43:48Z</time>
      </trkpt>
      <trkpt lat="48.06686" lon="7.02489">
        <ele>1185.4</ele>
        <time>2021-12-05T14:44:04Z</time>
      </trkpt>
      <trkpt lat="48.06677" lon="7.02486">
        <ele>1185.3</ele>
        <time>2021-12-05T14:44:15Z</time>
      </trkpt>
      <trkpt lat="48.06668" lon="7.02484">
        <ele>1184.8</ele>
        <time>2021-12-05T14:44:27Z</time>
      </trkpt>
      <trkpt lat="48.0666" lon="7.02476">
        <ele>1184</ele>
        <time>2021-12-05T14:44:35Z</time>
      </trkpt>
      <trkpt lat="48.06651" lon="7.0247">
        <ele>1183.2</ele>
        <time>2021-12-05T14:44:44Z</time>
      </trkpt>
      <trkpt lat="48.06643" lon="7.02461">
        <ele>1181.7</ele>
        <time>2021-12-05T14:44:53Z</time>
      </trkpt>
      <trkpt lat="48.06635" lon="7.02456">
        <ele>1180.2</ele>
        <time>2021-12-05T14:45:04Z</time>
      </trkpt>
      <trkpt lat="48.06626" lon="7.02459">
        <ele>1179.4</ele>
        <time>2021-12-05T14:45:16Z</time>
      </trkpt>
      <trkpt lat="48.06617" lon="7.02467">
        <ele>1180.2</ele>
        <time>2021-12-05T14:45:29Z</time>
      </trkpt>
      <trkpt lat="48.06608" lon="7.0247">
        <ele>1180.6</ele>
        <time>2021-12-05T14:45:39Z</time>
      </trkpt>
      <trkpt lat="48.06606" lon="7.02474">
        <ele>1181.3</ele>
        <time>2021-12-05T14:45:43Z</time>
      </trkpt>
      <trkpt lat="48.06605" lon="7.02474">
        <ele>1181.3</ele>
        <time>2021-12-05T14:45:44Z</time>
      </trkpt>
      <trkpt lat="48.06596" lon="7.02476">
        <ele>1180.8</ele>
        <time>2021-12-05T14:45:56Z</time>
      </trkpt>
      <trkpt lat="48.06587" lon="7.0248">
        <ele>1180.9</ele>
        <time>2021-12-05T14:46:10Z</time>
      </trkpt>
      <trkpt lat="48.06578" lon="7.02483">
        <ele>1180.8</ele>
        <time>2021-12-05T14:46:18Z</time>
      </trkpt>
      <trkpt lat="48.06569" lon="7.02487">
        <ele>1180.8</ele>
        <time>2021-12-05T14:46:28Z</time>
      </trkpt>
      <trkpt lat="48.0656" lon="7.02493">
        <ele>1181.1</ele>
        <time>2021-12-05T14:46:36Z</time>
      </trkpt>
      <trkpt lat="48.0655" lon="7.02499">
        <ele>1182.1</ele>
        <time>2021-12-05T14:46:46Z</time>
      </trkpt>
      <trkpt lat="48.06541" lon="7.02502">
        <ele>1181.5</ele>
        <time>2021-12-05T14:47:01Z</time>
      </trkpt>
      <trkpt lat="48.06532" lon="7.02507">
        <ele>1181.4</ele>
        <time>2021-12-05T14:47:12Z</time>
      </trkpt>
      <trkpt lat="48.06524" lon="7.025">
        <ele>1179.2</ele>
        <time>2021-12-05T14:47:23Z</time>
      </trkpt>
      <trkpt lat="48.06515" lon="7.02495">
        <ele>1177</ele>
        <time>2021-12-05T14:47:30Z</time>
      </trkpt>
      <trkpt lat="48.06506" lon="7.02491">
        <ele>1174.9</ele>
        <time>2021-12-05T14:47:38Z</time>
      </trkpt>
      <trkpt lat="48.06497" lon="7.0249">
        <ele>1172</ele>
        <time>2021-12-05T14:47:47Z</time>
      </trkpt>
      <trkpt lat="48.06486" lon="7.02485">
        <ele>1169.8</ele>
        <time>2021-12-05T14:47:56Z</time>
      </trkpt>
      <trkpt lat="48.06477" lon="7.02481">
        <ele>1167.5</ele>
        <time>2021-12-05T14:48:04Z</time>
      </trkpt>
      <trkpt lat="48.06468" lon="7.02474">
        <ele>1164.1</ele>
        <time>2021-12-05T14:48:13Z</time>
      </trkpt>
      <trkpt lat="48.06459" lon="7.02472">
        <ele>1161.2</ele>
        <time>2021-12-05T14:48:24Z</time>
      </trkpt>
      <trkpt lat="48.0645" lon="7.02479">
        <ele>1160.1</ele>
        <time>2021-12-05T14:48:33Z</time>
      </trkpt>
      <trkpt lat="48.06443" lon="7.02467">
        <ele>1156.7</ele>
        <time>2021-12-05T14:48:44Z</time>
      </trkpt>
      <trkpt lat="48.06438" lon="7.02456">
        <ele>1153.5</ele>
        <time>2021-12-05T14:49:02Z</time>
      </trkpt>
      <trkpt lat="48.06434" lon="7.02443">
        <ele>1151.1</ele>
        <time>2021-12-05T14:49:11Z</time>
      </trkpt>
      <trkpt lat="48.06427" lon="7.0243">
        <ele>1148.6</ele>
        <time>2021-12-05T14:49:18Z</time>
      </trkpt>
      <trkpt lat="48.06421" lon="7.02419">
        <ele>1146.6</ele>
        <time>2021-12-05T14:49:27Z</time>
      </trkpt>
      <trkpt lat="48.06422" lon="7.02405">
        <ele>1145.6</ele>
        <time>2021-12-05T14:49:39Z</time>
      </trkpt>
      <trkpt lat="48.06431" lon="7.024">
        <ele>1146</ele>
        <time>2021-12-05T14:49:49Z</time>
      </trkpt>
      <trkpt lat="48.06436" lon="7.02388">
        <ele>1144.9</ele>
        <time>2021-12-05T14:49:58Z</time>
      </trkpt>
      <trkpt lat="48.06441" lon="7.02376">
        <ele>1143.6</ele>
        <time>2021-12-05T14:50:08Z</time>
      </trkpt>
      <trkpt lat="48.06444" lon="7.02362">
        <ele>1142.2</ele>
        <time>2021-12-05T14:50:17Z</time>
      </trkpt>
      <trkpt lat="48.0645" lon="7.02351">
        <ele>1140.6</ele>
        <time>2021-12-05T14:50:24Z</time>
      </trkpt>
      <trkpt lat="48.06457" lon="7.02342">
        <ele>1139.2</ele>
        <time>2021-12-05T14:50:32Z</time>
      </trkpt>
      <trkpt lat="48.06459" lon="7.02328">
        <ele>1136.7</ele>
        <time>2021-12-05T14:50:45Z</time>
      </trkpt>
      <trkpt lat="48.06468" lon="7.02327">
        <ele>1136.4</ele>
        <time>2021-12-05T14:50:53Z</time>
      </trkpt>
      <trkpt lat="48.06478" lon="7.02323">
        <ele>1135.3</ele>
        <time>2021-12-05T14:51:02Z</time>
      </trkpt>
      <trkpt lat="48.06486" lon="7.02315">
        <ele>1133.6</ele>
        <time>2021-12-05T14:51:11Z</time>
      </trkpt>
      <trkpt lat="48.06495" lon="7.02307">
        <ele>1131.9</ele>
        <time>2021-12-05T14:51:19Z</time>
      </trkpt>
      <trkpt lat="48.0649" lon="7.02296">
        <ele>1129.9</ele>
        <time>2021-12-05T14:51:35Z</time>
      </trkpt>
      <trkpt lat="48.0648" lon="7.02296">
        <ele>1130.4</ele>
        <time>2021-12-05T14:51:42Z</time>
      </trkpt>
      <trkpt lat="48.06471" lon="7.0229">
        <ele>1130.2</ele>
        <time>2021-12-05T14:51:50Z</time>
      </trkpt>
      <trkpt lat="48.06469" lon="7.02277">
        <ele>1128.5</ele>
        <time>2021-12-05T14:51:59Z</time>
      </trkpt>
      <trkpt lat="48.0647" lon="7.02263">
        <ele>1127.1</ele>
        <time>2021-12-05T14:52:10Z</time>
      </trkpt>
      <trkpt lat="48.0647" lon="7.02249">
        <ele>1124.8</ele>
        <time>2021-12-05T14:52:28Z</time>
      </trkpt>
      <trkpt lat="48.06468" lon="7.0224">
        <ele>1123.8</ele>
        <time>2021-12-05T14:52:41Z</time>
      </trkpt>
      <trkpt lat="48.06468" lon="7.02239">
        <ele>1123.8</ele>
        <time>2021-12-05T14:52:43Z</time>
      </trkpt>
      <trkpt lat="48.06468" lon="7.02239">
        <ele>1123.8</ele>
        <time>2021-12-05T14:52:56Z</time>
      </trkpt>
      <trkpt lat="48.06468" lon="7.02239">
        <ele>1123.8</ele>
        <time>2021-12-05T14:53:05Z</time>
      </trkpt>
      <trkpt lat="48.06468" lon="7.02239">
        <ele>1123.8</ele>
        <time>2021-12-05T14:53:08Z</time>
      </trkpt>
      <trkpt lat="48.06469" lon="7.02239">
        <ele>1123.8</ele>
        <time>2021-12-05T14:53:10Z</time>
      </trkpt>
      <trkpt lat="48.06469" lon="7.02239">
        <ele>1123.8</ele>
        <time>2021-12-05T14:53:13Z</time>
      </trkpt>
      <trkpt lat="48.06469" lon="7.02239">
        <ele>1123.8</ele>
        <time>2021-12-05T14:53:28Z</time>
      </trkpt>
      <trkpt lat="48.06469" lon="7.02239">
        <ele>1123.8</ele>
        <time>2021-12-05T14:53:30Z</time>
      </trkpt>
      <trkpt lat="48.06469" lon="7.02239">
        <ele>1123.8</ele>
        <time>2021-12-05T14:53:31Z</time>
      </trkpt>
      <trkpt lat="48.06469" lon="7.02239">
        <ele>1123.7</ele>
        <time>2021-12-05T14:53:32Z</time>
      </trkpt>
      <trkpt lat="48.06469" lon="7.02239">
        <ele>1123.7</ele>
        <time>2021-12-05T14:53:52Z</time>
      </trkpt>
      <trkpt lat="48.06469" lon="7.02239">
        <ele>1123.7</ele>
        <time>2021-12-05T14:53:55Z</time>
      </trkpt>
      <trkpt lat="48.06469" lon="7.02239">
        <ele>1123.7</ele>
        <time>2021-12-05T14:54:26Z</time>
      </trkpt>
      <trkpt lat="48.06469" lon="7.02239">
        <ele>1123.7</ele>
        <time>2021-12-05T14:54:30Z</time>
      </trkpt>
      <trkpt lat="48.06469" lon="7.02239">
        <ele>1123.7</ele>
        <time>2021-12-05T14:54:32Z</time>
      </trkpt>
      <trkpt lat="48.06469" lon="7.02239">
        <ele>1123.7</ele>
        <time>2021-12-05T14:54:33Z</time>
      </trkpt>
      <trkpt lat="48.06469" lon="7.02239">
        <ele>1123.7</ele>
        <time>2021-12-05T14:54:34Z</time>
      </trkpt>
      <trkpt lat="48.06469" lon="7.02239">
        <ele>1123.7</ele>
        <time>2021-12-05T14:54:41Z</time>
      </trkpt>
      <trkpt lat="48.06469" lon="7.02239">
        <ele>1123.7</ele>
        <time>2021-12-05T14:54:42Z</time>
      </trkpt>
      <trkpt lat="48.06469" lon="7.02238">
        <ele>1123.7</ele>
        <time>2021-12-05T14:54:47Z</time>
      </trkpt>
      <trkpt lat="48.06469" lon="7.02238">
        <ele>1123.7</ele>
        <time>2021-12-05T14:54:52Z</time>
      </trkpt>
      <trkpt lat="48.0647" lon="7.02238">
        <ele>1123.7</ele>
        <time>2021-12-05T14:54:52Z</time>
      </trkpt>
      <trkpt lat="48.0647" lon="7.02238">
        <ele>1123.7</ele>
        <time>2021-12-05T14:54:52Z</time>
      </trkpt>
      <trkpt lat="48.0647" lon="7.02238">
        <ele>1123.7</ele>
        <time>2021-12-05T14:54:52Z</time>
      </trkpt>
    </trkseg>
  </trk>
</gpx>